<?xml version="1.0" encoding="UTF-8" standalone="no" ?>
<gpx xmlns="http://www.topografix.com/GPX/1/1" xmlns:xsi="http://www.w3.org/2001/XMLSchema-instance" xsi:schemaLocation="http://www.topografix.com/GPX/1/1 http://www.topografix.com/GPX/1/1/gpx.xsd" version="1.1" creator="VisuGPX - https://www.visugpx.com">
  <metadata>
    <name>vtt amadeus</name>
    <desc><![CDATA[vtt valmasque]]></desc>
  </metadata>
  <trk>
    <name><![CDATA[vtt valmasque Aga]]></name>
    <trkseg>
      <trkpt lat="43.62246" lon="7.06135">
        <ele>131.39999389648</ele>
        <time>2011-09-01T10:26:05.000Z</time>
      </trkpt>
      <trkpt lat="43.62257" lon="7.06152">
        <ele>131.39999389648</ele>
        <time>2011-09-01T10:26:09.000Z</time>
      </trkpt>
      <trkpt lat="43.62269" lon="7.06171">
        <ele>131</ele>
        <time>2011-09-01T10:26:13.000Z</time>
      </trkpt>
      <trkpt lat="43.62273" lon="7.06175">
        <ele>130.80000305176</ele>
        <time>2011-09-01T10:26:14.000Z</time>
      </trkpt>
      <trkpt lat="43.62275" lon="7.0618">
        <ele>130.60000610352</ele>
        <time>2011-09-01T10:26:15.000Z</time>
      </trkpt>
      <trkpt lat="43.62276" lon="7.06189">
        <ele>130</ele>
        <time>2011-09-01T10:26:18.000Z</time>
      </trkpt>
      <trkpt lat="43.62285" lon="7.06196">
        <ele>129.80000305176</ele>
        <time>2011-09-01T10:26:22.000Z</time>
      </trkpt>
      <trkpt lat="43.62298" lon="7.06203">
        <ele>129.80000305176</ele>
        <time>2011-09-01T10:26:27.000Z</time>
      </trkpt>
      <trkpt lat="43.62301" lon="7.06203">
        <ele>129.80000305176</ele>
        <time>2011-09-01T10:26:28.000Z</time>
      </trkpt>
      <trkpt lat="43.62314" lon="7.06199">
        <ele>130.80000305176</ele>
        <time>2011-09-01T10:26:34.000Z</time>
      </trkpt>
      <trkpt lat="43.62325" lon="7.06183">
        <ele>133.19999694824</ele>
        <time>2011-09-01T10:26:41.000Z</time>
      </trkpt>
      <trkpt lat="43.62338" lon="7.06165">
        <ele>136.19999694824</ele>
        <time>2011-09-01T10:26:49.000Z</time>
      </trkpt>
      <trkpt lat="43.62338" lon="7.06162">
        <ele>136.39999389648</ele>
        <time>2011-09-01T10:26:50.000Z</time>
      </trkpt>
      <trkpt lat="43.6235" lon="7.06149">
        <ele>137.60000610352</ele>
        <time>2011-09-01T10:26:57.000Z</time>
      </trkpt>
      <trkpt lat="43.6236" lon="7.06133">
        <ele>139</ele>
        <time>2011-09-01T10:27:02.000Z</time>
      </trkpt>
      <trkpt lat="43.62368" lon="7.06108">
        <ele>141.19999694824</ele>
        <time>2011-09-01T10:27:09.000Z</time>
      </trkpt>
      <trkpt lat="43.62368" lon="7.06104">
        <ele>141.60000610352</ele>
        <time>2011-09-01T10:27:10.000Z</time>
      </trkpt>
      <trkpt lat="43.62374" lon="7.0608">
        <ele>143.60000610352</ele>
        <time>2011-09-01T10:27:17.000Z</time>
      </trkpt>
      <trkpt lat="43.6238" lon="7.0607">
        <ele>144</ele>
        <time>2011-09-01T10:27:20.000Z</time>
      </trkpt>
      <trkpt lat="43.62387" lon="7.06045">
        <ele>145.19999694824</ele>
        <time>2011-09-01T10:27:27.000Z</time>
      </trkpt>
      <trkpt lat="43.62388" lon="7.06041">
        <ele>145.39999389648</ele>
        <time>2011-09-01T10:27:28.000Z</time>
      </trkpt>
      <trkpt lat="43.62399" lon="7.06019">
        <ele>146.39999389648</ele>
        <time>2011-09-01T10:27:34.000Z</time>
      </trkpt>
      <trkpt lat="43.62401" lon="7.06016">
        <ele>146.39999389648</ele>
        <time>2011-09-01T10:27:35.000Z</time>
      </trkpt>
      <trkpt lat="43.62413" lon="7.06003">
        <ele>146.80000305176</ele>
        <time>2011-09-01T10:27:40.000Z</time>
      </trkpt>
      <trkpt lat="43.62413" lon="7.05987">
        <ele>146.80000305176</ele>
        <time>2011-09-01T10:27:44.000Z</time>
      </trkpt>
      <trkpt lat="43.62409" lon="7.05964">
        <ele>146.39999389648</ele>
        <time>2011-09-01T10:27:50.000Z</time>
      </trkpt>
      <trkpt lat="43.62417" lon="7.05946">
        <ele>146.19999694824</ele>
        <time>2011-09-01T10:27:56.000Z</time>
      </trkpt>
      <trkpt lat="43.62418" lon="7.05941">
        <ele>146.39999389648</ele>
        <time>2011-09-01T10:27:59.000Z</time>
      </trkpt>
      <trkpt lat="43.6242" lon="7.05938">
        <ele>146.39999389648</ele>
        <time>2011-09-01T10:28:01.000Z</time>
      </trkpt>
      <trkpt lat="43.62422" lon="7.05921">
        <ele>146.39999389648</ele>
        <time>2011-09-01T10:28:05.000Z</time>
      </trkpt>
      <trkpt lat="43.62429" lon="7.05911">
        <ele>146.80000305176</ele>
        <time>2011-09-01T10:28:09.000Z</time>
      </trkpt>
      <trkpt lat="43.62433" lon="7.05909">
        <ele>147</ele>
        <time>2011-09-01T10:28:11.000Z</time>
      </trkpt>
      <trkpt lat="43.62446" lon="7.05907">
        <ele>148</ele>
        <time>2011-09-01T10:28:15.000Z</time>
      </trkpt>
      <trkpt lat="43.62466" lon="7.05902">
        <ele>149.39999389648</ele>
        <time>2011-09-01T10:28:22.000Z</time>
      </trkpt>
      <trkpt lat="43.62484" lon="7.05902">
        <ele>150.80000305176</ele>
        <time>2011-09-01T10:28:28.000Z</time>
      </trkpt>
      <trkpt lat="43.62487" lon="7.05901">
        <ele>151</ele>
        <time>2011-09-01T10:28:29.000Z</time>
      </trkpt>
      <trkpt lat="43.62505" lon="7.05891">
        <ele>151.80000305176</ele>
        <time>2011-09-01T10:28:35.000Z</time>
      </trkpt>
      <trkpt lat="43.62523" lon="7.05881">
        <ele>152.39999389648</ele>
        <time>2011-09-01T10:28:41.000Z</time>
      </trkpt>
      <trkpt lat="43.62539" lon="7.05871">
        <ele>153.19999694824</ele>
        <time>2011-09-01T10:28:46.000Z</time>
      </trkpt>
      <trkpt lat="43.62554" lon="7.05863">
        <ele>154.19999694824</ele>
        <time>2011-09-01T10:28:51.000Z</time>
      </trkpt>
      <trkpt lat="43.62569" lon="7.0585">
        <ele>155</ele>
        <time>2011-09-01T10:28:56.000Z</time>
      </trkpt>
      <trkpt lat="43.62586" lon="7.05835">
        <ele>156.19999694824</ele>
        <time>2011-09-01T10:29:02.000Z</time>
      </trkpt>
      <trkpt lat="43.62599" lon="7.05828">
        <ele>157</ele>
        <time>2011-09-01T10:29:07.000Z</time>
      </trkpt>
      <trkpt lat="43.62612" lon="7.05811">
        <ele>157</ele>
        <time>2011-09-01T10:29:13.000Z</time>
      </trkpt>
      <trkpt lat="43.62626" lon="7.0579">
        <ele>156.80000305176</ele>
        <time>2011-09-01T10:29:19.000Z</time>
      </trkpt>
      <trkpt lat="43.62637" lon="7.05774">
        <ele>156.80000305176</ele>
        <time>2011-09-01T10:29:24.000Z</time>
      </trkpt>
      <trkpt lat="43.62646" lon="7.05751">
        <ele>156</ele>
        <time>2011-09-01T10:29:30.000Z</time>
      </trkpt>
      <trkpt lat="43.62664" lon="7.0574">
        <ele>156.80000305176</ele>
        <time>2011-09-01T10:29:36.000Z</time>
      </trkpt>
      <trkpt lat="43.62684" lon="7.05735">
        <ele>158.39999389648</ele>
        <time>2011-09-01T10:29:42.000Z</time>
      </trkpt>
      <trkpt lat="43.62687" lon="7.05734">
        <ele>158.60000610352</ele>
        <time>2011-09-01T10:29:43.000Z</time>
      </trkpt>
      <trkpt lat="43.62702" lon="7.05731">
        <ele>159.80000305176</ele>
        <time>2011-09-01T10:29:49.000Z</time>
      </trkpt>
      <trkpt lat="43.62718" lon="7.05733">
        <ele>161.80000305176</ele>
        <time>2011-09-01T10:29:55.000Z</time>
      </trkpt>
      <trkpt lat="43.62731" lon="7.05741">
        <ele>164</ele>
        <time>2011-09-01T10:30:02.000Z</time>
      </trkpt>
      <trkpt lat="43.62742" lon="7.05753">
        <ele>166.19999694824</ele>
        <time>2011-09-01T10:30:07.000Z</time>
      </trkpt>
      <trkpt lat="43.62751" lon="7.05757">
        <ele>167.39999389648</ele>
        <time>2011-09-01T10:30:12.000Z</time>
      </trkpt>
      <trkpt lat="43.62766" lon="7.05755">
        <ele>168</ele>
        <time>2011-09-01T10:30:18.000Z</time>
      </trkpt>
      <trkpt lat="43.62782" lon="7.05744">
        <ele>168</ele>
        <time>2011-09-01T10:30:24.000Z</time>
      </trkpt>
      <trkpt lat="43.62799" lon="7.05735">
        <ele>168.60000610352</ele>
        <time>2011-09-01T10:30:29.000Z</time>
      </trkpt>
      <trkpt lat="43.62818" lon="7.05724">
        <ele>169.39999389648</ele>
        <time>2011-09-01T10:30:35.000Z</time>
      </trkpt>
      <trkpt lat="43.62837" lon="7.05717">
        <ele>170.39999389648</ele>
        <time>2011-09-01T10:30:41.000Z</time>
      </trkpt>
      <trkpt lat="43.62856" lon="7.05709">
        <ele>169.39999389648</ele>
        <time>2011-09-01T10:30:47.000Z</time>
      </trkpt>
      <trkpt lat="43.6286" lon="7.05708">
        <ele>169.19999694824</ele>
        <time>2011-09-01T10:30:48.000Z</time>
      </trkpt>
      <trkpt lat="43.62877" lon="7.05697">
        <ele>168.80000305176</ele>
        <time>2011-09-01T10:30:53.000Z</time>
      </trkpt>
      <trkpt lat="43.62879" lon="7.05693">
        <ele>168.80000305176</ele>
        <time>2011-09-01T10:30:54.000Z</time>
      </trkpt>
      <trkpt lat="43.62886" lon="7.05667">
        <ele>169.19999694824</ele>
        <time>2011-09-01T10:31:00.000Z</time>
      </trkpt>
      <trkpt lat="43.62888" lon="7.05663">
        <ele>169.39999389648</ele>
        <time>2011-09-01T10:31:01.000Z</time>
      </trkpt>
      <trkpt lat="43.629" lon="7.05642">
        <ele>170.60000610352</ele>
        <time>2011-09-01T10:31:07.000Z</time>
      </trkpt>
      <trkpt lat="43.62905" lon="7.05618">
        <ele>172.39999389648</ele>
        <time>2011-09-01T10:31:13.000Z</time>
      </trkpt>
      <trkpt lat="43.62906" lon="7.05614">
        <ele>172.80000305176</ele>
        <time>2011-09-01T10:31:14.000Z</time>
      </trkpt>
      <trkpt lat="43.6291" lon="7.05591">
        <ele>174.80000305176</ele>
        <time>2011-09-01T10:31:20.000Z</time>
      </trkpt>
      <trkpt lat="43.62913" lon="7.05564">
        <ele>176.39999389648</ele>
        <time>2011-09-01T10:31:27.000Z</time>
      </trkpt>
      <trkpt lat="43.62914" lon="7.05561">
        <ele>176.60000610352</ele>
        <time>2011-09-01T10:31:28.000Z</time>
      </trkpt>
      <trkpt lat="43.62913" lon="7.05535">
        <ele>177.80000305176</ele>
        <time>2011-09-01T10:31:34.000Z</time>
      </trkpt>
      <trkpt lat="43.62919" lon="7.05518">
        <ele>179</ele>
        <time>2011-09-01T10:31:39.000Z</time>
      </trkpt>
      <trkpt lat="43.6293" lon="7.05507">
        <ele>179</ele>
        <time>2011-09-01T10:31:44.000Z</time>
      </trkpt>
      <trkpt lat="43.62946" lon="7.05491">
        <ele>178.60000610352</ele>
        <time>2011-09-01T10:31:49.000Z</time>
      </trkpt>
      <trkpt lat="43.62959" lon="7.0547">
        <ele>178</ele>
        <time>2011-09-01T10:31:54.000Z</time>
      </trkpt>
      <trkpt lat="43.62962" lon="7.0546">
        <ele>177.80000305176</ele>
        <time>2011-09-01T10:31:56.000Z</time>
      </trkpt>
      <trkpt lat="43.6297" lon="7.05436">
        <ele>177.39999389648</ele>
        <time>2011-09-01T10:32:01.000Z</time>
      </trkpt>
      <trkpt lat="43.62973" lon="7.05431">
        <ele>177.39999389648</ele>
        <time>2011-09-01T10:32:02.000Z</time>
      </trkpt>
      <trkpt lat="43.62981" lon="7.05404">
        <ele>177.80000305176</ele>
        <time>2011-09-01T10:32:07.000Z</time>
      </trkpt>
      <trkpt lat="43.62982" lon="7.05399">
        <ele>178</ele>
        <time>2011-09-01T10:32:08.000Z</time>
      </trkpt>
      <trkpt lat="43.62987" lon="7.05373">
        <ele>179.60000610352</ele>
        <time>2011-09-01T10:32:13.000Z</time>
      </trkpt>
      <trkpt lat="43.62989" lon="7.05366">
        <ele>180</ele>
        <time>2011-09-01T10:32:15.000Z</time>
      </trkpt>
      <trkpt lat="43.62997" lon="7.05349">
        <ele>181.60000610352</ele>
        <time>2011-09-01T10:32:20.000Z</time>
      </trkpt>
      <trkpt lat="43.63012" lon="7.05328">
        <ele>180.39999389648</ele>
        <time>2011-09-01T10:32:26.000Z</time>
      </trkpt>
      <trkpt lat="43.63016" lon="7.05321">
        <ele>180</ele>
        <time>2011-09-01T10:32:28.000Z</time>
      </trkpt>
      <trkpt lat="43.63022" lon="7.05294">
        <ele>179.60000610352</ele>
        <time>2011-09-01T10:32:34.000Z</time>
      </trkpt>
      <trkpt lat="43.63023" lon="7.0529">
        <ele>179.60000610352</ele>
        <time>2011-09-01T10:32:35.000Z</time>
      </trkpt>
      <trkpt lat="43.63025" lon="7.05264">
        <ele>180.19999694824</ele>
        <time>2011-09-01T10:32:41.000Z</time>
      </trkpt>
      <trkpt lat="43.63024" lon="7.0526">
        <ele>180.80000305176</ele>
        <time>2011-09-01T10:32:42.000Z</time>
      </trkpt>
      <trkpt lat="43.63014" lon="7.05234">
        <ele>183.19999694824</ele>
        <time>2011-09-01T10:32:48.000Z</time>
      </trkpt>
      <trkpt lat="43.63012" lon="7.0523">
        <ele>183.39999389648</ele>
        <time>2011-09-01T10:32:49.000Z</time>
      </trkpt>
      <trkpt lat="43.63005" lon="7.05207">
        <ele>184.19999694824</ele>
        <time>2011-09-01T10:32:55.000Z</time>
      </trkpt>
      <trkpt lat="43.62993" lon="7.0518">
        <ele>184</ele>
        <time>2011-09-01T10:33:00.000Z</time>
      </trkpt>
      <trkpt lat="43.62991" lon="7.05173">
        <ele>183.60000610352</ele>
        <time>2011-09-01T10:33:01.000Z</time>
      </trkpt>
      <trkpt lat="43.62986" lon="7.05149">
        <ele>182.39999389648</ele>
        <time>2011-09-01T10:33:04.000Z</time>
      </trkpt>
      <trkpt lat="43.62986" lon="7.0514">
        <ele>182</ele>
        <time>2011-09-01T10:33:05.000Z</time>
      </trkpt>
      <trkpt lat="43.62987" lon="7.05131">
        <ele>181.60000610352</ele>
        <time>2011-09-01T10:33:06.000Z</time>
      </trkpt>
      <trkpt lat="43.62991" lon="7.05102">
        <ele>180.60000610352</ele>
        <time>2011-09-01T10:33:09.000Z</time>
      </trkpt>
      <trkpt lat="43.62994" lon="7.05093">
        <ele>180.19999694824</ele>
        <time>2011-09-01T10:33:10.000Z</time>
      </trkpt>
      <trkpt lat="43.63001" lon="7.05067">
        <ele>179.60000610352</ele>
        <time>2011-09-01T10:33:13.000Z</time>
      </trkpt>
      <trkpt lat="43.62999" lon="7.05057">
        <ele>179.60000610352</ele>
        <time>2011-09-01T10:33:14.000Z</time>
      </trkpt>
      <trkpt lat="43.63001" lon="7.05028">
        <ele>179.19999694824</ele>
        <time>2011-09-01T10:33:17.000Z</time>
      </trkpt>
      <trkpt lat="43.63003" lon="7.05018">
        <ele>178.60000610352</ele>
        <time>2011-09-01T10:33:18.000Z</time>
      </trkpt>
      <trkpt lat="43.63012" lon="7.04991">
        <ele>176.60000610352</ele>
        <time>2011-09-01T10:33:21.000Z</time>
      </trkpt>
      <trkpt lat="43.63012" lon="7.04981">
        <ele>176.60000610352</ele>
        <time>2011-09-01T10:33:22.000Z</time>
      </trkpt>
      <trkpt lat="43.63014" lon="7.04972">
        <ele>176.19999694824</ele>
        <time>2011-09-01T10:33:23.000Z</time>
      </trkpt>
      <trkpt lat="43.63021" lon="7.04944">
        <ele>175</ele>
        <time>2011-09-01T10:33:26.000Z</time>
      </trkpt>
      <trkpt lat="43.63025" lon="7.04936">
        <ele>174.39999389648</ele>
        <time>2011-09-01T10:33:27.000Z</time>
      </trkpt>
      <trkpt lat="43.63029" lon="7.04927">
        <ele>173.60000610352</ele>
        <time>2011-09-01T10:33:28.000Z</time>
      </trkpt>
      <trkpt lat="43.63033" lon="7.04919">
        <ele>173</ele>
        <time>2011-09-01T10:33:29.000Z</time>
      </trkpt>
      <trkpt lat="43.63047" lon="7.04894">
        <ele>170.19999694824</ele>
        <time>2011-09-01T10:33:32.000Z</time>
      </trkpt>
      <trkpt lat="43.63054" lon="7.04876">
        <ele>168.60000610352</ele>
        <time>2011-09-01T10:33:34.000Z</time>
      </trkpt>
      <trkpt lat="43.63054" lon="7.04857">
        <ele>168.39999389648</ele>
        <time>2011-09-01T10:33:36.000Z</time>
      </trkpt>
      <trkpt lat="43.63043" lon="7.04834">
        <ele>170.19999694824</ele>
        <time>2011-09-01T10:33:39.000Z</time>
      </trkpt>
      <trkpt lat="43.6304" lon="7.04825">
        <ele>170.60000610352</ele>
        <time>2011-09-01T10:33:40.000Z</time>
      </trkpt>
      <trkpt lat="43.63037" lon="7.04808">
        <ele>171.19999694824</ele>
        <time>2011-09-01T10:33:42.000Z</time>
      </trkpt>
      <trkpt lat="43.63036" lon="7.04792">
        <ele>171.39999389648</ele>
        <time>2011-09-01T10:33:44.000Z</time>
      </trkpt>
      <trkpt lat="43.63036" lon="7.04762">
        <ele>171.19999694824</ele>
        <time>2011-09-01T10:33:48.000Z</time>
      </trkpt>
      <trkpt lat="43.63034" lon="7.04736">
        <ele>170.80000305176</ele>
        <time>2011-09-01T10:33:52.000Z</time>
      </trkpt>
      <trkpt lat="43.63031" lon="7.04718">
        <ele>170.60000610352</ele>
        <time>2011-09-01T10:33:55.000Z</time>
      </trkpt>
      <trkpt lat="43.63028" lon="7.04702">
        <ele>170.39999389648</ele>
        <time>2011-09-01T10:33:58.000Z</time>
      </trkpt>
      <trkpt lat="43.63021" lon="7.04684">
        <ele>170.80000305176</ele>
        <time>2011-09-01T10:34:01.000Z</time>
      </trkpt>
      <trkpt lat="43.63017" lon="7.04673">
        <ele>170.80000305176</ele>
        <time>2011-09-01T10:34:03.000Z</time>
      </trkpt>
      <trkpt lat="43.63008" lon="7.04651">
        <ele>171.80000305176</ele>
        <time>2011-09-01T10:34:07.000Z</time>
      </trkpt>
      <trkpt lat="43.63005" lon="7.04647">
        <ele>172.19999694824</ele>
        <time>2011-09-01T10:34:08.000Z</time>
      </trkpt>
      <trkpt lat="43.62996" lon="7.04629">
        <ele>173.19999694824</ele>
        <time>2011-09-01T10:34:12.000Z</time>
      </trkpt>
      <trkpt lat="43.62984" lon="7.04608">
        <ele>174</ele>
        <time>2011-09-01T10:34:18.000Z</time>
      </trkpt>
      <trkpt lat="43.62981" lon="7.04605">
        <ele>174</ele>
        <time>2011-09-01T10:34:19.000Z</time>
      </trkpt>
      <trkpt lat="43.62967" lon="7.0459">
        <ele>175.19999694824</ele>
        <time>2011-09-01T10:34:24.000Z</time>
      </trkpt>
      <trkpt lat="43.62949" lon="7.04577">
        <ele>177</ele>
        <time>2011-09-01T10:34:29.000Z</time>
      </trkpt>
      <trkpt lat="43.62943" lon="7.04572">
        <ele>177.80000305176</ele>
        <time>2011-09-01T10:34:31.000Z</time>
      </trkpt>
      <trkpt lat="43.62929" lon="7.04553">
        <ele>179.19999694824</ele>
        <time>2011-09-01T10:34:37.000Z</time>
      </trkpt>
      <trkpt lat="43.62919" lon="7.0453">
        <ele>179.39999389648</ele>
        <time>2011-09-01T10:34:42.000Z</time>
      </trkpt>
      <trkpt lat="43.62911" lon="7.04513">
        <ele>179.39999389648</ele>
        <time>2011-09-01T10:34:47.000Z</time>
      </trkpt>
      <trkpt lat="43.62898" lon="7.04494">
        <ele>179.60000610352</ele>
        <time>2011-09-01T10:34:52.000Z</time>
      </trkpt>
      <trkpt lat="43.62896" lon="7.0449">
        <ele>180</ele>
        <time>2011-09-01T10:34:53.000Z</time>
      </trkpt>
      <trkpt lat="43.62892" lon="7.04466">
        <ele>181.19999694824</ele>
        <time>2011-09-01T10:34:59.000Z</time>
      </trkpt>
      <trkpt lat="43.62897" lon="7.04444">
        <ele>182.39999389648</ele>
        <time>2011-09-01T10:35:05.000Z</time>
      </trkpt>
      <trkpt lat="43.62905" lon="7.04424">
        <ele>183.80000305176</ele>
        <time>2011-09-01T10:35:10.000Z</time>
      </trkpt>
      <trkpt lat="43.62907" lon="7.04417">
        <ele>184.39999389648</ele>
        <time>2011-09-01T10:35:12.000Z</time>
      </trkpt>
      <trkpt lat="43.62909" lon="7.04412">
        <ele>184.80000305176</ele>
        <time>2011-09-01T10:35:14.000Z</time>
      </trkpt>
      <trkpt lat="43.62911" lon="7.04408">
        <ele>185.19999694824</ele>
        <time>2011-09-01T10:35:16.000Z</time>
      </trkpt>
      <trkpt lat="43.62913" lon="7.044">
        <ele>185.80000305176</ele>
        <time>2011-09-01T10:35:20.000Z</time>
      </trkpt>
      <trkpt lat="43.62913" lon="7.04395">
        <ele>186</ele>
        <time>2011-09-01T10:35:25.000Z</time>
      </trkpt>
      <trkpt lat="43.62914" lon="7.04394">
        <ele>186.19999694824</ele>
        <time>2011-09-01T10:35:28.000Z</time>
      </trkpt>
      <trkpt lat="43.62916" lon="7.04394">
        <ele>186.19999694824</ele>
        <time>2011-09-01T10:35:30.000Z</time>
      </trkpt>
      <trkpt lat="43.62916" lon="7.04393">
        <ele>186.39999389648</ele>
        <time>2011-09-01T10:35:31.000Z</time>
      </trkpt>
      <trkpt lat="43.62919" lon="7.04389">
        <ele>186.60000610352</ele>
        <time>2011-09-01T10:35:34.000Z</time>
      </trkpt>
      <trkpt lat="43.62924" lon="7.04384">
        <ele>187.19999694824</ele>
        <time>2011-09-01T10:35:39.000Z</time>
      </trkpt>
      <trkpt lat="43.62926" lon="7.04381">
        <ele>187.60000610352</ele>
        <time>2011-09-01T10:35:45.000Z</time>
      </trkpt>
      <trkpt lat="43.62932" lon="7.04384">
        <ele>187.60000610352</ele>
        <time>2011-09-01T10:35:50.000Z</time>
      </trkpt>
      <trkpt lat="43.62947" lon="7.0439">
        <ele>188</ele>
        <time>2011-09-01T10:35:55.000Z</time>
      </trkpt>
      <trkpt lat="43.62964" lon="7.04391">
        <ele>188.60000610352</ele>
        <time>2011-09-01T10:36:02.000Z</time>
      </trkpt>
      <trkpt lat="43.62981" lon="7.04384">
        <ele>190</ele>
        <time>2011-09-01T10:36:10.000Z</time>
      </trkpt>
      <trkpt lat="43.62997" lon="7.04378">
        <ele>191.39999389648</ele>
        <time>2011-09-01T10:36:19.000Z</time>
      </trkpt>
      <trkpt lat="43.63016" lon="7.04374">
        <ele>191.80000305176</ele>
        <time>2011-09-01T10:36:27.000Z</time>
      </trkpt>
      <trkpt lat="43.63035" lon="7.04368">
        <ele>192.19999694824</ele>
        <time>2011-09-01T10:36:35.000Z</time>
      </trkpt>
      <trkpt lat="43.63037" lon="7.04367">
        <ele>192.39999389648</ele>
        <time>2011-09-01T10:36:36.000Z</time>
      </trkpt>
      <trkpt lat="43.63052" lon="7.04363">
        <ele>192.80000305176</ele>
        <time>2011-09-01T10:36:43.000Z</time>
      </trkpt>
      <trkpt lat="43.6307" lon="7.04363">
        <ele>192.60000610352</ele>
        <time>2011-09-01T10:36:49.000Z</time>
      </trkpt>
      <trkpt lat="43.63088" lon="7.0436">
        <ele>193.19999694824</ele>
        <time>2011-09-01T10:36:55.000Z</time>
      </trkpt>
      <trkpt lat="43.63097" lon="7.04351">
        <ele>194.60000610352</ele>
        <time>2011-09-01T10:37:00.000Z</time>
      </trkpt>
      <trkpt lat="43.63106" lon="7.04344">
        <ele>195.60000610352</ele>
        <time>2011-09-01T10:37:05.000Z</time>
      </trkpt>
      <trkpt lat="43.63122" lon="7.04339">
        <ele>196.39999389648</ele>
        <time>2011-09-01T10:37:12.000Z</time>
      </trkpt>
      <trkpt lat="43.63129" lon="7.04329">
        <ele>197</ele>
        <time>2011-09-01T10:37:17.000Z</time>
      </trkpt>
      <trkpt lat="43.6314" lon="7.04318">
        <ele>197</ele>
        <time>2011-09-01T10:37:24.000Z</time>
      </trkpt>
      <trkpt lat="43.63158" lon="7.04312">
        <ele>196.39999389648</ele>
        <time>2011-09-01T10:37:32.000Z</time>
      </trkpt>
      <trkpt lat="43.63169" lon="7.04307">
        <ele>195.19999694824</ele>
        <time>2011-09-01T10:37:38.000Z</time>
      </trkpt>
      <trkpt lat="43.63168" lon="7.04296">
        <ele>195</ele>
        <time>2011-09-01T10:37:42.000Z</time>
      </trkpt>
      <trkpt lat="43.63165" lon="7.04283">
        <ele>195.19999694824</ele>
        <time>2011-09-01T10:37:47.000Z</time>
      </trkpt>
      <trkpt lat="43.63156" lon="7.04271">
        <ele>195.60000610352</ele>
        <time>2011-09-01T10:37:52.000Z</time>
      </trkpt>
      <trkpt lat="43.63151" lon="7.04259">
        <ele>196</ele>
        <time>2011-09-01T10:37:57.000Z</time>
      </trkpt>
      <trkpt lat="43.63145" lon="7.04245">
        <ele>196</ele>
        <time>2011-09-01T10:38:02.000Z</time>
      </trkpt>
      <trkpt lat="43.63139" lon="7.0423">
        <ele>195.60000610352</ele>
        <time>2011-09-01T10:38:08.000Z</time>
      </trkpt>
      <trkpt lat="43.63139" lon="7.04228">
        <ele>195.19999694824</ele>
        <time>2011-09-01T10:38:09.000Z</time>
      </trkpt>
      <trkpt lat="43.63127" lon="7.04209">
        <ele>195.80000305176</ele>
        <time>2011-09-01T10:38:15.000Z</time>
      </trkpt>
      <trkpt lat="43.63119" lon="7.04194">
        <ele>196.39999389648</ele>
        <time>2011-09-01T10:38:20.000Z</time>
      </trkpt>
      <trkpt lat="43.63108" lon="7.04182">
        <ele>198</ele>
        <time>2011-09-01T10:38:25.000Z</time>
      </trkpt>
      <trkpt lat="43.63094" lon="7.04161">
        <ele>199.80000305176</ele>
        <time>2011-09-01T10:38:32.000Z</time>
      </trkpt>
      <trkpt lat="43.63078" lon="7.04146">
        <ele>200.60000610352</ele>
        <time>2011-09-01T10:38:38.000Z</time>
      </trkpt>
      <trkpt lat="43.63064" lon="7.04136">
        <ele>199.60000610352</ele>
        <time>2011-09-01T10:38:44.000Z</time>
      </trkpt>
      <trkpt lat="43.63057" lon="7.04127">
        <ele>199</ele>
        <time>2011-09-01T10:38:48.000Z</time>
      </trkpt>
      <trkpt lat="43.63047" lon="7.04109">
        <ele>197.60000610352</ele>
        <time>2011-09-01T10:38:53.000Z</time>
      </trkpt>
      <trkpt lat="43.63041" lon="7.04099">
        <ele>196.80000305176</ele>
        <time>2011-09-01T10:38:57.000Z</time>
      </trkpt>
      <trkpt lat="43.63038" lon="7.04092">
        <ele>196.39999389648</ele>
        <time>2011-09-01T10:39:00.000Z</time>
      </trkpt>
      <trkpt lat="43.63036" lon="7.04091">
        <ele>196.39999389648</ele>
        <time>2011-09-01T10:39:01.000Z</time>
      </trkpt>
      <trkpt lat="43.63028" lon="7.04081">
        <ele>196</ele>
        <time>2011-09-01T10:39:05.000Z</time>
      </trkpt>
      <trkpt lat="43.63019" lon="7.04077">
        <ele>196.19999694824</ele>
        <time>2011-09-01T10:39:09.000Z</time>
      </trkpt>
      <trkpt lat="43.63014" lon="7.04073">
        <ele>196</ele>
        <time>2011-09-01T10:39:12.000Z</time>
      </trkpt>
      <trkpt lat="43.6301" lon="7.04071">
        <ele>196</ele>
        <time>2011-09-01T10:39:13.000Z</time>
      </trkpt>
      <trkpt lat="43.63" lon="7.04071">
        <ele>196.80000305176</ele>
        <time>2011-09-01T10:39:15.000Z</time>
      </trkpt>
      <trkpt lat="43.62985" lon="7.04071">
        <ele>196</ele>
        <time>2011-09-01T10:39:19.000Z</time>
      </trkpt>
      <trkpt lat="43.6297" lon="7.04072">
        <ele>195.39999389648</ele>
        <time>2011-09-01T10:39:23.000Z</time>
      </trkpt>
      <trkpt lat="43.6296" lon="7.04063">
        <ele>194.60000610352</ele>
        <time>2011-09-01T10:39:26.000Z</time>
      </trkpt>
      <trkpt lat="43.62943" lon="7.04042">
        <ele>194</ele>
        <time>2011-09-01T10:39:31.000Z</time>
      </trkpt>
      <trkpt lat="43.62941" lon="7.04038">
        <ele>194</ele>
        <time>2011-09-01T10:39:32.000Z</time>
      </trkpt>
      <trkpt lat="43.6294" lon="7.04034">
        <ele>194.19999694824</ele>
        <time>2011-09-01T10:39:33.000Z</time>
      </trkpt>
      <trkpt lat="43.62939" lon="7.04017">
        <ele>194.39999389648</ele>
        <time>2011-09-01T10:39:36.000Z</time>
      </trkpt>
      <trkpt lat="43.62942" lon="7.03998">
        <ele>194.39999389648</ele>
        <time>2011-09-01T10:39:40.000Z</time>
      </trkpt>
      <trkpt lat="43.6294" lon="7.03977">
        <ele>195</ele>
        <time>2011-09-01T10:39:45.000Z</time>
      </trkpt>
      <trkpt lat="43.62933" lon="7.03961">
        <ele>196.19999694824</ele>
        <time>2011-09-01T10:39:51.000Z</time>
      </trkpt>
      <trkpt lat="43.62925" lon="7.03947">
        <ele>197.60000610352</ele>
        <time>2011-09-01T10:39:58.000Z</time>
      </trkpt>
      <trkpt lat="43.62922" lon="7.03938">
        <ele>198.19999694824</ele>
        <time>2011-09-01T10:40:01.000Z</time>
      </trkpt>
      <trkpt lat="43.6292" lon="7.03936">
        <ele>198.60000610352</ele>
        <time>2011-09-01T10:40:02.000Z</time>
      </trkpt>
      <trkpt lat="43.62918" lon="7.0393">
        <ele>199.19999694824</ele>
        <time>2011-09-01T10:40:05.000Z</time>
      </trkpt>
      <trkpt lat="43.62917" lon="7.03927">
        <ele>199.39999389648</ele>
        <time>2011-09-01T10:40:06.000Z</time>
      </trkpt>
      <trkpt lat="43.62917" lon="7.03925">
        <ele>199.39999389648</ele>
        <time>2011-09-01T10:40:07.000Z</time>
      </trkpt>
      <trkpt lat="43.6292" lon="7.03912">
        <ele>199.60000610352</ele>
        <time>2011-09-01T10:40:12.000Z</time>
      </trkpt>
      <trkpt lat="43.62919" lon="7.03904">
        <ele>200.19999694824</ele>
        <time>2011-09-01T10:40:15.000Z</time>
      </trkpt>
      <trkpt lat="43.62917" lon="7.03899">
        <ele>200.80000305176</ele>
        <time>2011-09-01T10:40:17.000Z</time>
      </trkpt>
      <trkpt lat="43.62915" lon="7.03885">
        <ele>201.19999694824</ele>
        <time>2011-09-01T10:40:22.000Z</time>
      </trkpt>
      <trkpt lat="43.62916" lon="7.03866">
        <ele>202.19999694824</ele>
        <time>2011-09-01T10:40:27.000Z</time>
      </trkpt>
      <trkpt lat="43.62917" lon="7.03841">
        <ele>203.60000610352</ele>
        <time>2011-09-01T10:40:32.000Z</time>
      </trkpt>
      <trkpt lat="43.62916" lon="7.03836">
        <ele>203.60000610352</ele>
        <time>2011-09-01T10:40:33.000Z</time>
      </trkpt>
      <trkpt lat="43.62917" lon="7.03827">
        <ele>204.19999694824</ele>
        <time>2011-09-01T10:40:35.000Z</time>
      </trkpt>
      <trkpt lat="43.62919" lon="7.03822">
        <ele>204.19999694824</ele>
        <time>2011-09-01T10:40:36.000Z</time>
      </trkpt>
      <trkpt lat="43.62926" lon="7.03808">
        <ele>204.19999694824</ele>
        <time>2011-09-01T10:40:40.000Z</time>
      </trkpt>
      <trkpt lat="43.62928" lon="7.03806">
        <ele>204</ele>
        <time>2011-09-01T10:40:41.000Z</time>
      </trkpt>
      <trkpt lat="43.62942" lon="7.03791">
        <ele>203.60000610352</ele>
        <time>2011-09-01T10:40:46.000Z</time>
      </trkpt>
      <trkpt lat="43.62944" lon="7.03775">
        <ele>204.19999694824</ele>
        <time>2011-09-01T10:40:50.000Z</time>
      </trkpt>
      <trkpt lat="43.62943" lon="7.0376">
        <ele>205.19999694824</ele>
        <time>2011-09-01T10:40:55.000Z</time>
      </trkpt>
      <trkpt lat="43.62936" lon="7.03744">
        <ele>206</ele>
        <time>2011-09-01T10:41:01.000Z</time>
      </trkpt>
      <trkpt lat="43.62928" lon="7.03738">
        <ele>206.39999389648</ele>
        <time>2011-09-01T10:41:05.000Z</time>
      </trkpt>
      <trkpt lat="43.62928" lon="7.03735">
        <ele>206.39999389648</ele>
        <time>2011-09-01T10:41:06.000Z</time>
      </trkpt>
      <trkpt lat="43.62926" lon="7.03709">
        <ele>205.39999389648</ele>
        <time>2011-09-01T10:41:12.000Z</time>
      </trkpt>
      <trkpt lat="43.62922" lon="7.03687">
        <ele>205</ele>
        <time>2011-09-01T10:41:17.000Z</time>
      </trkpt>
      <trkpt lat="43.6291" lon="7.03674">
        <ele>204.60000610352</ele>
        <time>2011-09-01T10:41:21.000Z</time>
      </trkpt>
      <trkpt lat="43.62896" lon="7.03659">
        <ele>203.19999694824</ele>
        <time>2011-09-01T10:41:26.000Z</time>
      </trkpt>
      <trkpt lat="43.62889" lon="7.03647">
        <ele>202.39999389648</ele>
        <time>2011-09-01T10:41:30.000Z</time>
      </trkpt>
      <trkpt lat="43.62879" lon="7.03634">
        <ele>201.60000610352</ele>
        <time>2011-09-01T10:41:35.000Z</time>
      </trkpt>
      <trkpt lat="43.62876" lon="7.03631">
        <ele>201.60000610352</ele>
        <time>2011-09-01T10:41:36.000Z</time>
      </trkpt>
      <trkpt lat="43.62871" lon="7.03626">
        <ele>201.39999389648</ele>
        <time>2011-09-01T10:41:39.000Z</time>
      </trkpt>
      <trkpt lat="43.62868" lon="7.03626">
        <ele>201.19999694824</ele>
        <time>2011-09-01T10:41:40.000Z</time>
      </trkpt>
      <trkpt lat="43.62851" lon="7.03618">
        <ele>201</ele>
        <time>2011-09-01T10:41:45.000Z</time>
      </trkpt>
      <trkpt lat="43.62835" lon="7.03604">
        <ele>201.19999694824</ele>
        <time>2011-09-01T10:41:51.000Z</time>
      </trkpt>
      <trkpt lat="43.62832" lon="7.03598">
        <ele>201.39999389648</ele>
        <time>2011-09-01T10:41:53.000Z</time>
      </trkpt>
      <trkpt lat="43.6283" lon="7.03586">
        <ele>202</ele>
        <time>2011-09-01T10:41:57.000Z</time>
      </trkpt>
      <trkpt lat="43.62832" lon="7.03582">
        <ele>202</ele>
        <time>2011-09-01T10:41:58.000Z</time>
      </trkpt>
      <trkpt lat="43.62842" lon="7.03558">
        <ele>202.19999694824</ele>
        <time>2011-09-01T10:42:05.000Z</time>
      </trkpt>
      <trkpt lat="43.62846" lon="7.03536">
        <ele>202.39999389648</ele>
        <time>2011-09-01T10:42:10.000Z</time>
      </trkpt>
      <trkpt lat="43.62854" lon="7.03516">
        <ele>202.19999694824</ele>
        <time>2011-09-01T10:42:15.000Z</time>
      </trkpt>
      <trkpt lat="43.62866" lon="7.03492">
        <ele>201.60000610352</ele>
        <time>2011-09-01T10:42:21.000Z</time>
      </trkpt>
      <trkpt lat="43.62878" lon="7.03468">
        <ele>200.80000305176</ele>
        <time>2011-09-01T10:42:27.000Z</time>
      </trkpt>
      <trkpt lat="43.62883" lon="7.03459">
        <ele>200.39999389648</ele>
        <time>2011-09-01T10:42:29.000Z</time>
      </trkpt>
      <trkpt lat="43.62895" lon="7.03438">
        <ele>199.39999389648</ele>
        <time>2011-09-01T10:42:33.000Z</time>
      </trkpt>
      <trkpt lat="43.62903" lon="7.03426">
        <ele>198.39999389648</ele>
        <time>2011-09-01T10:42:35.000Z</time>
      </trkpt>
      <trkpt lat="43.62912" lon="7.03403">
        <ele>196.80000305176</ele>
        <time>2011-09-01T10:42:38.000Z</time>
      </trkpt>
      <trkpt lat="43.62917" lon="7.03386">
        <ele>195.39999389648</ele>
        <time>2011-09-01T10:42:40.000Z</time>
      </trkpt>
      <trkpt lat="43.62918" lon="7.03376">
        <ele>194.60000610352</ele>
        <time>2011-09-01T10:42:41.000Z</time>
      </trkpt>
      <trkpt lat="43.6292" lon="7.03346">
        <ele>192.60000610352</ele>
        <time>2011-09-01T10:42:44.000Z</time>
      </trkpt>
      <trkpt lat="43.62918" lon="7.03314">
        <ele>190.39999389648</ele>
        <time>2011-09-01T10:42:47.000Z</time>
      </trkpt>
      <trkpt lat="43.62914" lon="7.03293">
        <ele>189.19999694824</ele>
        <time>2011-09-01T10:42:49.000Z</time>
      </trkpt>
      <trkpt lat="43.629" lon="7.03265">
        <ele>189.39999389648</ele>
        <time>2011-09-01T10:42:52.000Z</time>
      </trkpt>
      <trkpt lat="43.62895" lon="7.03256">
        <ele>190</ele>
        <time>2011-09-01T10:42:53.000Z</time>
      </trkpt>
      <trkpt lat="43.62879" lon="7.0323">
        <ele>192.60000610352</ele>
        <time>2011-09-01T10:42:56.000Z</time>
      </trkpt>
      <trkpt lat="43.62876" lon="7.0322">
        <ele>193.19999694824</ele>
        <time>2011-09-01T10:42:57.000Z</time>
      </trkpt>
      <trkpt lat="43.62879" lon="7.03189">
        <ele>191.19999694824</ele>
        <time>2011-09-01T10:43:00.000Z</time>
      </trkpt>
      <trkpt lat="43.62885" lon="7.03168">
        <ele>188.39999389648</ele>
        <time>2011-09-01T10:43:02.000Z</time>
      </trkpt>
      <trkpt lat="43.6289" lon="7.03158">
        <ele>186.39999389648</ele>
        <time>2011-09-01T10:43:03.000Z</time>
      </trkpt>
      <trkpt lat="43.62898" lon="7.03136">
        <ele>183</ele>
        <time>2011-09-01T10:43:05.000Z</time>
      </trkpt>
      <trkpt lat="43.62902" lon="7.03117">
        <ele>180.60000610352</ele>
        <time>2011-09-01T10:43:07.000Z</time>
      </trkpt>
      <trkpt lat="43.62903" lon="7.03097">
        <ele>180</ele>
        <time>2011-09-01T10:43:09.000Z</time>
      </trkpt>
      <trkpt lat="43.62899" lon="7.03077">
        <ele>180.80000305176</ele>
        <time>2011-09-01T10:43:11.000Z</time>
      </trkpt>
      <trkpt lat="43.62896" lon="7.03046">
        <ele>181.39999389648</ele>
        <time>2011-09-01T10:43:14.000Z</time>
      </trkpt>
      <trkpt lat="43.62897" lon="7.03035">
        <ele>181</ele>
        <time>2011-09-01T10:43:15.000Z</time>
      </trkpt>
      <trkpt lat="43.62902" lon="7.03">
        <ele>178</ele>
        <time>2011-09-01T10:43:18.000Z</time>
      </trkpt>
      <trkpt lat="43.62908" lon="7.02976">
        <ele>175</ele>
        <time>2011-09-01T10:43:20.000Z</time>
      </trkpt>
      <trkpt lat="43.62912" lon="7.02951">
        <ele>172.80000305176</ele>
        <time>2011-09-01T10:43:22.000Z</time>
      </trkpt>
      <trkpt lat="43.62913" lon="7.02938">
        <ele>172.39999389648</ele>
        <time>2011-09-01T10:43:23.000Z</time>
      </trkpt>
      <trkpt lat="43.62915" lon="7.0291">
        <ele>171</ele>
        <time>2011-09-01T10:43:25.000Z</time>
      </trkpt>
      <trkpt lat="43.62913" lon="7.02896">
        <ele>171.19999694824</ele>
        <time>2011-09-01T10:43:26.000Z</time>
      </trkpt>
      <trkpt lat="43.62911" lon="7.0288">
        <ele>171</ele>
        <time>2011-09-01T10:43:27.000Z</time>
      </trkpt>
      <trkpt lat="43.62909" lon="7.0285">
        <ele>170.39999389648</ele>
        <time>2011-09-01T10:43:29.000Z</time>
      </trkpt>
      <trkpt lat="43.62905" lon="7.02822">
        <ele>170.19999694824</ele>
        <time>2011-09-01T10:43:31.000Z</time>
      </trkpt>
      <trkpt lat="43.62905" lon="7.0281">
        <ele>170.19999694824</ele>
        <time>2011-09-01T10:43:32.000Z</time>
      </trkpt>
      <trkpt lat="43.62907" lon="7.02794">
        <ele>169.80000305176</ele>
        <time>2011-09-01T10:43:34.000Z</time>
      </trkpt>
      <trkpt lat="43.62907" lon="7.02788">
        <ele>169.60000610352</ele>
        <time>2011-09-01T10:43:35.000Z</time>
      </trkpt>
      <trkpt lat="43.62907" lon="7.02783">
        <ele>169.80000305176</ele>
        <time>2011-09-01T10:43:36.000Z</time>
      </trkpt>
      <trkpt lat="43.62902" lon="7.02776">
        <ele>170.19999694824</ele>
        <time>2011-09-01T10:43:38.000Z</time>
      </trkpt>
      <trkpt lat="43.62897" lon="7.02773">
        <ele>170.60000610352</ele>
        <time>2011-09-01T10:43:40.000Z</time>
      </trkpt>
      <trkpt lat="43.62889" lon="7.02769">
        <ele>171.19999694824</ele>
        <time>2011-09-01T10:43:43.000Z</time>
      </trkpt>
      <trkpt lat="43.62873" lon="7.02766">
        <ele>172.60000610352</ele>
        <time>2011-09-01T10:43:50.000Z</time>
      </trkpt>
      <trkpt lat="43.6286" lon="7.02761">
        <ele>173.39999389648</ele>
        <time>2011-09-01T10:43:57.000Z</time>
      </trkpt>
      <trkpt lat="43.6285" lon="7.02749">
        <ele>172.80000305176</ele>
        <time>2011-09-01T10:44:04.000Z</time>
      </trkpt>
      <trkpt lat="43.6284" lon="7.02738">
        <ele>173.19999694824</ele>
        <time>2011-09-01T10:44:11.000Z</time>
      </trkpt>
      <trkpt lat="43.62827" lon="7.02725">
        <ele>175.60000610352</ele>
        <time>2011-09-01T10:44:20.000Z</time>
      </trkpt>
      <trkpt lat="43.62811" lon="7.02717">
        <ele>180.60000610352</ele>
        <time>2011-09-01T10:44:29.000Z</time>
      </trkpt>
      <trkpt lat="43.62795" lon="7.02707">
        <ele>185</ele>
        <time>2011-09-01T10:44:38.000Z</time>
      </trkpt>
      <trkpt lat="43.62791" lon="7.02704">
        <ele>185.60000610352</ele>
        <time>2011-09-01T10:44:40.000Z</time>
      </trkpt>
      <trkpt lat="43.62777" lon="7.02689">
        <ele>187.80000305176</ele>
        <time>2011-09-01T10:44:49.000Z</time>
      </trkpt>
      <trkpt lat="43.62768" lon="7.02675">
        <ele>187.60000610352</ele>
        <time>2011-09-01T10:44:56.000Z</time>
      </trkpt>
      <trkpt lat="43.62766" lon="7.02664">
        <ele>186.19999694824</ele>
        <time>2011-09-01T10:45:02.000Z</time>
      </trkpt>
      <trkpt lat="43.62758" lon="7.02651">
        <ele>185.60000610352</ele>
        <time>2011-09-01T10:45:08.000Z</time>
      </trkpt>
      <trkpt lat="43.62749" lon="7.02638">
        <ele>184.80000305176</ele>
        <time>2011-09-01T10:45:15.000Z</time>
      </trkpt>
      <trkpt lat="43.62736" lon="7.02622">
        <ele>183.80000305176</ele>
        <time>2011-09-01T10:45:25.000Z</time>
      </trkpt>
      <trkpt lat="43.62723" lon="7.02611">
        <ele>183.60000610352</ele>
        <time>2011-09-01T10:45:34.000Z</time>
      </trkpt>
      <trkpt lat="43.62713" lon="7.02607">
        <ele>184</ele>
        <time>2011-09-01T10:45:40.000Z</time>
      </trkpt>
      <trkpt lat="43.62709" lon="7.02606">
        <ele>184.39999389648</ele>
        <time>2011-09-01T10:45:42.000Z</time>
      </trkpt>
      <trkpt lat="43.62694" lon="7.02605">
        <ele>186.19999694824</ele>
        <time>2011-09-01T10:45:50.000Z</time>
      </trkpt>
      <trkpt lat="43.62683" lon="7.02609">
        <ele>188.39999389648</ele>
        <time>2011-09-01T10:45:55.000Z</time>
      </trkpt>
      <trkpt lat="43.6267" lon="7.02613">
        <ele>191.19999694824</ele>
        <time>2011-09-01T10:46:01.000Z</time>
      </trkpt>
      <trkpt lat="43.62652" lon="7.02622">
        <ele>193.80000305176</ele>
        <time>2011-09-01T10:46:09.000Z</time>
      </trkpt>
      <trkpt lat="43.62649" lon="7.02623">
        <ele>193.80000305176</ele>
        <time>2011-09-01T10:46:10.000Z</time>
      </trkpt>
      <trkpt lat="43.62633" lon="7.02634">
        <ele>196.19999694824</ele>
        <time>2011-09-01T10:46:17.000Z</time>
      </trkpt>
      <trkpt lat="43.6263" lon="7.02635">
        <ele>196.60000610352</ele>
        <time>2011-09-01T10:46:18.000Z</time>
      </trkpt>
      <trkpt lat="43.62613" lon="7.02647">
        <ele>199</ele>
        <time>2011-09-01T10:46:25.000Z</time>
      </trkpt>
      <trkpt lat="43.62611" lon="7.02648">
        <ele>199</ele>
        <time>2011-09-01T10:46:26.000Z</time>
      </trkpt>
      <trkpt lat="43.62592" lon="7.02651">
        <ele>199.19999694824</ele>
        <time>2011-09-01T10:46:33.000Z</time>
      </trkpt>
      <trkpt lat="43.62589" lon="7.02651">
        <ele>199.19999694824</ele>
        <time>2011-09-01T10:46:34.000Z</time>
      </trkpt>
      <trkpt lat="43.62576" lon="7.02654">
        <ele>200.39999389648</ele>
        <time>2011-09-01T10:46:40.000Z</time>
      </trkpt>
      <trkpt lat="43.62559" lon="7.02652">
        <ele>201.39999389648</ele>
        <time>2011-09-01T10:46:48.000Z</time>
      </trkpt>
      <trkpt lat="43.62546" lon="7.0265">
        <ele>202.19999694824</ele>
        <time>2011-09-01T10:46:55.000Z</time>
      </trkpt>
      <trkpt lat="43.62531" lon="7.02648">
        <ele>203.39999389648</ele>
        <time>2011-09-01T10:47:03.000Z</time>
      </trkpt>
      <trkpt lat="43.62513" lon="7.02647">
        <ele>204.80000305176</ele>
        <time>2011-09-01T10:47:12.000Z</time>
      </trkpt>
      <trkpt lat="43.62495" lon="7.02649">
        <ele>207.19999694824</ele>
        <time>2011-09-01T10:47:21.000Z</time>
      </trkpt>
      <trkpt lat="43.62493" lon="7.0265">
        <ele>207.39999389648</ele>
        <time>2011-09-01T10:47:22.000Z</time>
      </trkpt>
      <trkpt lat="43.62476" lon="7.02647">
        <ele>209</ele>
        <time>2011-09-01T10:47:29.000Z</time>
      </trkpt>
      <trkpt lat="43.62458" lon="7.02639">
        <ele>210</ele>
        <time>2011-09-01T10:47:35.000Z</time>
      </trkpt>
      <trkpt lat="43.62455" lon="7.02638">
        <ele>210.19999694824</ele>
        <time>2011-09-01T10:47:36.000Z</time>
      </trkpt>
      <trkpt lat="43.62438" lon="7.02624">
        <ele>210.39999389648</ele>
        <time>2011-09-01T10:47:43.000Z</time>
      </trkpt>
      <trkpt lat="43.62421" lon="7.02609">
        <ele>210.80000305176</ele>
        <time>2011-09-01T10:47:49.000Z</time>
      </trkpt>
      <trkpt lat="43.62415" lon="7.02603">
        <ele>210.80000305176</ele>
        <time>2011-09-01T10:47:51.000Z</time>
      </trkpt>
      <trkpt lat="43.62404" lon="7.02581">
        <ele>209.80000305176</ele>
        <time>2011-09-01T10:47:56.000Z</time>
      </trkpt>
      <trkpt lat="43.62393" lon="7.02557">
        <ele>210.80000305176</ele>
        <time>2011-09-01T10:48:02.000Z</time>
      </trkpt>
      <trkpt lat="43.6239" lon="7.02554">
        <ele>211</ele>
        <time>2011-09-01T10:48:03.000Z</time>
      </trkpt>
      <trkpt lat="43.6238" lon="7.02529">
        <ele>211.60000610352</ele>
        <time>2011-09-01T10:48:09.000Z</time>
      </trkpt>
      <trkpt lat="43.62369" lon="7.02508">
        <ele>212.19999694824</ele>
        <time>2011-09-01T10:48:14.000Z</time>
      </trkpt>
      <trkpt lat="43.62361" lon="7.02486">
        <ele>213.39999389648</ele>
        <time>2011-09-01T10:48:19.000Z</time>
      </trkpt>
      <trkpt lat="43.62356" lon="7.02477">
        <ele>214</ele>
        <time>2011-09-01T10:48:22.000Z</time>
      </trkpt>
      <trkpt lat="43.62356" lon="7.02474">
        <ele>214.19999694824</ele>
        <time>2011-09-01T10:48:23.000Z</time>
      </trkpt>
      <trkpt lat="43.6236" lon="7.02459">
        <ele>214.39999389648</ele>
        <time>2011-09-01T10:48:28.000Z</time>
      </trkpt>
      <trkpt lat="43.62366" lon="7.0245">
        <ele>214.60000610352</ele>
        <time>2011-09-01T10:48:32.000Z</time>
      </trkpt>
      <trkpt lat="43.6237" lon="7.02444">
        <ele>214.80000305176</ele>
        <time>2011-09-01T10:48:35.000Z</time>
      </trkpt>
      <trkpt lat="43.62379" lon="7.02436">
        <ele>215.19999694824</ele>
        <time>2011-09-01T10:48:41.000Z</time>
      </trkpt>
      <trkpt lat="43.62391" lon="7.02426">
        <ele>216.19999694824</ele>
        <time>2011-09-01T10:48:49.000Z</time>
      </trkpt>
      <trkpt lat="43.62402" lon="7.02416">
        <ele>217.39999389648</ele>
        <time>2011-09-01T10:48:55.000Z</time>
      </trkpt>
      <trkpt lat="43.62403" lon="7.02416">
        <ele>217.60000610352</ele>
        <time>2011-09-01T10:48:56.000Z</time>
      </trkpt>
      <trkpt lat="43.62407" lon="7.02412">
        <ele>218.60000610352</ele>
        <time>2011-09-01T10:48:59.000Z</time>
      </trkpt>
      <trkpt lat="43.62412" lon="7.02409">
        <ele>219.39999389648</ele>
        <time>2011-09-01T10:49:02.000Z</time>
      </trkpt>
      <trkpt lat="43.62423" lon="7.02395">
        <ele>222.80000305176</ele>
        <time>2011-09-01T10:49:10.000Z</time>
      </trkpt>
      <trkpt lat="43.62432" lon="7.02382">
        <ele>225.60000610352</ele>
        <time>2011-09-01T10:49:17.000Z</time>
      </trkpt>
      <trkpt lat="43.62436" lon="7.02374">
        <ele>227.19999694824</ele>
        <time>2011-09-01T10:49:22.000Z</time>
      </trkpt>
      <trkpt lat="43.62447" lon="7.02363">
        <ele>229.39999389648</ele>
        <time>2011-09-01T10:49:30.000Z</time>
      </trkpt>
      <trkpt lat="43.62457" lon="7.02355">
        <ele>230.80000305176</ele>
        <time>2011-09-01T10:49:38.000Z</time>
      </trkpt>
      <trkpt lat="43.62464" lon="7.02354">
        <ele>231</ele>
        <time>2011-09-01T10:49:43.000Z</time>
      </trkpt>
      <trkpt lat="43.62465" lon="7.02353">
        <ele>231</ele>
        <time>2011-09-01T10:49:44.000Z</time>
      </trkpt>
      <trkpt lat="43.62475" lon="7.02345">
        <ele>232.39999389648</ele>
        <time>2011-09-01T10:49:53.000Z</time>
      </trkpt>
      <trkpt lat="43.62489" lon="7.02327">
        <ele>234.80000305176</ele>
        <time>2011-09-01T10:50:00.000Z</time>
      </trkpt>
      <trkpt lat="43.62495" lon="7.02315">
        <ele>235.60000610352</ele>
        <time>2011-09-01T10:50:06.000Z</time>
      </trkpt>
      <trkpt lat="43.62496" lon="7.02307">
        <ele>236.19999694824</ele>
        <time>2011-09-01T10:50:09.000Z</time>
      </trkpt>
      <trkpt lat="43.62497" lon="7.023">
        <ele>236.80000305176</ele>
        <time>2011-09-01T10:50:12.000Z</time>
      </trkpt>
      <trkpt lat="43.62498" lon="7.02298">
        <ele>237</ele>
        <time>2011-09-01T10:50:13.000Z</time>
      </trkpt>
      <trkpt lat="43.62499" lon="7.02289">
        <ele>237.60000610352</ele>
        <time>2011-09-01T10:50:16.000Z</time>
      </trkpt>
      <trkpt lat="43.62501" lon="7.02283">
        <ele>237.80000305176</ele>
        <time>2011-09-01T10:50:18.000Z</time>
      </trkpt>
      <trkpt lat="43.62505" lon="7.02265">
        <ele>237.80000305176</ele>
        <time>2011-09-01T10:50:24.000Z</time>
      </trkpt>
      <trkpt lat="43.62503" lon="7.02239">
        <ele>239.39999389648</ele>
        <time>2011-09-01T10:50:31.000Z</time>
      </trkpt>
      <trkpt lat="43.62498" lon="7.02214">
        <ele>239.39999389648</ele>
        <time>2011-09-01T10:50:37.000Z</time>
      </trkpt>
      <trkpt lat="43.62486" lon="7.02193">
        <ele>239.39999389648</ele>
        <time>2011-09-01T10:50:43.000Z</time>
      </trkpt>
      <trkpt lat="43.62479" lon="7.02168">
        <ele>239</ele>
        <time>2011-09-01T10:50:48.000Z</time>
      </trkpt>
      <trkpt lat="43.62476" lon="7.02144">
        <ele>238.19999694824</ele>
        <time>2011-09-01T10:50:52.000Z</time>
      </trkpt>
      <trkpt lat="43.62475" lon="7.02137">
        <ele>238</ele>
        <time>2011-09-01T10:50:53.000Z</time>
      </trkpt>
      <trkpt lat="43.62475" lon="7.02128">
        <ele>237.60000610352</ele>
        <time>2011-09-01T10:50:55.000Z</time>
      </trkpt>
      <trkpt lat="43.62472" lon="7.02109">
        <ele>236.80000305176</ele>
        <time>2011-09-01T10:50:58.000Z</time>
      </trkpt>
      <trkpt lat="43.62469" lon="7.02098">
        <ele>236.39999389648</ele>
        <time>2011-09-01T10:51:00.000Z</time>
      </trkpt>
      <trkpt lat="43.62468" lon="7.02086">
        <ele>236</ele>
        <time>2011-09-01T10:51:02.000Z</time>
      </trkpt>
      <trkpt lat="43.62469" lon="7.02061">
        <ele>234.39999389648</ele>
        <time>2011-09-01T10:51:06.000Z</time>
      </trkpt>
      <trkpt lat="43.62471" lon="7.02055">
        <ele>234</ele>
        <time>2011-09-01T10:51:07.000Z</time>
      </trkpt>
      <trkpt lat="43.62473" lon="7.02044">
        <ele>233.39999389648</ele>
        <time>2011-09-01T10:51:09.000Z</time>
      </trkpt>
      <trkpt lat="43.62477" lon="7.02033">
        <ele>232.80000305176</ele>
        <time>2011-09-01T10:51:11.000Z</time>
      </trkpt>
      <trkpt lat="43.6248" lon="7.02015">
        <ele>232</ele>
        <time>2011-09-01T10:51:14.000Z</time>
      </trkpt>
      <trkpt lat="43.62485" lon="7.01997">
        <ele>231.19999694824</ele>
        <time>2011-09-01T10:51:17.000Z</time>
      </trkpt>
      <trkpt lat="43.62492" lon="7.01973">
        <ele>230.60000610352</ele>
        <time>2011-09-01T10:51:20.000Z</time>
      </trkpt>
      <trkpt lat="43.62492" lon="7.01965">
        <ele>230.19999694824</ele>
        <time>2011-09-01T10:51:21.000Z</time>
      </trkpt>
      <trkpt lat="43.62493" lon="7.01938">
        <ele>229.19999694824</ele>
        <time>2011-09-01T10:51:24.000Z</time>
      </trkpt>
      <trkpt lat="43.62494" lon="7.0193">
        <ele>229</ele>
        <time>2011-09-01T10:51:25.000Z</time>
      </trkpt>
      <trkpt lat="43.625" lon="7.01905">
        <ele>228.39999389648</ele>
        <time>2011-09-01T10:51:28.000Z</time>
      </trkpt>
      <trkpt lat="43.625" lon="7.01896">
        <ele>228</ele>
        <time>2011-09-01T10:51:29.000Z</time>
      </trkpt>
      <trkpt lat="43.62493" lon="7.01877">
        <ele>226.60000610352</ele>
        <time>2011-09-01T10:51:32.000Z</time>
      </trkpt>
      <trkpt lat="43.62491" lon="7.01872">
        <ele>226.39999389648</ele>
        <time>2011-09-01T10:51:33.000Z</time>
      </trkpt>
      <trkpt lat="43.62486" lon="7.0186">
        <ele>225.60000610352</ele>
        <time>2011-09-01T10:51:35.000Z</time>
      </trkpt>
      <trkpt lat="43.6248" lon="7.01845">
        <ele>224.80000305176</ele>
        <time>2011-09-01T10:51:37.000Z</time>
      </trkpt>
      <trkpt lat="43.62477" lon="7.01838">
        <ele>224.60000610352</ele>
        <time>2011-09-01T10:51:38.000Z</time>
      </trkpt>
      <trkpt lat="43.62479" lon="7.01809">
        <ele>223</ele>
        <time>2011-09-01T10:51:41.000Z</time>
      </trkpt>
      <trkpt lat="43.62482" lon="7.01779">
        <ele>221.19999694824</ele>
        <time>2011-09-01T10:51:44.000Z</time>
      </trkpt>
      <trkpt lat="43.62483" lon="7.01768">
        <ele>220.60000610352</ele>
        <time>2011-09-01T10:51:45.000Z</time>
      </trkpt>
      <trkpt lat="43.62479" lon="7.01734">
        <ele>218.19999694824</ele>
        <time>2011-09-01T10:51:48.000Z</time>
      </trkpt>
      <trkpt lat="43.62477" lon="7.01725">
        <ele>217.60000610352</ele>
        <time>2011-09-01T10:51:49.000Z</time>
      </trkpt>
      <trkpt lat="43.62472" lon="7.01697">
        <ele>215.39999389648</ele>
        <time>2011-09-01T10:51:52.000Z</time>
      </trkpt>
      <trkpt lat="43.6247" lon="7.01691">
        <ele>215</ele>
        <time>2011-09-01T10:51:53.000Z</time>
      </trkpt>
      <trkpt lat="43.62461" lon="7.01664">
        <ele>212.60000610352</ele>
        <time>2011-09-01T10:51:58.000Z</time>
      </trkpt>
      <trkpt lat="43.62451" lon="7.01642">
        <ele>210.39999389648</ele>
        <time>2011-09-01T10:52:01.000Z</time>
      </trkpt>
      <trkpt lat="43.62448" lon="7.01623">
        <ele>208.80000305176</ele>
        <time>2011-09-01T10:52:03.000Z</time>
      </trkpt>
      <trkpt lat="43.62448" lon="7.01608">
        <ele>207.39999389648</ele>
        <time>2011-09-01T10:52:05.000Z</time>
      </trkpt>
      <trkpt lat="43.62438" lon="7.01594">
        <ele>206.19999694824</ele>
        <time>2011-09-01T10:52:08.000Z</time>
      </trkpt>
      <trkpt lat="43.62436" lon="7.01591">
        <ele>206</ele>
        <time>2011-09-01T10:52:09.000Z</time>
      </trkpt>
      <trkpt lat="43.62434" lon="7.01591">
        <ele>206</ele>
        <time>2011-09-01T10:52:10.000Z</time>
      </trkpt>
      <trkpt lat="43.62432" lon="7.01591">
        <ele>206.19999694824</ele>
        <time>2011-09-01T10:52:11.000Z</time>
      </trkpt>
      <trkpt lat="43.62432" lon="7.0159">
        <ele>206</ele>
        <time>2011-09-01T10:52:13.000Z</time>
      </trkpt>
      <trkpt lat="43.62431" lon="7.01586">
        <ele>205.80000305176</ele>
        <time>2011-09-01T10:52:15.000Z</time>
      </trkpt>
      <trkpt lat="43.62432" lon="7.01582">
        <ele>205.39999389648</ele>
        <time>2011-09-01T10:52:17.000Z</time>
      </trkpt>
      <trkpt lat="43.62436" lon="7.01574">
        <ele>205.19999694824</ele>
        <time>2011-09-01T10:52:20.000Z</time>
      </trkpt>
      <trkpt lat="43.62435" lon="7.01567">
        <ele>205</ele>
        <time>2011-09-01T10:52:22.000Z</time>
      </trkpt>
      <trkpt lat="43.62428" lon="7.01563">
        <ele>205.19999694824</ele>
        <time>2011-09-01T10:52:25.000Z</time>
      </trkpt>
      <trkpt lat="43.62425" lon="7.01563">
        <ele>205.19999694824</ele>
        <time>2011-09-01T10:52:26.000Z</time>
      </trkpt>
      <trkpt lat="43.6241" lon="7.01561">
        <ele>205.80000305176</ele>
        <time>2011-09-01T10:52:32.000Z</time>
      </trkpt>
      <trkpt lat="43.62395" lon="7.01562">
        <ele>206.60000610352</ele>
        <time>2011-09-01T10:52:39.000Z</time>
      </trkpt>
      <trkpt lat="43.6238" lon="7.01563">
        <ele>207.39999389648</ele>
        <time>2011-09-01T10:52:46.000Z</time>
      </trkpt>
      <trkpt lat="43.62371" lon="7.01558">
        <ele>208.19999694824</ele>
        <time>2011-09-01T10:52:51.000Z</time>
      </trkpt>
      <trkpt lat="43.62363" lon="7.01547">
        <ele>209</ele>
        <time>2011-09-01T10:52:56.000Z</time>
      </trkpt>
      <trkpt lat="43.62357" lon="7.0153">
        <ele>210</ele>
        <time>2011-09-01T10:53:03.000Z</time>
      </trkpt>
      <trkpt lat="43.62355" lon="7.01528">
        <ele>210.19999694824</ele>
        <time>2011-09-01T10:53:04.000Z</time>
      </trkpt>
      <trkpt lat="43.62345" lon="7.0152">
        <ele>211.60000610352</ele>
        <time>2011-09-01T10:53:08.000Z</time>
      </trkpt>
      <trkpt lat="43.62345" lon="7.01516">
        <ele>211.80000305176</ele>
        <time>2011-09-01T10:53:09.000Z</time>
      </trkpt>
      <trkpt lat="43.62346" lon="7.01499">
        <ele>212.39999389648</ele>
        <time>2011-09-01T10:53:14.000Z</time>
      </trkpt>
      <trkpt lat="43.62348" lon="7.01491">
        <ele>212.80000305176</ele>
        <time>2011-09-01T10:53:16.000Z</time>
      </trkpt>
      <trkpt lat="43.62354" lon="7.01468">
        <ele>213.19999694824</ele>
        <time>2011-09-01T10:53:22.000Z</time>
      </trkpt>
      <trkpt lat="43.62361" lon="7.01444">
        <ele>213.80000305176</ele>
        <time>2011-09-01T10:53:28.000Z</time>
      </trkpt>
      <trkpt lat="43.62362" lon="7.0144">
        <ele>213.80000305176</ele>
        <time>2011-09-01T10:53:29.000Z</time>
      </trkpt>
      <trkpt lat="43.62366" lon="7.01412">
        <ele>214.39999389648</ele>
        <time>2011-09-01T10:53:36.000Z</time>
      </trkpt>
      <trkpt lat="43.62366" lon="7.01408">
        <ele>214.39999389648</ele>
        <time>2011-09-01T10:53:37.000Z</time>
      </trkpt>
      <trkpt lat="43.62367" lon="7.01379">
        <ele>214.60000610352</ele>
        <time>2011-09-01T10:53:43.000Z</time>
      </trkpt>
      <trkpt lat="43.62364" lon="7.01351">
        <ele>215.39999389648</ele>
        <time>2011-09-01T10:53:49.000Z</time>
      </trkpt>
      <trkpt lat="43.6236" lon="7.01324">
        <ele>216</ele>
        <time>2011-09-01T10:53:55.000Z</time>
      </trkpt>
      <trkpt lat="43.62354" lon="7.01295">
        <ele>216.60000610352</ele>
        <time>2011-09-01T10:54:01.000Z</time>
      </trkpt>
      <trkpt lat="43.62349" lon="7.01268">
        <ele>217</ele>
        <time>2011-09-01T10:54:06.000Z</time>
      </trkpt>
      <trkpt lat="43.62349" lon="7.01257">
        <ele>216.80000305176</ele>
        <time>2011-09-01T10:54:08.000Z</time>
      </trkpt>
      <trkpt lat="43.62349" lon="7.01232">
        <ele>217.60000610352</ele>
        <time>2011-09-01T10:54:13.000Z</time>
      </trkpt>
      <trkpt lat="43.62349" lon="7.01227">
        <ele>217.80000305176</ele>
        <time>2011-09-01T10:54:14.000Z</time>
      </trkpt>
      <trkpt lat="43.62351" lon="7.01205">
        <ele>218.60000610352</ele>
        <time>2011-09-01T10:54:19.000Z</time>
      </trkpt>
      <trkpt lat="43.62349" lon="7.0118">
        <ele>219.80000305176</ele>
        <time>2011-09-01T10:54:25.000Z</time>
      </trkpt>
      <trkpt lat="43.62348" lon="7.01172">
        <ele>220.19999694824</ele>
        <time>2011-09-01T10:54:27.000Z</time>
      </trkpt>
      <trkpt lat="43.62343" lon="7.01147">
        <ele>221</ele>
        <time>2011-09-01T10:54:33.000Z</time>
      </trkpt>
      <trkpt lat="43.62343" lon="7.01143">
        <ele>221.19999694824</ele>
        <time>2011-09-01T10:54:34.000Z</time>
      </trkpt>
      <trkpt lat="43.62346" lon="7.01114">
        <ele>221.80000305176</ele>
        <time>2011-09-01T10:54:40.000Z</time>
      </trkpt>
      <trkpt lat="43.62346" lon="7.01105">
        <ele>222</ele>
        <time>2011-09-01T10:54:42.000Z</time>
      </trkpt>
      <trkpt lat="43.62344" lon="7.01075">
        <ele>222.80000305176</ele>
        <time>2011-09-01T10:54:48.000Z</time>
      </trkpt>
      <trkpt lat="43.62341" lon="7.01048">
        <ele>223.19999694824</ele>
        <time>2011-09-01T10:54:53.000Z</time>
      </trkpt>
      <trkpt lat="43.6234" lon="7.01032">
        <ele>223.39999389648</ele>
        <time>2011-09-01T10:54:56.000Z</time>
      </trkpt>
      <trkpt lat="43.62339" lon="7.01007">
        <ele>223.80000305176</ele>
        <time>2011-09-01T10:55:01.000Z</time>
      </trkpt>
      <trkpt lat="43.62338" lon="7.00993">
        <ele>223.60000610352</ele>
        <time>2011-09-01T10:55:04.000Z</time>
      </trkpt>
      <trkpt lat="43.62337" lon="7.00967">
        <ele>223.19999694824</ele>
        <time>2011-09-01T10:55:09.000Z</time>
      </trkpt>
      <trkpt lat="43.62336" lon="7.00958">
        <ele>223</ele>
        <time>2011-09-01T10:55:11.000Z</time>
      </trkpt>
      <trkpt lat="43.62335" lon="7.00933">
        <ele>222.39999389648</ele>
        <time>2011-09-01T10:55:17.000Z</time>
      </trkpt>
      <trkpt lat="43.62332" lon="7.00926">
        <ele>222.19999694824</ele>
        <time>2011-09-01T10:55:19.000Z</time>
      </trkpt>
      <trkpt lat="43.62332" lon="7.00916">
        <ele>222</ele>
        <time>2011-09-01T10:55:21.000Z</time>
      </trkpt>
      <trkpt lat="43.62336" lon="7.0089">
        <ele>222.60000610352</ele>
        <time>2011-09-01T10:55:26.000Z</time>
      </trkpt>
      <trkpt lat="43.62338" lon="7.00881">
        <ele>222.80000305176</ele>
        <time>2011-09-01T10:55:28.000Z</time>
      </trkpt>
      <trkpt lat="43.6234" lon="7.00857">
        <ele>223.60000610352</ele>
        <time>2011-09-01T10:55:33.000Z</time>
      </trkpt>
      <trkpt lat="43.62343" lon="7.00828">
        <ele>224.39999389648</ele>
        <time>2011-09-01T10:55:38.000Z</time>
      </trkpt>
      <trkpt lat="43.62346" lon="7.00801">
        <ele>226.39999389648</ele>
        <time>2011-09-01T10:55:43.000Z</time>
      </trkpt>
      <trkpt lat="43.6235" lon="7.00781">
        <ele>227.80000305176</ele>
        <time>2011-09-01T10:55:47.000Z</time>
      </trkpt>
      <trkpt lat="43.62349" lon="7.00761">
        <ele>229</ele>
        <time>2011-09-01T10:55:51.000Z</time>
      </trkpt>
      <trkpt lat="43.62347" lon="7.00758">
        <ele>229.39999389648</ele>
        <time>2011-09-01T10:55:52.000Z</time>
      </trkpt>
      <trkpt lat="43.62338" lon="7.0076">
        <ele>229.80000305176</ele>
        <time>2011-09-01T10:55:55.000Z</time>
      </trkpt>
      <trkpt lat="43.62332" lon="7.00764">
        <ele>229.80000305176</ele>
        <time>2011-09-01T10:55:57.000Z</time>
      </trkpt>
      <trkpt lat="43.6232" lon="7.00774">
        <ele>229.19999694824</ele>
        <time>2011-09-01T10:56:02.000Z</time>
      </trkpt>
      <trkpt lat="43.62302" lon="7.00787">
        <ele>228.80000305176</ele>
        <time>2011-09-01T10:56:09.000Z</time>
      </trkpt>
      <trkpt lat="43.62297" lon="7.00789">
        <ele>228.60000610352</ele>
        <time>2011-09-01T10:56:11.000Z</time>
      </trkpt>
      <trkpt lat="43.62283" lon="7.00797">
        <ele>228.60000610352</ele>
        <time>2011-09-01T10:56:16.000Z</time>
      </trkpt>
      <trkpt lat="43.62264" lon="7.00805">
        <ele>228.60000610352</ele>
        <time>2011-09-01T10:56:22.000Z</time>
      </trkpt>
      <trkpt lat="43.62261" lon="7.00806">
        <ele>228.60000610352</ele>
        <time>2011-09-01T10:56:23.000Z</time>
      </trkpt>
      <trkpt lat="43.62243" lon="7.00813">
        <ele>229.19999694824</ele>
        <time>2011-09-01T10:56:29.000Z</time>
      </trkpt>
      <trkpt lat="43.62223" lon="7.0082">
        <ele>231</ele>
        <time>2011-09-01T10:56:36.000Z</time>
      </trkpt>
      <trkpt lat="43.62208" lon="7.00829">
        <ele>232.39999389648</ele>
        <time>2011-09-01T10:56:42.000Z</time>
      </trkpt>
      <trkpt lat="43.62189" lon="7.00839">
        <ele>234.19999694824</ele>
        <time>2011-09-01T10:56:49.000Z</time>
      </trkpt>
      <trkpt lat="43.62171" lon="7.00851">
        <ele>236.39999389648</ele>
        <time>2011-09-01T10:56:57.000Z</time>
      </trkpt>
      <trkpt lat="43.62169" lon="7.00852">
        <ele>236.60000610352</ele>
        <time>2011-09-01T10:56:58.000Z</time>
      </trkpt>
      <trkpt lat="43.62157" lon="7.00857">
        <ele>236</ele>
        <time>2011-09-01T10:57:04.000Z</time>
      </trkpt>
      <trkpt lat="43.62149" lon="7.00857">
        <ele>235.39999389648</ele>
        <time>2011-09-01T10:57:10.000Z</time>
      </trkpt>
      <trkpt lat="43.62148" lon="7.00858">
        <ele>235.19999694824</ele>
        <time>2011-09-01T10:57:11.000Z</time>
      </trkpt>
      <trkpt lat="43.62139" lon="7.00859">
        <ele>234.39999389648</ele>
        <time>2011-09-01T10:57:15.000Z</time>
      </trkpt>
      <trkpt lat="43.62133" lon="7.00861">
        <ele>234</ele>
        <time>2011-09-01T10:57:17.000Z</time>
      </trkpt>
      <trkpt lat="43.62124" lon="7.00867">
        <ele>233</ele>
        <time>2011-09-01T10:57:20.000Z</time>
      </trkpt>
      <trkpt lat="43.62109" lon="7.00884">
        <ele>231</ele>
        <time>2011-09-01T10:57:26.000Z</time>
      </trkpt>
      <trkpt lat="43.621" lon="7.00896">
        <ele>229.60000610352</ele>
        <time>2011-09-01T10:57:32.000Z</time>
      </trkpt>
      <trkpt lat="43.62089" lon="7.00912">
        <ele>227.80000305176</ele>
        <time>2011-09-01T10:57:38.000Z</time>
      </trkpt>
      <trkpt lat="43.62074" lon="7.00934">
        <ele>225.60000610352</ele>
        <time>2011-09-01T10:57:44.000Z</time>
      </trkpt>
      <trkpt lat="43.62063" lon="7.00956">
        <ele>223.60000610352</ele>
        <time>2011-09-01T10:57:49.000Z</time>
      </trkpt>
      <trkpt lat="43.62052" lon="7.00979">
        <ele>221.60000610352</ele>
        <time>2011-09-01T10:57:55.000Z</time>
      </trkpt>
      <trkpt lat="43.62041" lon="7.01001">
        <ele>219.19999694824</ele>
        <time>2011-09-01T10:58:00.000Z</time>
      </trkpt>
      <trkpt lat="43.62032" lon="7.01022">
        <ele>216.80000305176</ele>
        <time>2011-09-01T10:58:05.000Z</time>
      </trkpt>
      <trkpt lat="43.62023" lon="7.01046">
        <ele>214.60000610352</ele>
        <time>2011-09-01T10:58:09.000Z</time>
      </trkpt>
      <trkpt lat="43.62021" lon="7.01052">
        <ele>214</ele>
        <time>2011-09-01T10:58:10.000Z</time>
      </trkpt>
      <trkpt lat="43.62017" lon="7.01064">
        <ele>212.60000610352</ele>
        <time>2011-09-01T10:58:12.000Z</time>
      </trkpt>
      <trkpt lat="43.62008" lon="7.01089">
        <ele>210</ele>
        <time>2011-09-01T10:58:16.000Z</time>
      </trkpt>
      <trkpt lat="43.62005" lon="7.01093">
        <ele>209.19999694824</ele>
        <time>2011-09-01T10:58:17.000Z</time>
      </trkpt>
      <trkpt lat="43.61996" lon="7.01097">
        <ele>208.19999694824</ele>
        <time>2011-09-01T10:58:20.000Z</time>
      </trkpt>
      <trkpt lat="43.61993" lon="7.01097">
        <ele>208.39999389648</ele>
        <time>2011-09-01T10:58:21.000Z</time>
      </trkpt>
      <trkpt lat="43.61989" lon="7.01096">
        <ele>208.60000610352</ele>
        <time>2011-09-01T10:58:22.000Z</time>
      </trkpt>
      <trkpt lat="43.61976" lon="7.01098">
        <ele>209.39999389648</ele>
        <time>2011-09-01T10:58:26.000Z</time>
      </trkpt>
      <trkpt lat="43.61973" lon="7.01111">
        <ele>209.19999694824</ele>
        <time>2011-09-01T10:58:29.000Z</time>
      </trkpt>
      <trkpt lat="43.61968" lon="7.01136">
        <ele>208.80000305176</ele>
        <time>2011-09-01T10:58:34.000Z</time>
      </trkpt>
      <trkpt lat="43.61967" lon="7.01139">
        <ele>208.60000610352</ele>
        <time>2011-09-01T10:58:35.000Z</time>
      </trkpt>
      <trkpt lat="43.61963" lon="7.01152">
        <ele>208.39999389648</ele>
        <time>2011-09-01T10:58:39.000Z</time>
      </trkpt>
      <trkpt lat="43.61956" lon="7.01171">
        <ele>207.60000610352</ele>
        <time>2011-09-01T10:58:45.000Z</time>
      </trkpt>
      <trkpt lat="43.6195" lon="7.01193">
        <ele>206.60000610352</ele>
        <time>2011-09-01T10:58:51.000Z</time>
      </trkpt>
      <trkpt lat="43.61941" lon="7.01206">
        <ele>206</ele>
        <time>2011-09-01T10:58:56.000Z</time>
      </trkpt>
      <trkpt lat="43.61929" lon="7.01221">
        <ele>205.39999389648</ele>
        <time>2011-09-01T10:59:02.000Z</time>
      </trkpt>
      <trkpt lat="43.61914" lon="7.01238">
        <ele>204.80000305176</ele>
        <time>2011-09-01T10:59:08.000Z</time>
      </trkpt>
      <trkpt lat="43.619" lon="7.01253">
        <ele>205.19999694824</ele>
        <time>2011-09-01T10:59:14.000Z</time>
      </trkpt>
      <trkpt lat="43.61898" lon="7.01257">
        <ele>205.19999694824</ele>
        <time>2011-09-01T10:59:15.000Z</time>
      </trkpt>
      <trkpt lat="43.61884" lon="7.01275">
        <ele>205.60000610352</ele>
        <time>2011-09-01T10:59:21.000Z</time>
      </trkpt>
      <trkpt lat="43.61875" lon="7.01286">
        <ele>205.60000610352</ele>
        <time>2011-09-01T10:59:27.000Z</time>
      </trkpt>
      <trkpt lat="43.61873" lon="7.01286">
        <ele>205.80000305176</ele>
        <time>2011-09-01T10:59:32.000Z</time>
      </trkpt>
      <trkpt lat="43.61871" lon="7.01289">
        <ele>205.80000305176</ele>
        <time>2011-09-01T10:59:35.000Z</time>
      </trkpt>
      <trkpt lat="43.61868" lon="7.01291">
        <ele>205.80000305176</ele>
        <time>2011-09-01T10:59:38.000Z</time>
      </trkpt>
      <trkpt lat="43.61864" lon="7.0129">
        <ele>206.19999694824</ele>
        <time>2011-09-01T10:59:41.000Z</time>
      </trkpt>
      <trkpt lat="43.6186" lon="7.01287">
        <ele>206.60000610352</ele>
        <time>2011-09-01T10:59:44.000Z</time>
      </trkpt>
      <trkpt lat="43.61859" lon="7.01285">
        <ele>206.80000305176</ele>
        <time>2011-09-01T10:59:45.000Z</time>
      </trkpt>
      <trkpt lat="43.61858" lon="7.01284">
        <ele>206.80000305176</ele>
        <time>2011-09-01T10:59:46.000Z</time>
      </trkpt>
      <trkpt lat="43.61852" lon="7.01285">
        <ele>207.19999694824</ele>
        <time>2011-09-01T10:59:49.000Z</time>
      </trkpt>
      <trkpt lat="43.61843" lon="7.01295">
        <ele>207</ele>
        <time>2011-09-01T10:59:54.000Z</time>
      </trkpt>
      <trkpt lat="43.61842" lon="7.01297">
        <ele>207</ele>
        <time>2011-09-01T10:59:55.000Z</time>
      </trkpt>
      <trkpt lat="43.61834" lon="7.01317">
        <ele>206</ele>
        <time>2011-09-01T11:00:01.000Z</time>
      </trkpt>
      <trkpt lat="43.61822" lon="7.01334">
        <ele>205.19999694824</ele>
        <time>2011-09-01T11:00:05.000Z</time>
      </trkpt>
      <trkpt lat="43.61803" lon="7.01346">
        <ele>205.80000305176</ele>
        <time>2011-09-01T11:00:10.000Z</time>
      </trkpt>
      <trkpt lat="43.61787" lon="7.01355">
        <ele>206.39999389648</ele>
        <time>2011-09-01T11:00:14.000Z</time>
      </trkpt>
      <trkpt lat="43.61779" lon="7.01359">
        <ele>206.80000305176</ele>
        <time>2011-09-01T11:00:16.000Z</time>
      </trkpt>
      <trkpt lat="43.61763" lon="7.01369">
        <ele>207.60000610352</ele>
        <time>2011-09-01T11:00:20.000Z</time>
      </trkpt>
      <trkpt lat="43.61757" lon="7.01372">
        <ele>208</ele>
        <time>2011-09-01T11:00:22.000Z</time>
      </trkpt>
      <trkpt lat="43.6174" lon="7.01384">
        <ele>209.80000305176</ele>
        <time>2011-09-01T11:00:28.000Z</time>
      </trkpt>
      <trkpt lat="43.61738" lon="7.01386">
        <ele>210</ele>
        <time>2011-09-01T11:00:29.000Z</time>
      </trkpt>
      <trkpt lat="43.61733" lon="7.014">
        <ele>211</ele>
        <time>2011-09-01T11:00:34.000Z</time>
      </trkpt>
      <trkpt lat="43.61726" lon="7.01417">
        <ele>212.39999389648</ele>
        <time>2011-09-01T11:00:39.000Z</time>
      </trkpt>
      <trkpt lat="43.61715" lon="7.01439">
        <ele>213.60000610352</ele>
        <time>2011-09-01T11:00:45.000Z</time>
      </trkpt>
      <trkpt lat="43.61713" lon="7.01443">
        <ele>213.80000305176</ele>
        <time>2011-09-01T11:00:46.000Z</time>
      </trkpt>
      <trkpt lat="43.61702" lon="7.01464">
        <ele>214.39999389648</ele>
        <time>2011-09-01T11:00:51.000Z</time>
      </trkpt>
      <trkpt lat="43.61697" lon="7.01477">
        <ele>214.60000610352</ele>
        <time>2011-09-01T11:00:54.000Z</time>
      </trkpt>
      <trkpt lat="43.61686" lon="7.01497">
        <ele>214.60000610352</ele>
        <time>2011-09-01T11:00:59.000Z</time>
      </trkpt>
      <trkpt lat="43.61681" lon="7.01509">
        <ele>214.39999389648</ele>
        <time>2011-09-01T11:01:02.000Z</time>
      </trkpt>
      <trkpt lat="43.61668" lon="7.0153">
        <ele>213.80000305176</ele>
        <time>2011-09-01T11:01:08.000Z</time>
      </trkpt>
      <trkpt lat="43.61666" lon="7.01533">
        <ele>213.60000610352</ele>
        <time>2011-09-01T11:01:09.000Z</time>
      </trkpt>
      <trkpt lat="43.61653" lon="7.01555">
        <ele>213</ele>
        <time>2011-09-01T11:01:15.000Z</time>
      </trkpt>
      <trkpt lat="43.61648" lon="7.01561">
        <ele>212.80000305176</ele>
        <time>2011-09-01T11:01:17.000Z</time>
      </trkpt>
      <trkpt lat="43.61636" lon="7.0158">
        <ele>212</ele>
        <time>2011-09-01T11:01:22.000Z</time>
      </trkpt>
      <trkpt lat="43.6163" lon="7.01586">
        <ele>212.19999694824</ele>
        <time>2011-09-01T11:01:24.000Z</time>
      </trkpt>
      <trkpt lat="43.61616" lon="7.01594">
        <ele>213</ele>
        <time>2011-09-01T11:01:28.000Z</time>
      </trkpt>
      <trkpt lat="43.616" lon="7.01596">
        <ele>214</ele>
        <time>2011-09-01T11:01:32.000Z</time>
      </trkpt>
      <trkpt lat="43.61591" lon="7.01611">
        <ele>214.80000305176</ele>
        <time>2011-09-01T11:01:35.000Z</time>
      </trkpt>
      <trkpt lat="43.61579" lon="7.01635">
        <ele>215.19999694824</ele>
        <time>2011-09-01T11:01:39.000Z</time>
      </trkpt>
      <trkpt lat="43.61571" lon="7.01651">
        <ele>214.60000610352</ele>
        <time>2011-09-01T11:01:42.000Z</time>
      </trkpt>
      <trkpt lat="43.61561" lon="7.01668">
        <ele>213.80000305176</ele>
        <time>2011-09-01T11:01:45.000Z</time>
      </trkpt>
      <trkpt lat="43.61553" lon="7.01677">
        <ele>213.60000610352</ele>
        <time>2011-09-01T11:01:47.000Z</time>
      </trkpt>
      <trkpt lat="43.61544" lon="7.01684">
        <ele>213.39999389648</ele>
        <time>2011-09-01T11:01:49.000Z</time>
      </trkpt>
      <trkpt lat="43.61531" lon="7.01691">
        <ele>212.60000610352</ele>
        <time>2011-09-01T11:01:52.000Z</time>
      </trkpt>
      <trkpt lat="43.61514" lon="7.01705">
        <ele>212.19999694824</ele>
        <time>2011-09-01T11:01:56.000Z</time>
      </trkpt>
      <trkpt lat="43.6151" lon="7.01708">
        <ele>212.19999694824</ele>
        <time>2011-09-01T11:01:57.000Z</time>
      </trkpt>
      <trkpt lat="43.61505" lon="7.01711">
        <ele>212</ele>
        <time>2011-09-01T11:01:58.000Z</time>
      </trkpt>
      <trkpt lat="43.61497" lon="7.01716">
        <ele>212</ele>
        <time>2011-09-01T11:02:00.000Z</time>
      </trkpt>
      <trkpt lat="43.61477" lon="7.01729">
        <ele>212.39999389648</ele>
        <time>2011-09-01T11:02:05.000Z</time>
      </trkpt>
      <trkpt lat="43.6147" lon="7.01732">
        <ele>212.60000610352</ele>
        <time>2011-09-01T11:02:07.000Z</time>
      </trkpt>
      <trkpt lat="43.61457" lon="7.01735">
        <ele>212.39999389648</ele>
        <time>2011-09-01T11:02:10.000Z</time>
      </trkpt>
      <trkpt lat="43.61449" lon="7.01736">
        <ele>212.19999694824</ele>
        <time>2011-09-01T11:02:12.000Z</time>
      </trkpt>
      <trkpt lat="43.61444" lon="7.01735">
        <ele>212</ele>
        <time>2011-09-01T11:02:13.000Z</time>
      </trkpt>
      <trkpt lat="43.61436" lon="7.01736">
        <ele>211.80000305176</ele>
        <time>2011-09-01T11:02:15.000Z</time>
      </trkpt>
      <trkpt lat="43.61433" lon="7.01737">
        <ele>211.80000305176</ele>
        <time>2011-09-01T11:02:16.000Z</time>
      </trkpt>
      <trkpt lat="43.61423" lon="7.01745">
        <ele>212</ele>
        <time>2011-09-01T11:02:20.000Z</time>
      </trkpt>
      <trkpt lat="43.6141" lon="7.01757">
        <ele>212.19999694824</ele>
        <time>2011-09-01T11:02:26.000Z</time>
      </trkpt>
      <trkpt lat="43.61397" lon="7.01768">
        <ele>212.60000610352</ele>
        <time>2011-09-01T11:02:31.000Z</time>
      </trkpt>
      <trkpt lat="43.61382" lon="7.01783">
        <ele>213.39999389648</ele>
        <time>2011-09-01T11:02:37.000Z</time>
      </trkpt>
      <trkpt lat="43.61369" lon="7.01797">
        <ele>214</ele>
        <time>2011-09-01T11:02:43.000Z</time>
      </trkpt>
      <trkpt lat="43.61355" lon="7.01811">
        <ele>214.60000610352</ele>
        <time>2011-09-01T11:02:49.000Z</time>
      </trkpt>
      <trkpt lat="43.61341" lon="7.01819">
        <ele>215.39999389648</ele>
        <time>2011-09-01T11:02:57.000Z</time>
      </trkpt>
      <trkpt lat="43.61327" lon="7.01827">
        <ele>216.19999694824</ele>
        <time>2011-09-01T11:03:03.000Z</time>
      </trkpt>
      <trkpt lat="43.61313" lon="7.01835">
        <ele>217</ele>
        <time>2011-09-01T11:03:09.000Z</time>
      </trkpt>
      <trkpt lat="43.61296" lon="7.01844">
        <ele>218</ele>
        <time>2011-09-01T11:03:16.000Z</time>
      </trkpt>
      <trkpt lat="43.61282" lon="7.01856">
        <ele>219</ele>
        <time>2011-09-01T11:03:21.000Z</time>
      </trkpt>
      <trkpt lat="43.61269" lon="7.01877">
        <ele>220.80000305176</ele>
        <time>2011-09-01T11:03:28.000Z</time>
      </trkpt>
      <trkpt lat="43.61262" lon="7.01891">
        <ele>222</ele>
        <time>2011-09-01T11:03:34.000Z</time>
      </trkpt>
      <trkpt lat="43.61252" lon="7.01902">
        <ele>224</ele>
        <time>2011-09-01T11:03:39.000Z</time>
      </trkpt>
      <trkpt lat="43.61242" lon="7.01917">
        <ele>224.19999694824</ele>
        <time>2011-09-01T11:03:45.000Z</time>
      </trkpt>
      <trkpt lat="43.61238" lon="7.01925">
        <ele>224</ele>
        <time>2011-09-01T11:03:49.000Z</time>
      </trkpt>
      <trkpt lat="43.61238" lon="7.01931">
        <ele>224</ele>
        <time>2011-09-01T11:03:51.000Z</time>
      </trkpt>
      <trkpt lat="43.61238" lon="7.01937">
        <ele>224.19999694824</ele>
        <time>2011-09-01T11:03:53.000Z</time>
      </trkpt>
      <trkpt lat="43.6124" lon="7.01945">
        <ele>224.60000610352</ele>
        <time>2011-09-01T11:03:56.000Z</time>
      </trkpt>
      <trkpt lat="43.61249" lon="7.01968">
        <ele>226</ele>
        <time>2011-09-01T11:04:03.000Z</time>
      </trkpt>
      <trkpt lat="43.61255" lon="7.01985">
        <ele>225.80000305176</ele>
        <time>2011-09-01T11:04:08.000Z</time>
      </trkpt>
      <trkpt lat="43.61259" lon="7.02009">
        <ele>225.60000610352</ele>
        <time>2011-09-01T11:04:14.000Z</time>
      </trkpt>
      <trkpt lat="43.61258" lon="7.02025">
        <ele>225.19999694824</ele>
        <time>2011-09-01T11:04:18.000Z</time>
      </trkpt>
      <trkpt lat="43.61262" lon="7.0204">
        <ele>224.60000610352</ele>
        <time>2011-09-01T11:04:22.000Z</time>
      </trkpt>
      <trkpt lat="43.61271" lon="7.02065">
        <ele>223.80000305176</ele>
        <time>2011-09-01T11:04:29.000Z</time>
      </trkpt>
      <trkpt lat="43.6128" lon="7.02082">
        <ele>223.60000610352</ele>
        <time>2011-09-01T11:04:34.000Z</time>
      </trkpt>
      <trkpt lat="43.61284" lon="7.02097">
        <ele>223.39999389648</ele>
        <time>2011-09-01T11:04:39.000Z</time>
      </trkpt>
      <trkpt lat="43.61288" lon="7.0212">
        <ele>223.19999694824</ele>
        <time>2011-09-01T11:04:45.000Z</time>
      </trkpt>
      <trkpt lat="43.61288" lon="7.02143">
        <ele>223.19999694824</ele>
        <time>2011-09-01T11:04:51.000Z</time>
      </trkpt>
      <trkpt lat="43.61294" lon="7.0217">
        <ele>223.39999389648</ele>
        <time>2011-09-01T11:04:57.000Z</time>
      </trkpt>
      <trkpt lat="43.61298" lon="7.02197">
        <ele>222.19999694824</ele>
        <time>2011-09-01T11:05:02.000Z</time>
      </trkpt>
      <trkpt lat="43.61303" lon="7.02216">
        <ele>221.60000610352</ele>
        <time>2011-09-01T11:05:05.000Z</time>
      </trkpt>
      <trkpt lat="43.61305" lon="7.02223">
        <ele>221.39999389648</ele>
        <time>2011-09-01T11:05:06.000Z</time>
      </trkpt>
      <trkpt lat="43.61306" lon="7.02244">
        <ele>220.39999389648</ele>
        <time>2011-09-01T11:05:09.000Z</time>
      </trkpt>
      <trkpt lat="43.61305" lon="7.0225">
        <ele>219.80000305176</ele>
        <time>2011-09-01T11:05:10.000Z</time>
      </trkpt>
      <trkpt lat="43.61303" lon="7.02278">
        <ele>217.80000305176</ele>
        <time>2011-09-01T11:05:14.000Z</time>
      </trkpt>
      <trkpt lat="43.61302" lon="7.02284">
        <ele>217.39999389648</ele>
        <time>2011-09-01T11:05:15.000Z</time>
      </trkpt>
      <trkpt lat="43.61302" lon="7.02295">
        <ele>216.60000610352</ele>
        <time>2011-09-01T11:05:17.000Z</time>
      </trkpt>
      <trkpt lat="43.61303" lon="7.02306">
        <ele>215.80000305176</ele>
        <time>2011-09-01T11:05:19.000Z</time>
      </trkpt>
      <trkpt lat="43.61302" lon="7.02322">
        <ele>214.80000305176</ele>
        <time>2011-09-01T11:05:22.000Z</time>
      </trkpt>
      <trkpt lat="43.613" lon="7.02327">
        <ele>214.19999694824</ele>
        <time>2011-09-01T11:05:23.000Z</time>
      </trkpt>
      <trkpt lat="43.61287" lon="7.02339">
        <ele>212.60000610352</ele>
        <time>2011-09-01T11:05:27.000Z</time>
      </trkpt>
      <trkpt lat="43.61272" lon="7.02358">
        <ele>210.80000305176</ele>
        <time>2011-09-01T11:05:32.000Z</time>
      </trkpt>
      <trkpt lat="43.61258" lon="7.02377">
        <ele>209.39999389648</ele>
        <time>2011-09-01T11:05:37.000Z</time>
      </trkpt>
      <trkpt lat="43.61255" lon="7.02381">
        <ele>209.19999694824</ele>
        <time>2011-09-01T11:05:38.000Z</time>
      </trkpt>
      <trkpt lat="43.61239" lon="7.0239">
        <ele>208.19999694824</ele>
        <time>2011-09-01T11:05:43.000Z</time>
      </trkpt>
      <trkpt lat="43.61223" lon="7.024">
        <ele>207.19999694824</ele>
        <time>2011-09-01T11:05:48.000Z</time>
      </trkpt>
      <trkpt lat="43.61216" lon="7.02415">
        <ele>206.60000610352</ele>
        <time>2011-09-01T11:05:52.000Z</time>
      </trkpt>
      <trkpt lat="43.61216" lon="7.02434">
        <ele>206.19999694824</ele>
        <time>2011-09-01T11:05:56.000Z</time>
      </trkpt>
      <trkpt lat="43.61215" lon="7.02438">
        <ele>206</ele>
        <time>2011-09-01T11:05:57.000Z</time>
      </trkpt>
      <trkpt lat="43.61209" lon="7.02443">
        <ele>206</ele>
        <time>2011-09-01T11:06:00.000Z</time>
      </trkpt>
      <trkpt lat="43.61208" lon="7.02443">
        <ele>206</ele>
        <time>2011-09-01T11:06:01.000Z</time>
      </trkpt>
      <trkpt lat="43.61194" lon="7.02446">
        <ele>206.19999694824</ele>
        <time>2011-09-01T11:06:07.000Z</time>
      </trkpt>
      <trkpt lat="43.61174" lon="7.02453">
        <ele>206.80000305176</ele>
        <time>2011-09-01T11:06:13.000Z</time>
      </trkpt>
      <trkpt lat="43.61171" lon="7.02454">
        <ele>207</ele>
        <time>2011-09-01T11:06:14.000Z</time>
      </trkpt>
      <trkpt lat="43.61165" lon="7.02454">
        <ele>207.19999694824</ele>
        <time>2011-09-01T11:06:16.000Z</time>
      </trkpt>
      <trkpt lat="43.61159" lon="7.02449">
        <ele>206.60000610352</ele>
        <time>2011-09-01T11:06:18.000Z</time>
      </trkpt>
      <trkpt lat="43.61145" lon="7.02435">
        <ele>205.19999694824</ele>
        <time>2011-09-01T11:06:22.000Z</time>
      </trkpt>
      <trkpt lat="43.61127" lon="7.02433">
        <ele>204.19999694824</ele>
        <time>2011-09-01T11:06:26.000Z</time>
      </trkpt>
      <trkpt lat="43.61113" lon="7.02432">
        <ele>203.39999389648</ele>
        <time>2011-09-01T11:06:29.000Z</time>
      </trkpt>
      <trkpt lat="43.61105" lon="7.0243">
        <ele>203</ele>
        <time>2011-09-01T11:06:31.000Z</time>
      </trkpt>
      <trkpt lat="43.61099" lon="7.02427">
        <ele>202.19999694824</ele>
        <time>2011-09-01T11:06:33.000Z</time>
      </trkpt>
      <trkpt lat="43.6109" lon="7.0242">
        <ele>200.80000305176</ele>
        <time>2011-09-01T11:06:36.000Z</time>
      </trkpt>
      <trkpt lat="43.61074" lon="7.0241">
        <ele>198.60000610352</ele>
        <time>2011-09-01T11:06:41.000Z</time>
      </trkpt>
      <trkpt lat="43.61057" lon="7.02398">
        <ele>196</ele>
        <time>2011-09-01T11:06:46.000Z</time>
      </trkpt>
      <trkpt lat="43.61044" lon="7.02395">
        <ele>194.39999389648</ele>
        <time>2011-09-01T11:06:51.000Z</time>
      </trkpt>
      <trkpt lat="43.61031" lon="7.02387">
        <ele>192.39999389648</ele>
        <time>2011-09-01T11:06:56.000Z</time>
      </trkpt>
      <trkpt lat="43.61019" lon="7.02379">
        <ele>190.39999389648</ele>
        <time>2011-09-01T11:07:00.000Z</time>
      </trkpt>
      <trkpt lat="43.61006" lon="7.02368">
        <ele>187.60000610352</ele>
        <time>2011-09-01T11:07:04.000Z</time>
      </trkpt>
      <trkpt lat="43.61003" lon="7.02368">
        <ele>187.39999389648</ele>
        <time>2011-09-01T11:07:05.000Z</time>
      </trkpt>
      <trkpt lat="43.60998" lon="7.02371">
        <ele>187.19999694824</ele>
        <time>2011-09-01T11:07:07.000Z</time>
      </trkpt>
      <trkpt lat="43.6098" lon="7.02375">
        <ele>185.39999389648</ele>
        <time>2011-09-01T11:07:11.000Z</time>
      </trkpt>
      <trkpt lat="43.60962" lon="7.02383">
        <ele>184.19999694824</ele>
        <time>2011-09-01T11:07:15.000Z</time>
      </trkpt>
      <trkpt lat="43.60958" lon="7.02385">
        <ele>183.80000305176</ele>
        <time>2011-09-01T11:07:16.000Z</time>
      </trkpt>
      <trkpt lat="43.6095" lon="7.02388">
        <ele>183.19999694824</ele>
        <time>2011-09-01T11:07:18.000Z</time>
      </trkpt>
      <trkpt lat="43.60942" lon="7.02386">
        <ele>182</ele>
        <time>2011-09-01T11:07:20.000Z</time>
      </trkpt>
      <trkpt lat="43.60933" lon="7.02383">
        <ele>180.60000610352</ele>
        <time>2011-09-01T11:07:22.000Z</time>
      </trkpt>
      <trkpt lat="43.60926" lon="7.02381">
        <ele>179.39999389648</ele>
        <time>2011-09-01T11:07:24.000Z</time>
      </trkpt>
      <trkpt lat="43.60922" lon="7.02381">
        <ele>179</ele>
        <time>2011-09-01T11:07:25.000Z</time>
      </trkpt>
      <trkpt lat="43.60907" lon="7.02391">
        <ele>177.60000610352</ele>
        <time>2011-09-01T11:07:29.000Z</time>
      </trkpt>
      <trkpt lat="43.60897" lon="7.02401">
        <ele>177</ele>
        <time>2011-09-01T11:07:32.000Z</time>
      </trkpt>
      <trkpt lat="43.6089" lon="7.02409">
        <ele>176.39999389648</ele>
        <time>2011-09-01T11:07:34.000Z</time>
      </trkpt>
      <trkpt lat="43.60887" lon="7.02411">
        <ele>176</ele>
        <time>2011-09-01T11:07:35.000Z</time>
      </trkpt>
      <trkpt lat="43.60878" lon="7.02418">
        <ele>175</ele>
        <time>2011-09-01T11:07:37.000Z</time>
      </trkpt>
      <trkpt lat="43.60872" lon="7.02431">
        <ele>174.39999389648</ele>
        <time>2011-09-01T11:07:39.000Z</time>
      </trkpt>
      <trkpt lat="43.60859" lon="7.0246">
        <ele>173</ele>
        <time>2011-09-01T11:07:43.000Z</time>
      </trkpt>
      <trkpt lat="43.60857" lon="7.02468">
        <ele>173</ele>
        <time>2011-09-01T11:07:44.000Z</time>
      </trkpt>
      <trkpt lat="43.6085" lon="7.02497">
        <ele>172.39999389648</ele>
        <time>2011-09-01T11:07:48.000Z</time>
      </trkpt>
      <trkpt lat="43.6085" lon="7.02503">
        <ele>172.19999694824</ele>
        <time>2011-09-01T11:07:49.000Z</time>
      </trkpt>
      <trkpt lat="43.60849" lon="7.0251">
        <ele>172.19999694824</ele>
        <time>2011-09-01T11:07:50.000Z</time>
      </trkpt>
      <trkpt lat="43.60849" lon="7.02538">
        <ele>172.60000610352</ele>
        <time>2011-09-01T11:07:54.000Z</time>
      </trkpt>
      <trkpt lat="43.60851" lon="7.02557">
        <ele>173.19999694824</ele>
        <time>2011-09-01T11:07:57.000Z</time>
      </trkpt>
      <trkpt lat="43.60852" lon="7.02562">
        <ele>173.60000610352</ele>
        <time>2011-09-01T11:07:58.000Z</time>
      </trkpt>
      <trkpt lat="43.60853" lon="7.02567">
        <ele>173.80000305176</ele>
        <time>2011-09-01T11:07:59.000Z</time>
      </trkpt>
      <trkpt lat="43.60854" lon="7.02582">
        <ele>174.19999694824</ele>
        <time>2011-09-01T11:08:02.000Z</time>
      </trkpt>
      <trkpt lat="43.60855" lon="7.02587">
        <ele>174.39999389648</ele>
        <time>2011-09-01T11:08:03.000Z</time>
      </trkpt>
      <trkpt lat="43.60858" lon="7.02609">
        <ele>175</ele>
        <time>2011-09-01T11:08:09.000Z</time>
      </trkpt>
      <trkpt lat="43.60865" lon="7.02635">
        <ele>176.80000305176</ele>
        <time>2011-09-01T11:08:17.000Z</time>
      </trkpt>
      <trkpt lat="43.60866" lon="7.02638">
        <ele>177</ele>
        <time>2011-09-01T11:08:18.000Z</time>
      </trkpt>
      <trkpt lat="43.60868" lon="7.02661">
        <ele>177.60000610352</ele>
        <time>2011-09-01T11:08:24.000Z</time>
      </trkpt>
      <trkpt lat="43.60864" lon="7.02687">
        <ele>176.19999694824</ele>
        <time>2011-09-01T11:08:29.000Z</time>
      </trkpt>
      <trkpt lat="43.60858" lon="7.02718">
        <ele>174</ele>
        <time>2011-09-01T11:08:34.000Z</time>
      </trkpt>
      <trkpt lat="43.60855" lon="7.02744">
        <ele>172.39999389648</ele>
        <time>2011-09-01T11:08:38.000Z</time>
      </trkpt>
      <trkpt lat="43.60853" lon="7.02754">
        <ele>171.39999389648</ele>
        <time>2011-09-01T11:08:40.000Z</time>
      </trkpt>
      <trkpt lat="43.60852" lon="7.0276">
        <ele>171</ele>
        <time>2011-09-01T11:08:43.000Z</time>
      </trkpt>
      <trkpt lat="43.6085" lon="7.02765">
        <ele>170.39999389648</ele>
        <time>2011-09-01T11:08:49.000Z</time>
      </trkpt>
      <trkpt lat="43.60846" lon="7.02777">
        <ele>169</ele>
        <time>2011-09-01T11:09:00.000Z</time>
      </trkpt>
      <trkpt lat="43.6084" lon="7.02783">
        <ele>167.39999389648</ele>
        <time>2011-09-01T11:09:04.000Z</time>
      </trkpt>
      <trkpt lat="43.60838" lon="7.02783">
        <ele>167.19999694824</ele>
        <time>2011-09-01T11:09:05.000Z</time>
      </trkpt>
      <trkpt lat="43.60829" lon="7.02778">
        <ele>166</ele>
        <time>2011-09-01T11:09:09.000Z</time>
      </trkpt>
      <trkpt lat="43.60825" lon="7.02776">
        <ele>165.60000610352</ele>
        <time>2011-09-01T11:09:10.000Z</time>
      </trkpt>
      <trkpt lat="43.60804" lon="7.02765">
        <ele>164.39999389648</ele>
        <time>2011-09-01T11:09:14.000Z</time>
      </trkpt>
      <trkpt lat="43.60784" lon="7.02754">
        <ele>163.19999694824</ele>
        <time>2011-09-01T11:09:17.000Z</time>
      </trkpt>
      <trkpt lat="43.60773" lon="7.02746">
        <ele>162.60000610352</ele>
        <time>2011-09-01T11:09:19.000Z</time>
      </trkpt>
      <trkpt lat="43.60767" lon="7.02743">
        <ele>162</ele>
        <time>2011-09-01T11:09:20.000Z</time>
      </trkpt>
      <trkpt lat="43.60749" lon="7.02737">
        <ele>160.39999389648</ele>
        <time>2011-09-01T11:09:23.000Z</time>
      </trkpt>
      <trkpt lat="43.60729" lon="7.02727">
        <ele>160.19999694824</ele>
        <time>2011-09-01T11:09:27.000Z</time>
      </trkpt>
      <trkpt lat="43.60724" lon="7.02724">
        <ele>160.19999694824</ele>
        <time>2011-09-01T11:09:28.000Z</time>
      </trkpt>
      <trkpt lat="43.60704" lon="7.02714">
        <ele>160.39999389648</ele>
        <time>2011-09-01T11:09:32.000Z</time>
      </trkpt>
      <trkpt lat="43.60699" lon="7.02712">
        <ele>160.60000610352</ele>
        <time>2011-09-01T11:09:33.000Z</time>
      </trkpt>
      <trkpt lat="43.60681" lon="7.02701">
        <ele>161.19999694824</ele>
        <time>2011-09-01T11:09:38.000Z</time>
      </trkpt>
      <trkpt lat="43.60678" lon="7.027">
        <ele>161.39999389648</ele>
        <time>2011-09-01T11:09:39.000Z</time>
      </trkpt>
      <trkpt lat="43.60671" lon="7.02698">
        <ele>161.60000610352</ele>
        <time>2011-09-01T11:09:41.000Z</time>
      </trkpt>
      <trkpt lat="43.60657" lon="7.02694">
        <ele>161.80000305176</ele>
        <time>2011-09-01T11:09:45.000Z</time>
      </trkpt>
      <trkpt lat="43.60638" lon="7.02694">
        <ele>161.60000610352</ele>
        <time>2011-09-01T11:09:50.000Z</time>
      </trkpt>
      <trkpt lat="43.60622" lon="7.02694">
        <ele>161.39999389648</ele>
        <time>2011-09-01T11:09:54.000Z</time>
      </trkpt>
      <trkpt lat="43.606" lon="7.02691">
        <ele>161.19999694824</ele>
        <time>2011-09-01T11:09:59.000Z</time>
      </trkpt>
      <trkpt lat="43.60585" lon="7.02689">
        <ele>161.19999694824</ele>
        <time>2011-09-01T11:10:02.000Z</time>
      </trkpt>
      <trkpt lat="43.60576" lon="7.02687">
        <ele>161</ele>
        <time>2011-09-01T11:10:04.000Z</time>
      </trkpt>
      <trkpt lat="43.60562" lon="7.02678">
        <ele>161</ele>
        <time>2011-09-01T11:10:07.000Z</time>
      </trkpt>
      <trkpt lat="43.6055" lon="7.02654">
        <ele>161.39999389648</ele>
        <time>2011-09-01T11:10:11.000Z</time>
      </trkpt>
      <trkpt lat="43.60541" lon="7.02632">
        <ele>162</ele>
        <time>2011-09-01T11:10:15.000Z</time>
      </trkpt>
      <trkpt lat="43.60532" lon="7.02611">
        <ele>162.39999389648</ele>
        <time>2011-09-01T11:10:19.000Z</time>
      </trkpt>
      <trkpt lat="43.60526" lon="7.02597">
        <ele>162.80000305176</ele>
        <time>2011-09-01T11:10:22.000Z</time>
      </trkpt>
      <trkpt lat="43.6052" lon="7.02575">
        <ele>163.39999389648</ele>
        <time>2011-09-01T11:10:26.000Z</time>
      </trkpt>
      <trkpt lat="43.60516" lon="7.02551">
        <ele>163.80000305176</ele>
        <time>2011-09-01T11:10:30.000Z</time>
      </trkpt>
      <trkpt lat="43.60514" lon="7.02539">
        <ele>164.19999694824</ele>
        <time>2011-09-01T11:10:32.000Z</time>
      </trkpt>
      <trkpt lat="43.60509" lon="7.0251">
        <ele>164.80000305176</ele>
        <time>2011-09-01T11:10:37.000Z</time>
      </trkpt>
      <trkpt lat="43.60507" lon="7.02481">
        <ele>165.60000610352</ele>
        <time>2011-09-01T11:10:42.000Z</time>
      </trkpt>
      <trkpt lat="43.60504" lon="7.02456">
        <ele>166.19999694824</ele>
        <time>2011-09-01T11:10:47.000Z</time>
      </trkpt>
      <trkpt lat="43.60504" lon="7.02446">
        <ele>166.39999389648</ele>
        <time>2011-09-01T11:10:49.000Z</time>
      </trkpt>
      <trkpt lat="43.60502" lon="7.0242">
        <ele>167</ele>
        <time>2011-09-01T11:10:54.000Z</time>
      </trkpt>
      <trkpt lat="43.60501" lon="7.0241">
        <ele>167</ele>
        <time>2011-09-01T11:10:56.000Z</time>
      </trkpt>
      <trkpt lat="43.60497" lon="7.02383">
        <ele>167.19999694824</ele>
        <time>2011-09-01T11:11:02.000Z</time>
      </trkpt>
      <trkpt lat="43.60496" lon="7.02378">
        <ele>167.39999389648</ele>
        <time>2011-09-01T11:11:03.000Z</time>
      </trkpt>
      <trkpt lat="43.60492" lon="7.02354">
        <ele>167.60000610352</ele>
        <time>2011-09-01T11:11:08.000Z</time>
      </trkpt>
      <trkpt lat="43.60489" lon="7.02345">
        <ele>167.60000610352</ele>
        <time>2011-09-01T11:11:10.000Z</time>
      </trkpt>
      <trkpt lat="43.60484" lon="7.0232">
        <ele>168</ele>
        <time>2011-09-01T11:11:15.000Z</time>
      </trkpt>
      <trkpt lat="43.60481" lon="7.02311">
        <ele>168.19999694824</ele>
        <time>2011-09-01T11:11:17.000Z</time>
      </trkpt>
      <trkpt lat="43.60475" lon="7.02287">
        <ele>169</ele>
        <time>2011-09-01T11:11:22.000Z</time>
      </trkpt>
      <trkpt lat="43.60472" lon="7.02274">
        <ele>169.39999389648</ele>
        <time>2011-09-01T11:11:25.000Z</time>
      </trkpt>
      <trkpt lat="43.60465" lon="7.02248">
        <ele>170.19999694824</ele>
        <time>2011-09-01T11:11:31.000Z</time>
      </trkpt>
      <trkpt lat="43.60461" lon="7.02235">
        <ele>170.80000305176</ele>
        <time>2011-09-01T11:11:34.000Z</time>
      </trkpt>
      <trkpt lat="43.60451" lon="7.02212">
        <ele>172</ele>
        <time>2011-09-01T11:11:41.000Z</time>
      </trkpt>
      <trkpt lat="43.60442" lon="7.02198">
        <ele>172.60000610352</ele>
        <time>2011-09-01T11:11:46.000Z</time>
      </trkpt>
      <trkpt lat="43.60426" lon="7.02193">
        <ele>172.60000610352</ele>
        <time>2011-09-01T11:11:52.000Z</time>
      </trkpt>
      <trkpt lat="43.60405" lon="7.02193">
        <ele>172.39999389648</ele>
        <time>2011-09-01T11:11:58.000Z</time>
      </trkpt>
      <trkpt lat="43.60397" lon="7.02193">
        <ele>172.39999389648</ele>
        <time>2011-09-01T11:12:00.000Z</time>
      </trkpt>
      <trkpt lat="43.60379" lon="7.02193">
        <ele>172.39999389648</ele>
        <time>2011-09-01T11:12:05.000Z</time>
      </trkpt>
      <trkpt lat="43.60372" lon="7.0219">
        <ele>172.60000610352</ele>
        <time>2011-09-01T11:12:07.000Z</time>
      </trkpt>
      <trkpt lat="43.60354" lon="7.0218">
        <ele>173.19999694824</ele>
        <time>2011-09-01T11:12:13.000Z</time>
      </trkpt>
      <trkpt lat="43.60336" lon="7.02168">
        <ele>173.80000305176</ele>
        <time>2011-09-01T11:12:19.000Z</time>
      </trkpt>
      <trkpt lat="43.6033" lon="7.02165">
        <ele>174.19999694824</ele>
        <time>2011-09-01T11:12:21.000Z</time>
      </trkpt>
      <trkpt lat="43.60316" lon="7.02153">
        <ele>175</ele>
        <time>2011-09-01T11:12:26.000Z</time>
      </trkpt>
      <trkpt lat="43.603" lon="7.02144">
        <ele>175.80000305176</ele>
        <time>2011-09-01T11:12:32.000Z</time>
      </trkpt>
      <trkpt lat="43.60282" lon="7.02144">
        <ele>176.60000610352</ele>
        <time>2011-09-01T11:12:38.000Z</time>
      </trkpt>
      <trkpt lat="43.6027" lon="7.02153">
        <ele>177.39999389648</ele>
        <time>2011-09-01T11:12:42.000Z</time>
      </trkpt>
      <trkpt lat="43.60267" lon="7.02151">
        <ele>177.60000610352</ele>
        <time>2011-09-01T11:12:43.000Z</time>
      </trkpt>
      <trkpt lat="43.60265" lon="7.02144">
        <ele>177.39999389648</ele>
        <time>2011-09-01T11:12:45.000Z</time>
      </trkpt>
      <trkpt lat="43.60264" lon="7.02134">
        <ele>177.19999694824</ele>
        <time>2011-09-01T11:12:47.000Z</time>
      </trkpt>
      <trkpt lat="43.60264" lon="7.02121">
        <ele>176.80000305176</ele>
        <time>2011-09-01T11:12:50.000Z</time>
      </trkpt>
      <trkpt lat="43.60265" lon="7.0211">
        <ele>176.60000610352</ele>
        <time>2011-09-01T11:12:53.000Z</time>
      </trkpt>
      <trkpt lat="43.60263" lon="7.02101">
        <ele>176.39999389648</ele>
        <time>2011-09-01T11:12:55.000Z</time>
      </trkpt>
      <trkpt lat="43.60256" lon="7.02077">
        <ele>176</ele>
        <time>2011-09-01T11:13:00.000Z</time>
      </trkpt>
      <trkpt lat="43.60251" lon="7.02071">
        <ele>176</ele>
        <time>2011-09-01T11:13:02.000Z</time>
      </trkpt>
      <trkpt lat="43.60237" lon="7.02067">
        <ele>178.39999389648</ele>
        <time>2011-09-01T11:13:06.000Z</time>
      </trkpt>
      <trkpt lat="43.60229" lon="7.02062">
        <ele>179.80000305176</ele>
        <time>2011-09-01T11:13:09.000Z</time>
      </trkpt>
      <trkpt lat="43.60227" lon="7.02058">
        <ele>180</ele>
        <time>2011-09-01T11:13:10.000Z</time>
      </trkpt>
      <trkpt lat="43.60221" lon="7.02048">
        <ele>180.60000610352</ele>
        <time>2011-09-01T11:13:13.000Z</time>
      </trkpt>
      <trkpt lat="43.60216" lon="7.02037">
        <ele>181</ele>
        <time>2011-09-01T11:13:16.000Z</time>
      </trkpt>
      <trkpt lat="43.60206" lon="7.02013">
        <ele>181.19999694824</ele>
        <time>2011-09-01T11:13:22.000Z</time>
      </trkpt>
      <trkpt lat="43.60204" lon="7.02009">
        <ele>181.39999389648</ele>
        <time>2011-09-01T11:13:23.000Z</time>
      </trkpt>
      <trkpt lat="43.60193" lon="7.01986">
        <ele>181.60000610352</ele>
        <time>2011-09-01T11:13:29.000Z</time>
      </trkpt>
      <trkpt lat="43.60189" lon="7.01979">
        <ele>181.60000610352</ele>
        <time>2011-09-01T11:13:31.000Z</time>
      </trkpt>
      <trkpt lat="43.6018" lon="7.01956">
        <ele>181.60000610352</ele>
        <time>2011-09-01T11:13:37.000Z</time>
      </trkpt>
      <trkpt lat="43.60178" lon="7.01952">
        <ele>181.60000610352</ele>
        <time>2011-09-01T11:13:38.000Z</time>
      </trkpt>
      <trkpt lat="43.60167" lon="7.01929">
        <ele>181.39999389648</ele>
        <time>2011-09-01T11:13:43.000Z</time>
      </trkpt>
      <trkpt lat="43.60154" lon="7.01909">
        <ele>182.60000610352</ele>
        <time>2011-09-01T11:13:48.000Z</time>
      </trkpt>
      <trkpt lat="43.60151" lon="7.01905">
        <ele>183</ele>
        <time>2011-09-01T11:13:49.000Z</time>
      </trkpt>
      <trkpt lat="43.60136" lon="7.01884">
        <ele>183.60000610352</ele>
        <time>2011-09-01T11:13:54.000Z</time>
      </trkpt>
      <trkpt lat="43.60131" lon="7.01875">
        <ele>183.39999389648</ele>
        <time>2011-09-01T11:13:56.000Z</time>
      </trkpt>
      <trkpt lat="43.60119" lon="7.01856">
        <ele>182.60000610352</ele>
        <time>2011-09-01T11:14:00.000Z</time>
      </trkpt>
      <trkpt lat="43.60106" lon="7.01838">
        <ele>181.19999694824</ele>
        <time>2011-09-01T11:14:04.000Z</time>
      </trkpt>
      <trkpt lat="43.60103" lon="7.01834">
        <ele>180.80000305176</ele>
        <time>2011-09-01T11:14:05.000Z</time>
      </trkpt>
      <trkpt lat="43.60087" lon="7.01812">
        <ele>180.60000610352</ele>
        <time>2011-09-01T11:14:10.000Z</time>
      </trkpt>
      <trkpt lat="43.60075" lon="7.01795">
        <ele>181.19999694824</ele>
        <time>2011-09-01T11:14:14.000Z</time>
      </trkpt>
      <trkpt lat="43.6006" lon="7.01774">
        <ele>182</ele>
        <time>2011-09-01T11:14:19.000Z</time>
      </trkpt>
      <trkpt lat="43.60052" lon="7.01763">
        <ele>182.39999389648</ele>
        <time>2011-09-01T11:14:22.000Z</time>
      </trkpt>
      <trkpt lat="43.6005" lon="7.0176">
        <ele>182.39999389648</ele>
        <time>2011-09-01T11:14:23.000Z</time>
      </trkpt>
      <trkpt lat="43.60045" lon="7.01755">
        <ele>182.80000305176</ele>
        <time>2011-09-01T11:14:26.000Z</time>
      </trkpt>
      <trkpt lat="43.60042" lon="7.01755">
        <ele>183</ele>
        <time>2011-09-01T11:14:27.000Z</time>
      </trkpt>
      <trkpt lat="43.6003" lon="7.01764">
        <ele>184.19999694824</ele>
        <time>2011-09-01T11:14:32.000Z</time>
      </trkpt>
      <trkpt lat="43.60016" lon="7.01775">
        <ele>185.60000610352</ele>
        <time>2011-09-01T11:14:38.000Z</time>
      </trkpt>
      <trkpt lat="43.60003" lon="7.01789">
        <ele>187.19999694824</ele>
        <time>2011-09-01T11:14:44.000Z</time>
      </trkpt>
      <trkpt lat="43.5999" lon="7.01802">
        <ele>188.39999389648</ele>
        <time>2011-09-01T11:14:50.000Z</time>
      </trkpt>
      <trkpt lat="43.59978" lon="7.01816">
        <ele>189.60000610352</ele>
        <time>2011-09-01T11:14:56.000Z</time>
      </trkpt>
      <trkpt lat="43.59967" lon="7.01825">
        <ele>190.60000610352</ele>
        <time>2011-09-01T11:15:01.000Z</time>
      </trkpt>
      <trkpt lat="43.59953" lon="7.01838">
        <ele>192.39999389648</ele>
        <time>2011-09-01T11:15:09.000Z</time>
      </trkpt>
      <trkpt lat="43.59941" lon="7.01852">
        <ele>194.80000305176</ele>
        <time>2011-09-01T11:15:15.000Z</time>
      </trkpt>
      <trkpt lat="43.59924" lon="7.01866">
        <ele>197.19999694824</ele>
        <time>2011-09-01T11:15:23.000Z</time>
      </trkpt>
      <trkpt lat="43.59914" lon="7.01876">
        <ele>198.60000610352</ele>
        <time>2011-09-01T11:15:28.000Z</time>
      </trkpt>
      <trkpt lat="43.59903" lon="7.01888">
        <ele>200</ele>
        <time>2011-09-01T11:15:34.000Z</time>
      </trkpt>
      <trkpt lat="43.59886" lon="7.01904">
        <ele>201.60000610352</ele>
        <time>2011-09-01T11:15:42.000Z</time>
      </trkpt>
      <trkpt lat="43.59884" lon="7.01906">
        <ele>201.80000305176</ele>
        <time>2011-09-01T11:15:43.000Z</time>
      </trkpt>
      <trkpt lat="43.59872" lon="7.01909">
        <ele>201.80000305176</ele>
        <time>2011-09-01T11:15:49.000Z</time>
      </trkpt>
      <trkpt lat="43.59856" lon="7.01917">
        <ele>202.19999694824</ele>
        <time>2011-09-01T11:15:56.000Z</time>
      </trkpt>
      <trkpt lat="43.5985" lon="7.01926">
        <ele>202.60000610352</ele>
        <time>2011-09-01T11:16:00.000Z</time>
      </trkpt>
      <trkpt lat="43.59847" lon="7.01927">
        <ele>202.60000610352</ele>
        <time>2011-09-01T11:16:01.000Z</time>
      </trkpt>
      <trkpt lat="43.59839" lon="7.01918">
        <ele>202</ele>
        <time>2011-09-01T11:16:05.000Z</time>
      </trkpt>
      <trkpt lat="43.5983" lon="7.01901">
        <ele>201.60000610352</ele>
        <time>2011-09-01T11:16:09.000Z</time>
      </trkpt>
      <trkpt lat="43.59823" lon="7.01892">
        <ele>201.60000610352</ele>
        <time>2011-09-01T11:16:11.000Z</time>
      </trkpt>
      <trkpt lat="43.59809" lon="7.01871">
        <ele>201.19999694824</ele>
        <time>2011-09-01T11:16:15.000Z</time>
      </trkpt>
      <trkpt lat="43.59801" lon="7.01856">
        <ele>201</ele>
        <time>2011-09-01T11:16:18.000Z</time>
      </trkpt>
      <trkpt lat="43.59799" lon="7.01851">
        <ele>200.80000305176</ele>
        <time>2011-09-01T11:16:19.000Z</time>
      </trkpt>
      <trkpt lat="43.59793" lon="7.01833">
        <ele>200.39999389648</ele>
        <time>2011-09-01T11:16:22.000Z</time>
      </trkpt>
      <trkpt lat="43.59785" lon="7.01815">
        <ele>200.39999389648</ele>
        <time>2011-09-01T11:16:25.000Z</time>
      </trkpt>
      <trkpt lat="43.59779" lon="7.01809">
        <ele>200.60000610352</ele>
        <time>2011-09-01T11:16:27.000Z</time>
      </trkpt>
      <trkpt lat="43.59767" lon="7.01806">
        <ele>200.80000305176</ele>
        <time>2011-09-01T11:16:32.000Z</time>
      </trkpt>
      <trkpt lat="43.59765" lon="7.01809">
        <ele>200.80000305176</ele>
        <time>2011-09-01T11:16:34.000Z</time>
      </trkpt>
      <trkpt lat="43.59763" lon="7.0181">
        <ele>200.80000305176</ele>
        <time>2011-09-01T11:16:36.000Z</time>
      </trkpt>
      <trkpt lat="43.59761" lon="7.01811">
        <ele>201</ele>
        <time>2011-09-01T11:16:39.000Z</time>
      </trkpt>
      <trkpt lat="43.59757" lon="7.01814">
        <ele>201</ele>
        <time>2011-09-01T11:16:41.000Z</time>
      </trkpt>
      <trkpt lat="43.5975" lon="7.01827">
        <ele>201</ele>
        <time>2011-09-01T11:16:46.000Z</time>
      </trkpt>
      <trkpt lat="43.59738" lon="7.01846">
        <ele>202.39999389648</ele>
        <time>2011-09-01T11:16:54.000Z</time>
      </trkpt>
      <trkpt lat="43.59727" lon="7.01861">
        <ele>203.80000305176</ele>
        <time>2011-09-01T11:17:01.000Z</time>
      </trkpt>
      <trkpt lat="43.59715" lon="7.01879">
        <ele>205.19999694824</ele>
        <time>2011-09-01T11:17:09.000Z</time>
      </trkpt>
      <trkpt lat="43.59707" lon="7.01897">
        <ele>206.19999694824</ele>
        <time>2011-09-01T11:17:16.000Z</time>
      </trkpt>
      <trkpt lat="43.59699" lon="7.01919">
        <ele>206.80000305176</ele>
        <time>2011-09-01T11:17:23.000Z</time>
      </trkpt>
      <trkpt lat="43.59697" lon="7.01923">
        <ele>206.80000305176</ele>
        <time>2011-09-01T11:17:24.000Z</time>
      </trkpt>
      <trkpt lat="43.59687" lon="7.01945">
        <ele>206.60000610352</ele>
        <time>2011-09-01T11:17:30.000Z</time>
      </trkpt>
      <trkpt lat="43.59685" lon="7.01949">
        <ele>206.60000610352</ele>
        <time>2011-09-01T11:17:31.000Z</time>
      </trkpt>
      <trkpt lat="43.59669" lon="7.01967">
        <ele>206.39999389648</ele>
        <time>2011-09-01T11:17:37.000Z</time>
      </trkpt>
      <trkpt lat="43.59654" lon="7.01982">
        <ele>206.80000305176</ele>
        <time>2011-09-01T11:17:42.000Z</time>
      </trkpt>
      <trkpt lat="43.59648" lon="7.01988">
        <ele>206.80000305176</ele>
        <time>2011-09-01T11:17:44.000Z</time>
      </trkpt>
      <trkpt lat="43.59631" lon="7.02005">
        <ele>207.19999694824</ele>
        <time>2011-09-01T11:17:49.000Z</time>
      </trkpt>
      <trkpt lat="43.59614" lon="7.02021">
        <ele>208.39999389648</ele>
        <time>2011-09-01T11:17:55.000Z</time>
      </trkpt>
      <trkpt lat="43.59597" lon="7.02034">
        <ele>209.39999389648</ele>
        <time>2011-09-01T11:18:01.000Z</time>
      </trkpt>
      <trkpt lat="43.59593" lon="7.02036">
        <ele>209.39999389648</ele>
        <time>2011-09-01T11:18:02.000Z</time>
      </trkpt>
      <trkpt lat="43.59574" lon="7.02042">
        <ele>210.60000610352</ele>
        <time>2011-09-01T11:18:07.000Z</time>
      </trkpt>
      <trkpt lat="43.5957" lon="7.02044">
        <ele>210.80000305176</ele>
        <time>2011-09-01T11:18:08.000Z</time>
      </trkpt>
      <trkpt lat="43.59554" lon="7.02055">
        <ele>212</ele>
        <time>2011-09-01T11:18:13.000Z</time>
      </trkpt>
      <trkpt lat="43.59536" lon="7.02066">
        <ele>213</ele>
        <time>2011-09-01T11:18:19.000Z</time>
      </trkpt>
      <trkpt lat="43.5952" lon="7.02076">
        <ele>213.80000305176</ele>
        <time>2011-09-01T11:18:24.000Z</time>
      </trkpt>
      <trkpt lat="43.59501" lon="7.02082">
        <ele>214.80000305176</ele>
        <time>2011-09-01T11:18:30.000Z</time>
      </trkpt>
      <trkpt lat="43.59498" lon="7.02084">
        <ele>215</ele>
        <time>2011-09-01T11:18:31.000Z</time>
      </trkpt>
      <trkpt lat="43.59484" lon="7.02099">
        <ele>216.19999694824</ele>
        <time>2011-09-01T11:18:37.000Z</time>
      </trkpt>
      <trkpt lat="43.59483" lon="7.02117">
        <ele>216.39999389648</ele>
        <time>2011-09-01T11:18:42.000Z</time>
      </trkpt>
      <trkpt lat="43.59492" lon="7.02137">
        <ele>216.39999389648</ele>
        <time>2011-09-01T11:18:48.000Z</time>
      </trkpt>
      <trkpt lat="43.59502" lon="7.02161">
        <ele>216.80000305176</ele>
        <time>2011-09-01T11:18:54.000Z</time>
      </trkpt>
      <trkpt lat="43.59512" lon="7.02182">
        <ele>217.60000610352</ele>
        <time>2011-09-01T11:18:59.000Z</time>
      </trkpt>
      <trkpt lat="43.59519" lon="7.02182">
        <ele>217.60000610352</ele>
        <time>2011-09-01T11:19:02.000Z</time>
      </trkpt>
      <trkpt lat="43.59522" lon="7.02181">
        <ele>217.60000610352</ele>
        <time>2011-09-01T11:19:03.000Z</time>
      </trkpt>
      <trkpt lat="43.59533" lon="7.02184">
        <ele>218</ele>
        <time>2011-09-01T11:19:07.000Z</time>
      </trkpt>
      <trkpt lat="43.59537" lon="7.02185">
        <ele>218</ele>
        <time>2011-09-01T11:19:12.000Z</time>
      </trkpt>
      <trkpt lat="43.5954" lon="7.02186">
        <ele>218</ele>
        <time>2011-09-01T11:19:27.000Z</time>
      </trkpt>
      <trkpt lat="43.59546" lon="7.0219">
        <ele>218.19999694824</ele>
        <time>2011-09-01T11:19:38.000Z</time>
      </trkpt>
      <trkpt lat="43.59546" lon="7.02191">
        <ele>218.39999389648</ele>
        <time>2011-09-01T11:19:39.000Z</time>
      </trkpt>
      <trkpt lat="43.59547" lon="7.02199">
        <ele>218.60000610352</ele>
        <time>2011-09-01T11:19:43.000Z</time>
      </trkpt>
      <trkpt lat="43.59546" lon="7.0221">
        <ele>219</ele>
        <time>2011-09-01T11:19:49.000Z</time>
      </trkpt>
      <trkpt lat="43.59544" lon="7.02224">
        <ele>219.60000610352</ele>
        <time>2011-09-01T11:19:55.000Z</time>
      </trkpt>
      <trkpt lat="43.59551" lon="7.02235">
        <ele>220</ele>
        <time>2011-09-01T11:20:00.000Z</time>
      </trkpt>
      <trkpt lat="43.59561" lon="7.02241">
        <ele>220.39999389648</ele>
        <time>2011-09-01T11:20:05.000Z</time>
      </trkpt>
      <trkpt lat="43.59576" lon="7.02249">
        <ele>220.80000305176</ele>
        <time>2011-09-01T11:20:10.000Z</time>
      </trkpt>
      <trkpt lat="43.59593" lon="7.02258">
        <ele>220.60000610352</ele>
        <time>2011-09-01T11:20:16.000Z</time>
      </trkpt>
      <trkpt lat="43.59611" lon="7.02268">
        <ele>220.80000305176</ele>
        <time>2011-09-01T11:20:23.000Z</time>
      </trkpt>
      <trkpt lat="43.59614" lon="7.02269">
        <ele>220.80000305176</ele>
        <time>2011-09-01T11:20:24.000Z</time>
      </trkpt>
      <trkpt lat="43.59627" lon="7.02276">
        <ele>221</ele>
        <time>2011-09-01T11:20:29.000Z</time>
      </trkpt>
      <trkpt lat="43.59645" lon="7.02283">
        <ele>221.39999389648</ele>
        <time>2011-09-01T11:20:35.000Z</time>
      </trkpt>
      <trkpt lat="43.59659" lon="7.02279">
        <ele>222</ele>
        <time>2011-09-01T11:20:39.000Z</time>
      </trkpt>
      <trkpt lat="43.59678" lon="7.02267">
        <ele>223.19999694824</ele>
        <time>2011-09-01T11:20:44.000Z</time>
      </trkpt>
      <trkpt lat="43.59681" lon="7.02268">
        <ele>223.39999389648</ele>
        <time>2011-09-01T11:20:45.000Z</time>
      </trkpt>
      <trkpt lat="43.59695" lon="7.0227">
        <ele>224.19999694824</ele>
        <time>2011-09-01T11:20:50.000Z</time>
      </trkpt>
      <trkpt lat="43.59711" lon="7.02272">
        <ele>225.19999694824</ele>
        <time>2011-09-01T11:20:56.000Z</time>
      </trkpt>
      <trkpt lat="43.59728" lon="7.02275">
        <ele>226.39999389648</ele>
        <time>2011-09-01T11:21:03.000Z</time>
      </trkpt>
      <trkpt lat="43.59744" lon="7.02281">
        <ele>227.60000610352</ele>
        <time>2011-09-01T11:21:11.000Z</time>
      </trkpt>
      <trkpt lat="43.59757" lon="7.02285">
        <ele>228.39999389648</ele>
        <time>2011-09-01T11:21:18.000Z</time>
      </trkpt>
      <trkpt lat="43.59762" lon="7.02285">
        <ele>228.60000610352</ele>
        <time>2011-09-01T11:21:21.000Z</time>
      </trkpt>
      <trkpt lat="43.59768" lon="7.02283">
        <ele>228.80000305176</ele>
        <time>2011-09-01T11:21:24.000Z</time>
      </trkpt>
      <trkpt lat="43.5977" lon="7.02283">
        <ele>228.80000305176</ele>
        <time>2011-09-01T11:21:25.000Z</time>
      </trkpt>
      <trkpt lat="43.59779" lon="7.02284">
        <ele>229.19999694824</ele>
        <time>2011-09-01T11:21:30.000Z</time>
      </trkpt>
      <trkpt lat="43.59791" lon="7.0229">
        <ele>229.60000610352</ele>
        <time>2011-09-01T11:21:35.000Z</time>
      </trkpt>
      <trkpt lat="43.5981" lon="7.02297">
        <ele>230.19999694824</ele>
        <time>2011-09-01T11:21:40.000Z</time>
      </trkpt>
      <trkpt lat="43.59831" lon="7.02295">
        <ele>230.80000305176</ele>
        <time>2011-09-01T11:21:45.000Z</time>
      </trkpt>
      <trkpt lat="43.59849" lon="7.02288">
        <ele>230.60000610352</ele>
        <time>2011-09-01T11:21:48.000Z</time>
      </trkpt>
      <trkpt lat="43.59859" lon="7.02285">
        <ele>230.39999389648</ele>
        <time>2011-09-01T11:21:50.000Z</time>
      </trkpt>
      <trkpt lat="43.59879" lon="7.02288">
        <ele>229.80000305176</ele>
        <time>2011-09-01T11:21:54.000Z</time>
      </trkpt>
      <trkpt lat="43.59884" lon="7.02289">
        <ele>229.60000610352</ele>
        <time>2011-09-01T11:21:55.000Z</time>
      </trkpt>
      <trkpt lat="43.59896" lon="7.02291">
        <ele>229</ele>
        <time>2011-09-01T11:21:58.000Z</time>
      </trkpt>
      <trkpt lat="43.59909" lon="7.02292">
        <ele>228.60000610352</ele>
        <time>2011-09-01T11:22:01.000Z</time>
      </trkpt>
      <trkpt lat="43.59924" lon="7.02294">
        <ele>228.19999694824</ele>
        <time>2011-09-01T11:22:06.000Z</time>
      </trkpt>
      <trkpt lat="43.59926" lon="7.02295">
        <ele>228.19999694824</ele>
        <time>2011-09-01T11:22:07.000Z</time>
      </trkpt>
      <trkpt lat="43.59949" lon="7.02294">
        <ele>228.19999694824</ele>
        <time>2011-09-01T11:22:13.000Z</time>
      </trkpt>
      <trkpt lat="43.59969" lon="7.02293">
        <ele>228.39999389648</ele>
        <time>2011-09-01T11:22:17.000Z</time>
      </trkpt>
      <trkpt lat="43.59991" lon="7.02292">
        <ele>228.39999389648</ele>
        <time>2011-09-01T11:22:21.000Z</time>
      </trkpt>
      <trkpt lat="43.59998" lon="7.02293">
        <ele>228.39999389648</ele>
        <time>2011-09-01T11:22:22.000Z</time>
      </trkpt>
      <trkpt lat="43.60015" lon="7.02295">
        <ele>227.80000305176</ele>
        <time>2011-09-01T11:22:25.000Z</time>
      </trkpt>
      <trkpt lat="43.60024" lon="7.02299">
        <ele>227.39999389648</ele>
        <time>2011-09-01T11:22:27.000Z</time>
      </trkpt>
      <trkpt lat="43.60043" lon="7.0231">
        <ele>226.80000305176</ele>
        <time>2011-09-01T11:22:31.000Z</time>
      </trkpt>
      <trkpt lat="43.60051" lon="7.02316">
        <ele>226.60000610352</ele>
        <time>2011-09-01T11:22:33.000Z</time>
      </trkpt>
      <trkpt lat="43.60055" lon="7.02318">
        <ele>226.60000610352</ele>
        <time>2011-09-01T11:22:34.000Z</time>
      </trkpt>
      <trkpt lat="43.60063" lon="7.02321">
        <ele>226.60000610352</ele>
        <time>2011-09-01T11:22:36.000Z</time>
      </trkpt>
      <trkpt lat="43.60066" lon="7.0232">
        <ele>226.60000610352</ele>
        <time>2011-09-01T11:22:37.000Z</time>
      </trkpt>
      <trkpt lat="43.60073" lon="7.02301">
        <ele>226.39999389648</ele>
        <time>2011-09-01T11:22:41.000Z</time>
      </trkpt>
      <trkpt lat="43.60072" lon="7.02294">
        <ele>226.19999694824</ele>
        <time>2011-09-01T11:22:42.000Z</time>
      </trkpt>
      <trkpt lat="43.6007" lon="7.02284">
        <ele>226.19999694824</ele>
        <time>2011-09-01T11:22:44.000Z</time>
      </trkpt>
      <trkpt lat="43.60068" lon="7.02279">
        <ele>226.19999694824</ele>
        <time>2011-09-01T11:22:45.000Z</time>
      </trkpt>
      <trkpt lat="43.60063" lon="7.02255">
        <ele>226.39999389648</ele>
        <time>2011-09-01T11:22:50.000Z</time>
      </trkpt>
      <trkpt lat="43.60061" lon="7.02249">
        <ele>226.39999389648</ele>
        <time>2011-09-01T11:22:51.000Z</time>
      </trkpt>
      <trkpt lat="43.60058" lon="7.02234">
        <ele>226.39999389648</ele>
        <time>2011-09-01T11:22:55.000Z</time>
      </trkpt>
      <trkpt lat="43.60058" lon="7.02238">
        <ele>226.60000610352</ele>
        <time>2011-09-01T11:22:59.000Z</time>
      </trkpt>
      <trkpt lat="43.60068" lon="7.0224">
        <ele>225.60000610352</ele>
        <time>2011-09-01T11:23:03.000Z</time>
      </trkpt>
      <trkpt lat="43.60073" lon="7.02242">
        <ele>225.39999389648</ele>
        <time>2011-09-01T11:23:05.000Z</time>
      </trkpt>
      <trkpt lat="43.60083" lon="7.02239">
        <ele>224.39999389648</ele>
        <time>2011-09-01T11:23:08.000Z</time>
      </trkpt>
      <trkpt lat="43.60089" lon="7.02242">
        <ele>223</ele>
        <time>2011-09-01T11:23:10.000Z</time>
      </trkpt>
      <trkpt lat="43.60094" lon="7.02251">
        <ele>222.39999389648</ele>
        <time>2011-09-01T11:23:12.000Z</time>
      </trkpt>
      <trkpt lat="43.60104" lon="7.02272">
        <ele>220.39999389648</ele>
        <time>2011-09-01T11:23:16.000Z</time>
      </trkpt>
      <trkpt lat="43.60122" lon="7.02295">
        <ele>216.80000305176</ele>
        <time>2011-09-01T11:23:20.000Z</time>
      </trkpt>
      <trkpt lat="43.60137" lon="7.02314">
        <ele>213.80000305176</ele>
        <time>2011-09-01T11:23:23.000Z</time>
      </trkpt>
      <trkpt lat="43.60147" lon="7.02325">
        <ele>212</ele>
        <time>2011-09-01T11:23:25.000Z</time>
      </trkpt>
      <trkpt lat="43.60161" lon="7.02346">
        <ele>209.60000610352</ele>
        <time>2011-09-01T11:23:28.000Z</time>
      </trkpt>
      <trkpt lat="43.60168" lon="7.02362">
        <ele>208.60000610352</ele>
        <time>2011-09-01T11:23:30.000Z</time>
      </trkpt>
      <trkpt lat="43.6017" lon="7.02371">
        <ele>208.39999389648</ele>
        <time>2011-09-01T11:23:31.000Z</time>
      </trkpt>
      <trkpt lat="43.60172" lon="7.0239">
        <ele>208.60000610352</ele>
        <time>2011-09-01T11:23:33.000Z</time>
      </trkpt>
      <trkpt lat="43.60173" lon="7.02398">
        <ele>208.60000610352</ele>
        <time>2011-09-01T11:23:34.000Z</time>
      </trkpt>
      <trkpt lat="43.60172" lon="7.02424">
        <ele>209</ele>
        <time>2011-09-01T11:23:37.000Z</time>
      </trkpt>
      <trkpt lat="43.60172" lon="7.02432">
        <ele>208.60000610352</ele>
        <time>2011-09-01T11:23:38.000Z</time>
      </trkpt>
      <trkpt lat="43.60171" lon="7.02458">
        <ele>207.19999694824</ele>
        <time>2011-09-01T11:23:41.000Z</time>
      </trkpt>
      <trkpt lat="43.60168" lon="7.02482">
        <ele>206.80000305176</ele>
        <time>2011-09-01T11:23:44.000Z</time>
      </trkpt>
      <trkpt lat="43.60166" lon="7.02489">
        <ele>206.60000610352</ele>
        <time>2011-09-01T11:23:45.000Z</time>
      </trkpt>
      <trkpt lat="43.60155" lon="7.0251">
        <ele>204.80000305176</ele>
        <time>2011-09-01T11:23:48.000Z</time>
      </trkpt>
      <trkpt lat="43.60142" lon="7.02532">
        <ele>202</ele>
        <time>2011-09-01T11:23:51.000Z</time>
      </trkpt>
      <trkpt lat="43.60134" lon="7.02544">
        <ele>200.39999389648</ele>
        <time>2011-09-01T11:23:53.000Z</time>
      </trkpt>
      <trkpt lat="43.6012" lon="7.02563">
        <ele>198</ele>
        <time>2011-09-01T11:23:56.000Z</time>
      </trkpt>
      <trkpt lat="43.60104" lon="7.02579">
        <ele>196.19999694824</ele>
        <time>2011-09-01T11:23:59.000Z</time>
      </trkpt>
      <trkpt lat="43.60084" lon="7.02586">
        <ele>196.39999389648</ele>
        <time>2011-09-01T11:24:02.000Z</time>
      </trkpt>
      <trkpt lat="43.60078" lon="7.02586">
        <ele>196.19999694824</ele>
        <time>2011-09-01T11:24:03.000Z</time>
      </trkpt>
      <trkpt lat="43.60059" lon="7.02585">
        <ele>195</ele>
        <time>2011-09-01T11:24:06.000Z</time>
      </trkpt>
      <trkpt lat="43.60053" lon="7.02583">
        <ele>194.80000305176</ele>
        <time>2011-09-01T11:24:07.000Z</time>
      </trkpt>
      <trkpt lat="43.60035" lon="7.02567">
        <ele>195.39999389648</ele>
        <time>2011-09-01T11:24:11.000Z</time>
      </trkpt>
      <trkpt lat="43.60027" lon="7.02556">
        <ele>196</ele>
        <time>2011-09-01T11:24:13.000Z</time>
      </trkpt>
      <trkpt lat="43.60022" lon="7.02552">
        <ele>196</ele>
        <time>2011-09-01T11:24:14.000Z</time>
      </trkpt>
      <trkpt lat="43.60013" lon="7.02541">
        <ele>196</ele>
        <time>2011-09-01T11:24:16.000Z</time>
      </trkpt>
      <trkpt lat="43.60005" lon="7.02529">
        <ele>196.19999694824</ele>
        <time>2011-09-01T11:24:18.000Z</time>
      </trkpt>
      <trkpt lat="43.5999" lon="7.02507">
        <ele>198.39999389648</ele>
        <time>2011-09-01T11:24:22.000Z</time>
      </trkpt>
      <trkpt lat="43.59974" lon="7.02491">
        <ele>201.60000610352</ele>
        <time>2011-09-01T11:24:26.000Z</time>
      </trkpt>
      <trkpt lat="43.59971" lon="7.02488">
        <ele>202.19999694824</ele>
        <time>2011-09-01T11:24:27.000Z</time>
      </trkpt>
      <trkpt lat="43.59964" lon="7.0249">
        <ele>202.60000610352</ele>
        <time>2011-09-01T11:24:30.000Z</time>
      </trkpt>
      <trkpt lat="43.59964" lon="7.02496">
        <ele>201.80000305176</ele>
        <time>2011-09-01T11:24:31.000Z</time>
      </trkpt>
      <trkpt lat="43.59968" lon="7.02523">
        <ele>200.19999694824</ele>
        <time>2011-09-01T11:24:34.000Z</time>
      </trkpt>
      <trkpt lat="43.59971" lon="7.0254">
        <ele>199.19999694824</ele>
        <time>2011-09-01T11:24:36.000Z</time>
      </trkpt>
      <trkpt lat="43.59973" lon="7.02555">
        <ele>198.19999694824</ele>
        <time>2011-09-01T11:24:38.000Z</time>
      </trkpt>
      <trkpt lat="43.59972" lon="7.02563">
        <ele>198.19999694824</ele>
        <time>2011-09-01T11:24:39.000Z</time>
      </trkpt>
      <trkpt lat="43.59963" lon="7.0259">
        <ele>198.80000305176</ele>
        <time>2011-09-01T11:24:42.000Z</time>
      </trkpt>
      <trkpt lat="43.59962" lon="7.02599">
        <ele>198.39999389648</ele>
        <time>2011-09-01T11:24:43.000Z</time>
      </trkpt>
      <trkpt lat="43.59959" lon="7.02625">
        <ele>197</ele>
        <time>2011-09-01T11:24:46.000Z</time>
      </trkpt>
      <trkpt lat="43.59956" lon="7.02633">
        <ele>197</ele>
        <time>2011-09-01T11:24:47.000Z</time>
      </trkpt>
      <trkpt lat="43.59953" lon="7.02648">
        <ele>196.60000610352</ele>
        <time>2011-09-01T11:24:49.000Z</time>
      </trkpt>
      <trkpt lat="43.59953" lon="7.02655">
        <ele>196</ele>
        <time>2011-09-01T11:24:50.000Z</time>
      </trkpt>
      <trkpt lat="43.59948" lon="7.02683">
        <ele>194.80000305176</ele>
        <time>2011-09-01T11:24:54.000Z</time>
      </trkpt>
      <trkpt lat="43.59942" lon="7.0271">
        <ele>193.80000305176</ele>
        <time>2011-09-01T11:24:58.000Z</time>
      </trkpt>
      <trkpt lat="43.59941" lon="7.02715">
        <ele>193.39999389648</ele>
        <time>2011-09-01T11:24:59.000Z</time>
      </trkpt>
      <trkpt lat="43.59938" lon="7.02741">
        <ele>191.60000610352</ele>
        <time>2011-09-01T11:25:03.000Z</time>
      </trkpt>
      <trkpt lat="43.59936" lon="7.02748">
        <ele>191.39999389648</ele>
        <time>2011-09-01T11:25:04.000Z</time>
      </trkpt>
      <trkpt lat="43.59933" lon="7.02753">
        <ele>191.39999389648</ele>
        <time>2011-09-01T11:25:05.000Z</time>
      </trkpt>
      <trkpt lat="43.59916" lon="7.02772">
        <ele>191.19999694824</ele>
        <time>2011-09-01T11:25:09.000Z</time>
      </trkpt>
      <trkpt lat="43.59898" lon="7.02786">
        <ele>189.39999389648</ele>
        <time>2011-09-01T11:25:13.000Z</time>
      </trkpt>
      <trkpt lat="43.59893" lon="7.0279">
        <ele>189</ele>
        <time>2011-09-01T11:25:14.000Z</time>
      </trkpt>
      <trkpt lat="43.59874" lon="7.02801">
        <ele>187.80000305176</ele>
        <time>2011-09-01T11:25:18.000Z</time>
      </trkpt>
      <trkpt lat="43.59869" lon="7.02801">
        <ele>187.80000305176</ele>
        <time>2011-09-01T11:25:19.000Z</time>
      </trkpt>
      <trkpt lat="43.59847" lon="7.028">
        <ele>188.80000305176</ele>
        <time>2011-09-01T11:25:23.000Z</time>
      </trkpt>
      <trkpt lat="43.59836" lon="7.02798">
        <ele>189.39999389648</ele>
        <time>2011-09-01T11:25:25.000Z</time>
      </trkpt>
      <trkpt lat="43.59814" lon="7.02793">
        <ele>191.80000305176</ele>
        <time>2011-09-01T11:25:29.000Z</time>
      </trkpt>
      <trkpt lat="43.5981" lon="7.02792">
        <ele>192.19999694824</ele>
        <time>2011-09-01T11:25:30.000Z</time>
      </trkpt>
      <trkpt lat="43.59805" lon="7.02793">
        <ele>192.39999389648</ele>
        <time>2011-09-01T11:25:31.000Z</time>
      </trkpt>
      <trkpt lat="43.59796" lon="7.02807">
        <ele>192</ele>
        <time>2011-09-01T11:25:34.000Z</time>
      </trkpt>
      <trkpt lat="43.59794" lon="7.02831">
        <ele>190.19999694824</ele>
        <time>2011-09-01T11:25:37.000Z</time>
      </trkpt>
      <trkpt lat="43.59796" lon="7.02847">
        <ele>188.60000610352</ele>
        <time>2011-09-01T11:25:39.000Z</time>
      </trkpt>
      <trkpt lat="43.59799" lon="7.02879">
        <ele>185.60000610352</ele>
        <time>2011-09-01T11:25:43.000Z</time>
      </trkpt>
      <trkpt lat="43.59799" lon="7.02907">
        <ele>183.39999389648</ele>
        <time>2011-09-01T11:25:47.000Z</time>
      </trkpt>
      <trkpt lat="43.59799" lon="7.02912">
        <ele>183</ele>
        <time>2011-09-01T11:25:48.000Z</time>
      </trkpt>
      <trkpt lat="43.59795" lon="7.02938">
        <ele>182.60000610352</ele>
        <time>2011-09-01T11:25:52.000Z</time>
      </trkpt>
      <trkpt lat="43.59794" lon="7.02945">
        <ele>182.60000610352</ele>
        <time>2011-09-01T11:25:53.000Z</time>
      </trkpt>
      <trkpt lat="43.59787" lon="7.02974">
        <ele>182.60000610352</ele>
        <time>2011-09-01T11:25:57.000Z</time>
      </trkpt>
      <trkpt lat="43.59783" lon="7.02988">
        <ele>182.60000610352</ele>
        <time>2011-09-01T11:25:59.000Z</time>
      </trkpt>
      <trkpt lat="43.59783" lon="7.02995">
        <ele>182.39999389648</ele>
        <time>2011-09-01T11:26:00.000Z</time>
      </trkpt>
      <trkpt lat="43.59783" lon="7.03017">
        <ele>182.39999389648</ele>
        <time>2011-09-01T11:26:03.000Z</time>
      </trkpt>
      <trkpt lat="43.59793" lon="7.03042">
        <ele>181.80000305176</ele>
        <time>2011-09-01T11:26:07.000Z</time>
      </trkpt>
      <trkpt lat="43.59796" lon="7.03048">
        <ele>181.60000610352</ele>
        <time>2011-09-01T11:26:08.000Z</time>
      </trkpt>
      <trkpt lat="43.59798" lon="7.03054">
        <ele>181.60000610352</ele>
        <time>2011-09-01T11:26:09.000Z</time>
      </trkpt>
      <trkpt lat="43.59807" lon="7.03075">
        <ele>181.39999389648</ele>
        <time>2011-09-01T11:26:13.000Z</time>
      </trkpt>
      <trkpt lat="43.59807" lon="7.03088">
        <ele>182</ele>
        <time>2011-09-01T11:26:16.000Z</time>
      </trkpt>
      <trkpt lat="43.59807" lon="7.03092">
        <ele>182.19999694824</ele>
        <time>2011-09-01T11:26:17.000Z</time>
      </trkpt>
      <trkpt lat="43.59803" lon="7.03102">
        <ele>183</ele>
        <time>2011-09-01T11:26:21.000Z</time>
      </trkpt>
      <trkpt lat="43.59795" lon="7.03114">
        <ele>184.19999694824</ele>
        <time>2011-09-01T11:26:27.000Z</time>
      </trkpt>
      <trkpt lat="43.59787" lon="7.03128">
        <ele>185.19999694824</ele>
        <time>2011-09-01T11:26:33.000Z</time>
      </trkpt>
      <trkpt lat="43.5978" lon="7.03144">
        <ele>186.39999389648</ele>
        <time>2011-09-01T11:26:39.000Z</time>
      </trkpt>
      <trkpt lat="43.59777" lon="7.03164">
        <ele>187.60000610352</ele>
        <time>2011-09-01T11:26:46.000Z</time>
      </trkpt>
      <trkpt lat="43.59771" lon="7.03178">
        <ele>188.19999694824</ele>
        <time>2011-09-01T11:26:51.000Z</time>
      </trkpt>
      <trkpt lat="43.59764" lon="7.03196">
        <ele>189.39999389648</ele>
        <time>2011-09-01T11:26:58.000Z</time>
      </trkpt>
      <trkpt lat="43.59758" lon="7.03212">
        <ele>190.39999389648</ele>
        <time>2011-09-01T11:27:03.000Z</time>
      </trkpt>
      <trkpt lat="43.59758" lon="7.03228">
        <ele>191.19999694824</ele>
        <time>2011-09-01T11:27:08.000Z</time>
      </trkpt>
      <trkpt lat="43.5976" lon="7.03256">
        <ele>192</ele>
        <time>2011-09-01T11:27:15.000Z</time>
      </trkpt>
      <trkpt lat="43.59761" lon="7.0326">
        <ele>192.19999694824</ele>
        <time>2011-09-01T11:27:16.000Z</time>
      </trkpt>
      <trkpt lat="43.59763" lon="7.03281">
        <ele>192.39999389648</ele>
        <time>2011-09-01T11:27:20.000Z</time>
      </trkpt>
      <trkpt lat="43.59768" lon="7.03305">
        <ele>192.39999389648</ele>
        <time>2011-09-01T11:27:24.000Z</time>
      </trkpt>
      <trkpt lat="43.59778" lon="7.03321">
        <ele>191.60000610352</ele>
        <time>2011-09-01T11:27:29.000Z</time>
      </trkpt>
      <trkpt lat="43.59787" lon="7.03328">
        <ele>190.80000305176</ele>
        <time>2011-09-01T11:27:31.000Z</time>
      </trkpt>
      <trkpt lat="43.59795" lon="7.03335">
        <ele>190</ele>
        <time>2011-09-01T11:27:33.000Z</time>
      </trkpt>
      <trkpt lat="43.59799" lon="7.03339">
        <ele>189.80000305176</ele>
        <time>2011-09-01T11:27:34.000Z</time>
      </trkpt>
      <trkpt lat="43.59814" lon="7.0335">
        <ele>188.60000610352</ele>
        <time>2011-09-01T11:27:37.000Z</time>
      </trkpt>
      <trkpt lat="43.59818" lon="7.03355">
        <ele>188.39999389648</ele>
        <time>2011-09-01T11:27:38.000Z</time>
      </trkpt>
      <trkpt lat="43.59821" lon="7.0336">
        <ele>188.19999694824</ele>
        <time>2011-09-01T11:27:39.000Z</time>
      </trkpt>
      <trkpt lat="43.59831" lon="7.03374">
        <ele>187.60000610352</ele>
        <time>2011-09-01T11:27:42.000Z</time>
      </trkpt>
      <trkpt lat="43.59834" lon="7.03379">
        <ele>187.60000610352</ele>
        <time>2011-09-01T11:27:43.000Z</time>
      </trkpt>
      <trkpt lat="43.59839" lon="7.03396">
        <ele>188.39999389648</ele>
        <time>2011-09-01T11:27:46.000Z</time>
      </trkpt>
      <trkpt lat="43.59842" lon="7.03406">
        <ele>189</ele>
        <time>2011-09-01T11:27:48.000Z</time>
      </trkpt>
      <trkpt lat="43.59845" lon="7.03417">
        <ele>189.60000610352</ele>
        <time>2011-09-01T11:27:51.000Z</time>
      </trkpt>
      <trkpt lat="43.59845" lon="7.03422">
        <ele>189.80000305176</ele>
        <time>2011-09-01T11:27:52.000Z</time>
      </trkpt>
      <trkpt lat="43.59847" lon="7.03433">
        <ele>190.60000610352</ele>
        <time>2011-09-01T11:27:55.000Z</time>
      </trkpt>
      <trkpt lat="43.59845" lon="7.0344">
        <ele>190.80000305176</ele>
        <time>2011-09-01T11:27:57.000Z</time>
      </trkpt>
      <trkpt lat="43.59846" lon="7.03444">
        <ele>191.19999694824</ele>
        <time>2011-09-01T11:27:58.000Z</time>
      </trkpt>
      <trkpt lat="43.59845" lon="7.03455">
        <ele>191.80000305176</ele>
        <time>2011-09-01T11:28:02.000Z</time>
      </trkpt>
      <trkpt lat="43.59845" lon="7.03458">
        <ele>192</ele>
        <time>2011-09-01T11:28:03.000Z</time>
      </trkpt>
      <trkpt lat="43.59837" lon="7.03479">
        <ele>192.80000305176</ele>
        <time>2011-09-01T11:28:09.000Z</time>
      </trkpt>
      <trkpt lat="43.59828" lon="7.03505">
        <ele>194.60000610352</ele>
        <time>2011-09-01T11:28:15.000Z</time>
      </trkpt>
      <trkpt lat="43.59821" lon="7.03529">
        <ele>196.80000305176</ele>
        <time>2011-09-01T11:28:21.000Z</time>
      </trkpt>
      <trkpt lat="43.59819" lon="7.03533">
        <ele>197.19999694824</ele>
        <time>2011-09-01T11:28:22.000Z</time>
      </trkpt>
      <trkpt lat="43.59814" lon="7.03557">
        <ele>199.19999694824</ele>
        <time>2011-09-01T11:28:28.000Z</time>
      </trkpt>
      <trkpt lat="43.59812" lon="7.03561">
        <ele>199.60000610352</ele>
        <time>2011-09-01T11:28:29.000Z</time>
      </trkpt>
      <trkpt lat="43.59805" lon="7.03583">
        <ele>201.60000610352</ele>
        <time>2011-09-01T11:28:35.000Z</time>
      </trkpt>
      <trkpt lat="43.59796" lon="7.03604">
        <ele>202.60000610352</ele>
        <time>2011-09-01T11:28:41.000Z</time>
      </trkpt>
      <trkpt lat="43.59788" lon="7.03621">
        <ele>203.19999694824</ele>
        <time>2011-09-01T11:28:47.000Z</time>
      </trkpt>
      <trkpt lat="43.59782" lon="7.03636">
        <ele>203.60000610352</ele>
        <time>2011-09-01T11:28:53.000Z</time>
      </trkpt>
      <trkpt lat="43.59774" lon="7.0365">
        <ele>203.80000305176</ele>
        <time>2011-09-01T11:28:59.000Z</time>
      </trkpt>
      <trkpt lat="43.59768" lon="7.03663">
        <ele>203.80000305176</ele>
        <time>2011-09-01T11:29:04.000Z</time>
      </trkpt>
      <trkpt lat="43.59767" lon="7.03667">
        <ele>203.80000305176</ele>
        <time>2011-09-01T11:29:06.000Z</time>
      </trkpt>
      <trkpt lat="43.59774" lon="7.03674">
        <ele>203.19999694824</ele>
        <time>2011-09-01T11:29:11.000Z</time>
      </trkpt>
      <trkpt lat="43.59783" lon="7.03679">
        <ele>203</ele>
        <time>2011-09-01T11:29:17.000Z</time>
      </trkpt>
      <trkpt lat="43.59792" lon="7.03684">
        <ele>202.80000305176</ele>
        <time>2011-09-01T11:29:22.000Z</time>
      </trkpt>
      <trkpt lat="43.598" lon="7.03685">
        <ele>202.80000305176</ele>
        <time>2011-09-01T11:29:27.000Z</time>
      </trkpt>
      <trkpt lat="43.59817" lon="7.03682">
        <ele>203.19999694824</ele>
        <time>2011-09-01T11:29:34.000Z</time>
      </trkpt>
      <trkpt lat="43.59832" lon="7.03685">
        <ele>203.39999389648</ele>
        <time>2011-09-01T11:29:40.000Z</time>
      </trkpt>
      <trkpt lat="43.59846" lon="7.03688">
        <ele>203.60000610352</ele>
        <time>2011-09-01T11:29:46.000Z</time>
      </trkpt>
      <trkpt lat="43.59851" lon="7.03686">
        <ele>203.80000305176</ele>
        <time>2011-09-01T11:29:48.000Z</time>
      </trkpt>
      <trkpt lat="43.5986" lon="7.03683">
        <ele>204</ele>
        <time>2011-09-01T11:29:51.000Z</time>
      </trkpt>
      <trkpt lat="43.5988" lon="7.03671">
        <ele>204.39999389648</ele>
        <time>2011-09-01T11:29:56.000Z</time>
      </trkpt>
      <trkpt lat="43.59885" lon="7.03669">
        <ele>204.60000610352</ele>
        <time>2011-09-01T11:29:57.000Z</time>
      </trkpt>
      <trkpt lat="43.59897" lon="7.03661">
        <ele>204.39999389648</ele>
        <time>2011-09-01T11:30:00.000Z</time>
      </trkpt>
      <trkpt lat="43.59902" lon="7.0366">
        <ele>204.39999389648</ele>
        <time>2011-09-01T11:30:01.000Z</time>
      </trkpt>
      <trkpt lat="43.59918" lon="7.03663">
        <ele>204.80000305176</ele>
        <time>2011-09-01T11:30:05.000Z</time>
      </trkpt>
      <trkpt lat="43.59926" lon="7.03669">
        <ele>205</ele>
        <time>2011-09-01T11:30:08.000Z</time>
      </trkpt>
      <trkpt lat="43.59931" lon="7.03673">
        <ele>205.19999694824</ele>
        <time>2011-09-01T11:30:10.000Z</time>
      </trkpt>
      <trkpt lat="43.59948" lon="7.03689">
        <ele>205.39999389648</ele>
        <time>2011-09-01T11:30:17.000Z</time>
      </trkpt>
      <trkpt lat="43.5995" lon="7.0369">
        <ele>205.39999389648</ele>
        <time>2011-09-01T11:30:18.000Z</time>
      </trkpt>
      <trkpt lat="43.59959" lon="7.03705">
        <ele>205.39999389648</ele>
        <time>2011-09-01T11:30:24.000Z</time>
      </trkpt>
      <trkpt lat="43.5997" lon="7.03717">
        <ele>205.19999694824</ele>
        <time>2011-09-01T11:30:29.000Z</time>
      </trkpt>
      <trkpt lat="43.59981" lon="7.03708">
        <ele>205.19999694824</ele>
        <time>2011-09-01T11:30:33.000Z</time>
      </trkpt>
      <trkpt lat="43.5999" lon="7.03698">
        <ele>205.19999694824</ele>
        <time>2011-09-01T11:30:37.000Z</time>
      </trkpt>
      <trkpt lat="43.59998" lon="7.03678">
        <ele>205.60000610352</ele>
        <time>2011-09-01T11:30:42.000Z</time>
      </trkpt>
      <trkpt lat="43.59998" lon="7.03674">
        <ele>205.80000305176</ele>
        <time>2011-09-01T11:30:43.000Z</time>
      </trkpt>
      <trkpt lat="43.59999" lon="7.03653">
        <ele>205.60000610352</ele>
        <time>2011-09-01T11:30:47.000Z</time>
      </trkpt>
      <trkpt lat="43.59996" lon="7.03628">
        <ele>205</ele>
        <time>2011-09-01T11:30:51.000Z</time>
      </trkpt>
      <trkpt lat="43.59997" lon="7.03621">
        <ele>204.80000305176</ele>
        <time>2011-09-01T11:30:52.000Z</time>
      </trkpt>
      <trkpt lat="43.6" lon="7.03606">
        <ele>204.39999389648</ele>
        <time>2011-09-01T11:30:55.000Z</time>
      </trkpt>
      <trkpt lat="43.60001" lon="7.03601">
        <ele>204.19999694824</ele>
        <time>2011-09-01T11:30:56.000Z</time>
      </trkpt>
      <trkpt lat="43.60004" lon="7.03595">
        <ele>204</ele>
        <time>2011-09-01T11:30:57.000Z</time>
      </trkpt>
      <trkpt lat="43.60009" lon="7.03586">
        <ele>203.39999389648</ele>
        <time>2011-09-01T11:30:59.000Z</time>
      </trkpt>
      <trkpt lat="43.60017" lon="7.03578">
        <ele>202.80000305176</ele>
        <time>2011-09-01T11:31:01.000Z</time>
      </trkpt>
      <trkpt lat="43.60024" lon="7.03572">
        <ele>202.39999389648</ele>
        <time>2011-09-01T11:31:03.000Z</time>
      </trkpt>
      <trkpt lat="43.60033" lon="7.03568">
        <ele>201.80000305176</ele>
        <time>2011-09-01T11:31:05.000Z</time>
      </trkpt>
      <trkpt lat="43.60043" lon="7.03565">
        <ele>201.39999389648</ele>
        <time>2011-09-01T11:31:07.000Z</time>
      </trkpt>
      <trkpt lat="43.60047" lon="7.03563">
        <ele>201.19999694824</ele>
        <time>2011-09-01T11:31:08.000Z</time>
      </trkpt>
      <trkpt lat="43.6006" lon="7.03559">
        <ele>200.60000610352</ele>
        <time>2011-09-01T11:31:11.000Z</time>
      </trkpt>
      <trkpt lat="43.60064" lon="7.03559">
        <ele>200.39999389648</ele>
        <time>2011-09-01T11:31:12.000Z</time>
      </trkpt>
      <trkpt lat="43.60068" lon="7.03559">
        <ele>200.19999694824</ele>
        <time>2011-09-01T11:31:13.000Z</time>
      </trkpt>
      <trkpt lat="43.60089" lon="7.0356">
        <ele>198.80000305176</ele>
        <time>2011-09-01T11:31:18.000Z</time>
      </trkpt>
      <trkpt lat="43.601" lon="7.03561">
        <ele>197.60000610352</ele>
        <time>2011-09-01T11:31:22.000Z</time>
      </trkpt>
      <trkpt lat="43.60111" lon="7.03559">
        <ele>196.39999389648</ele>
        <time>2011-09-01T11:31:25.000Z</time>
      </trkpt>
      <trkpt lat="43.60114" lon="7.03558">
        <ele>196</ele>
        <time>2011-09-01T11:31:26.000Z</time>
      </trkpt>
      <trkpt lat="43.60132" lon="7.03559">
        <ele>194.19999694824</ele>
        <time>2011-09-01T11:31:31.000Z</time>
      </trkpt>
      <trkpt lat="43.60147" lon="7.03574">
        <ele>192.19999694824</ele>
        <time>2011-09-01T11:31:35.000Z</time>
      </trkpt>
      <trkpt lat="43.60164" lon="7.03591">
        <ele>190</ele>
        <time>2011-09-01T11:31:38.000Z</time>
      </trkpt>
      <trkpt lat="43.60169" lon="7.03595">
        <ele>190.19999694824</ele>
        <time>2011-09-01T11:31:39.000Z</time>
      </trkpt>
      <trkpt lat="43.60175" lon="7.036">
        <ele>190.80000305176</ele>
        <time>2011-09-01T11:31:40.000Z</time>
      </trkpt>
      <trkpt lat="43.60186" lon="7.03609">
        <ele>192</ele>
        <time>2011-09-01T11:31:42.000Z</time>
      </trkpt>
      <trkpt lat="43.60195" lon="7.03619">
        <ele>193</ele>
        <time>2011-09-01T11:31:44.000Z</time>
      </trkpt>
      <trkpt lat="43.60201" lon="7.03628">
        <ele>193.60000610352</ele>
        <time>2011-09-01T11:31:46.000Z</time>
      </trkpt>
      <trkpt lat="43.60204" lon="7.03639">
        <ele>193.80000305176</ele>
        <time>2011-09-01T11:31:48.000Z</time>
      </trkpt>
      <trkpt lat="43.60207" lon="7.03656">
        <ele>194</ele>
        <time>2011-09-01T11:31:52.000Z</time>
      </trkpt>
      <trkpt lat="43.60209" lon="7.0366">
        <ele>194</ele>
        <time>2011-09-01T11:31:53.000Z</time>
      </trkpt>
      <trkpt lat="43.6021" lon="7.03665">
        <ele>194.19999694824</ele>
        <time>2011-09-01T11:31:54.000Z</time>
      </trkpt>
      <trkpt lat="43.60218" lon="7.03692">
        <ele>193.80000305176</ele>
        <time>2011-09-01T11:32:00.000Z</time>
      </trkpt>
      <trkpt lat="43.60219" lon="7.03697">
        <ele>193.80000305176</ele>
        <time>2011-09-01T11:32:01.000Z</time>
      </trkpt>
      <trkpt lat="43.60226" lon="7.03721">
        <ele>193.39999389648</ele>
        <time>2011-09-01T11:32:07.000Z</time>
      </trkpt>
      <trkpt lat="43.60231" lon="7.03736">
        <ele>193.19999694824</ele>
        <time>2011-09-01T11:32:11.000Z</time>
      </trkpt>
      <trkpt lat="43.60237" lon="7.0376">
        <ele>192.60000610352</ele>
        <time>2011-09-01T11:32:16.000Z</time>
      </trkpt>
      <trkpt lat="43.60243" lon="7.03776">
        <ele>192.60000610352</ele>
        <time>2011-09-01T11:32:20.000Z</time>
      </trkpt>
      <trkpt lat="43.60245" lon="7.03791">
        <ele>192</ele>
        <time>2011-09-01T11:32:25.000Z</time>
      </trkpt>
      <trkpt lat="43.60247" lon="7.03808">
        <ele>191</ele>
        <time>2011-09-01T11:32:29.000Z</time>
      </trkpt>
      <trkpt lat="43.60248" lon="7.03837">
        <ele>189.60000610352</ele>
        <time>2011-09-01T11:32:35.000Z</time>
      </trkpt>
      <trkpt lat="43.60248" lon="7.03858">
        <ele>189</ele>
        <time>2011-09-01T11:32:40.000Z</time>
      </trkpt>
      <trkpt lat="43.60253" lon="7.03876">
        <ele>189</ele>
        <time>2011-09-01T11:32:45.000Z</time>
      </trkpt>
      <trkpt lat="43.60258" lon="7.03896">
        <ele>188.80000305176</ele>
        <time>2011-09-01T11:32:50.000Z</time>
      </trkpt>
      <trkpt lat="43.6026" lon="7.03899">
        <ele>188.80000305176</ele>
        <time>2011-09-01T11:32:51.000Z</time>
      </trkpt>
      <trkpt lat="43.60267" lon="7.03902">
        <ele>189</ele>
        <time>2011-09-01T11:32:53.000Z</time>
      </trkpt>
      <trkpt lat="43.60273" lon="7.03914">
        <ele>188.80000305176</ele>
        <time>2011-09-01T11:32:56.000Z</time>
      </trkpt>
      <trkpt lat="43.60274" lon="7.03917">
        <ele>188.80000305176</ele>
        <time>2011-09-01T11:32:57.000Z</time>
      </trkpt>
      <trkpt lat="43.60277" lon="7.03923">
        <ele>189</ele>
        <time>2011-09-01T11:33:01.000Z</time>
      </trkpt>
      <trkpt lat="43.60278" lon="7.03922">
        <ele>189</ele>
        <time>2011-09-01T11:33:02.000Z</time>
      </trkpt>
      <trkpt lat="43.60282" lon="7.03918">
        <ele>189</ele>
        <time>2011-09-01T11:33:05.000Z</time>
      </trkpt>
      <trkpt lat="43.60287" lon="7.03913">
        <ele>189.39999389648</ele>
        <time>2011-09-01T11:33:10.000Z</time>
      </trkpt>
      <trkpt lat="43.60298" lon="7.03896">
        <ele>190.60000610352</ele>
        <time>2011-09-01T11:33:15.000Z</time>
      </trkpt>
      <trkpt lat="43.60309" lon="7.0387">
        <ele>192.39999389648</ele>
        <time>2011-09-01T11:33:20.000Z</time>
      </trkpt>
      <trkpt lat="43.60313" lon="7.03865">
        <ele>192.80000305176</ele>
        <time>2011-09-01T11:33:21.000Z</time>
      </trkpt>
      <trkpt lat="43.60322" lon="7.03849">
        <ele>194.19999694824</ele>
        <time>2011-09-01T11:33:24.000Z</time>
      </trkpt>
      <trkpt lat="43.6033" lon="7.03838">
        <ele>195.39999389648</ele>
        <time>2011-09-01T11:33:26.000Z</time>
      </trkpt>
      <trkpt lat="43.60339" lon="7.03829">
        <ele>196.19999694824</ele>
        <time>2011-09-01T11:33:28.000Z</time>
      </trkpt>
      <trkpt lat="43.60343" lon="7.03826">
        <ele>196.39999389648</ele>
        <time>2011-09-01T11:33:29.000Z</time>
      </trkpt>
      <trkpt lat="43.60353" lon="7.03823">
        <ele>196.60000610352</ele>
        <time>2011-09-01T11:33:31.000Z</time>
      </trkpt>
      <trkpt lat="43.60367" lon="7.03832">
        <ele>195.60000610352</ele>
        <time>2011-09-01T11:33:34.000Z</time>
      </trkpt>
      <trkpt lat="43.60373" lon="7.03835">
        <ele>195.39999389648</ele>
        <time>2011-09-01T11:33:35.000Z</time>
      </trkpt>
      <trkpt lat="43.60379" lon="7.03837">
        <ele>195.19999694824</ele>
        <time>2011-09-01T11:33:36.000Z</time>
      </trkpt>
      <trkpt lat="43.60395" lon="7.03839">
        <ele>194.80000305176</ele>
        <time>2011-09-01T11:33:39.000Z</time>
      </trkpt>
      <trkpt lat="43.60412" lon="7.03851">
        <ele>194</ele>
        <time>2011-09-01T11:33:42.000Z</time>
      </trkpt>
      <trkpt lat="43.60414" lon="7.03857">
        <ele>193.39999389648</ele>
        <time>2011-09-01T11:33:43.000Z</time>
      </trkpt>
      <trkpt lat="43.60419" lon="7.03878">
        <ele>192.39999389648</ele>
        <time>2011-09-01T11:33:46.000Z</time>
      </trkpt>
      <trkpt lat="43.60421" lon="7.03884">
        <ele>192</ele>
        <time>2011-09-01T11:33:47.000Z</time>
      </trkpt>
      <trkpt lat="43.60427" lon="7.03902">
        <ele>191.19999694824</ele>
        <time>2011-09-01T11:33:50.000Z</time>
      </trkpt>
      <trkpt lat="43.60437" lon="7.03919">
        <ele>190.39999389648</ele>
        <time>2011-09-01T11:33:53.000Z</time>
      </trkpt>
      <trkpt lat="43.60453" lon="7.03936">
        <ele>189.19999694824</ele>
        <time>2011-09-01T11:33:57.000Z</time>
      </trkpt>
      <trkpt lat="43.60462" lon="7.03942">
        <ele>188.80000305176</ele>
        <time>2011-09-01T11:33:59.000Z</time>
      </trkpt>
      <trkpt lat="43.60476" lon="7.03945">
        <ele>188.80000305176</ele>
        <time>2011-09-01T11:34:02.000Z</time>
      </trkpt>
      <trkpt lat="43.6048" lon="7.03946">
        <ele>188.60000610352</ele>
        <time>2011-09-01T11:34:03.000Z</time>
      </trkpt>
      <trkpt lat="43.60499" lon="7.03947">
        <ele>188.80000305176</ele>
        <time>2011-09-01T11:34:08.000Z</time>
      </trkpt>
      <trkpt lat="43.60503" lon="7.03947">
        <ele>189</ele>
        <time>2011-09-01T11:34:09.000Z</time>
      </trkpt>
      <trkpt lat="43.60516" lon="7.0395">
        <ele>189.39999389648</ele>
        <time>2011-09-01T11:34:12.000Z</time>
      </trkpt>
      <trkpt lat="43.60524" lon="7.03959">
        <ele>189</ele>
        <time>2011-09-01T11:34:14.000Z</time>
      </trkpt>
      <trkpt lat="43.60537" lon="7.03974">
        <ele>187.80000305176</ele>
        <time>2011-09-01T11:34:17.000Z</time>
      </trkpt>
      <trkpt lat="43.60543" lon="7.03988">
        <ele>186.39999389648</ele>
        <time>2011-09-01T11:34:19.000Z</time>
      </trkpt>
      <trkpt lat="43.60555" lon="7.04008">
        <ele>185.39999389648</ele>
        <time>2011-09-01T11:34:22.000Z</time>
      </trkpt>
      <trkpt lat="43.6056" lon="7.04015">
        <ele>185.19999694824</ele>
        <time>2011-09-01T11:34:23.000Z</time>
      </trkpt>
      <trkpt lat="43.60571" lon="7.04025">
        <ele>185.19999694824</ele>
        <time>2011-09-01T11:34:25.000Z</time>
      </trkpt>
      <trkpt lat="43.60577" lon="7.04031">
        <ele>185.19999694824</ele>
        <time>2011-09-01T11:34:26.000Z</time>
      </trkpt>
      <trkpt lat="43.60587" lon="7.04042">
        <ele>185</ele>
        <time>2011-09-01T11:34:28.000Z</time>
      </trkpt>
      <trkpt lat="43.60602" lon="7.04059">
        <ele>185</ele>
        <time>2011-09-01T11:34:31.000Z</time>
      </trkpt>
      <trkpt lat="43.60614" lon="7.04078">
        <ele>184.80000305176</ele>
        <time>2011-09-01T11:34:34.000Z</time>
      </trkpt>
      <trkpt lat="43.60627" lon="7.04099">
        <ele>185.60000610352</ele>
        <time>2011-09-01T11:34:38.000Z</time>
      </trkpt>
      <trkpt lat="43.60631" lon="7.04103">
        <ele>186</ele>
        <time>2011-09-01T11:34:39.000Z</time>
      </trkpt>
      <trkpt lat="43.60635" lon="7.04105">
        <ele>186.39999389648</ele>
        <time>2011-09-01T11:34:40.000Z</time>
      </trkpt>
      <trkpt lat="43.60653" lon="7.04119">
        <ele>187.80000305176</ele>
        <time>2011-09-01T11:34:45.000Z</time>
      </trkpt>
      <trkpt lat="43.6066" lon="7.04123">
        <ele>188.39999389648</ele>
        <time>2011-09-01T11:34:47.000Z</time>
      </trkpt>
      <trkpt lat="43.60676" lon="7.04136">
        <ele>189.60000610352</ele>
        <time>2011-09-01T11:34:53.000Z</time>
      </trkpt>
      <trkpt lat="43.60679" lon="7.04138">
        <ele>189.80000305176</ele>
        <time>2011-09-01T11:34:54.000Z</time>
      </trkpt>
      <trkpt lat="43.60698" lon="7.04148">
        <ele>191.19999694824</ele>
        <time>2011-09-01T11:35:01.000Z</time>
      </trkpt>
      <trkpt lat="43.60717" lon="7.04155">
        <ele>192.60000610352</ele>
        <time>2011-09-01T11:35:08.000Z</time>
      </trkpt>
      <trkpt lat="43.60734" lon="7.04157">
        <ele>193.80000305176</ele>
        <time>2011-09-01T11:35:14.000Z</time>
      </trkpt>
      <trkpt lat="43.6075" lon="7.04162">
        <ele>195</ele>
        <time>2011-09-01T11:35:20.000Z</time>
      </trkpt>
      <trkpt lat="43.60768" lon="7.04168">
        <ele>194.80000305176</ele>
        <time>2011-09-01T11:35:26.000Z</time>
      </trkpt>
      <trkpt lat="43.60771" lon="7.04169">
        <ele>194.80000305176</ele>
        <time>2011-09-01T11:35:27.000Z</time>
      </trkpt>
      <trkpt lat="43.6079" lon="7.04171">
        <ele>194.60000610352</ele>
        <time>2011-09-01T11:35:33.000Z</time>
      </trkpt>
      <trkpt lat="43.60809" lon="7.04177">
        <ele>194.19999694824</ele>
        <time>2011-09-01T11:35:38.000Z</time>
      </trkpt>
      <trkpt lat="43.60818" lon="7.04178">
        <ele>194</ele>
        <time>2011-09-01T11:35:40.000Z</time>
      </trkpt>
      <trkpt lat="43.60842" lon="7.04178">
        <ele>193.60000610352</ele>
        <time>2011-09-01T11:35:44.000Z</time>
      </trkpt>
      <trkpt lat="43.6085" lon="7.04177">
        <ele>193.39999389648</ele>
        <time>2011-09-01T11:35:45.000Z</time>
      </trkpt>
      <trkpt lat="43.60856" lon="7.04178">
        <ele>193</ele>
        <time>2011-09-01T11:35:46.000Z</time>
      </trkpt>
      <trkpt lat="43.60872" lon="7.04179">
        <ele>192.19999694824</ele>
        <time>2011-09-01T11:35:49.000Z</time>
      </trkpt>
      <trkpt lat="43.60881" lon="7.04177">
        <ele>192</ele>
        <time>2011-09-01T11:35:51.000Z</time>
      </trkpt>
      <trkpt lat="43.60886" lon="7.04174">
        <ele>192</ele>
        <time>2011-09-01T11:35:53.000Z</time>
      </trkpt>
      <trkpt lat="43.60889" lon="7.04173">
        <ele>191.80000305176</ele>
        <time>2011-09-01T11:35:54.000Z</time>
      </trkpt>
      <trkpt lat="43.60902" lon="7.04179">
        <ele>191</ele>
        <time>2011-09-01T11:35:57.000Z</time>
      </trkpt>
      <trkpt lat="43.60907" lon="7.04182">
        <ele>190.80000305176</ele>
        <time>2011-09-01T11:35:58.000Z</time>
      </trkpt>
      <trkpt lat="43.60918" lon="7.04186">
        <ele>190</ele>
        <time>2011-09-01T11:36:00.000Z</time>
      </trkpt>
      <trkpt lat="43.60924" lon="7.04187">
        <ele>189.60000610352</ele>
        <time>2011-09-01T11:36:01.000Z</time>
      </trkpt>
      <trkpt lat="43.60945" lon="7.04188">
        <ele>188.19999694824</ele>
        <time>2011-09-01T11:36:05.000Z</time>
      </trkpt>
      <trkpt lat="43.60951" lon="7.04189">
        <ele>187.80000305176</ele>
        <time>2011-09-01T11:36:06.000Z</time>
      </trkpt>
      <trkpt lat="43.60975" lon="7.04192">
        <ele>186.19999694824</ele>
        <time>2011-09-01T11:36:10.000Z</time>
      </trkpt>
      <trkpt lat="43.60982" lon="7.04195">
        <ele>185.80000305176</ele>
        <time>2011-09-01T11:36:11.000Z</time>
      </trkpt>
      <trkpt lat="43.60987" lon="7.04199">
        <ele>185.39999389648</ele>
        <time>2011-09-01T11:36:12.000Z</time>
      </trkpt>
      <trkpt lat="43.61003" lon="7.04219">
        <ele>184.80000305176</ele>
        <time>2011-09-01T11:36:15.000Z</time>
      </trkpt>
      <trkpt lat="43.61006" lon="7.04228">
        <ele>184.60000610352</ele>
        <time>2011-09-01T11:36:16.000Z</time>
      </trkpt>
      <trkpt lat="43.61022" lon="7.04253">
        <ele>183</ele>
        <time>2011-09-01T11:36:19.000Z</time>
      </trkpt>
      <trkpt lat="43.61024" lon="7.04263">
        <ele>182.60000610352</ele>
        <time>2011-09-01T11:36:20.000Z</time>
      </trkpt>
      <trkpt lat="43.61028" lon="7.04273">
        <ele>182.19999694824</ele>
        <time>2011-09-01T11:36:21.000Z</time>
      </trkpt>
      <trkpt lat="43.61037" lon="7.04301">
        <ele>181.19999694824</ele>
        <time>2011-09-01T11:36:24.000Z</time>
      </trkpt>
      <trkpt lat="43.6104" lon="7.04308">
        <ele>181</ele>
        <time>2011-09-01T11:36:25.000Z</time>
      </trkpt>
      <trkpt lat="43.6105" lon="7.04324">
        <ele>180.19999694824</ele>
        <time>2011-09-01T11:36:27.000Z</time>
      </trkpt>
      <trkpt lat="43.61064" lon="7.04337">
        <ele>179.19999694824</ele>
        <time>2011-09-01T11:36:29.000Z</time>
      </trkpt>
      <trkpt lat="43.61082" lon="7.04348">
        <ele>177.39999389648</ele>
        <time>2011-09-01T11:36:31.000Z</time>
      </trkpt>
      <trkpt lat="43.61098" lon="7.04354">
        <ele>177.19999694824</ele>
        <time>2011-09-01T11:36:33.000Z</time>
      </trkpt>
      <trkpt lat="43.61105" lon="7.04356">
        <ele>177.19999694824</ele>
        <time>2011-09-01T11:36:34.000Z</time>
      </trkpt>
      <trkpt lat="43.61123" lon="7.04364">
        <ele>177.19999694824</ele>
        <time>2011-09-01T11:36:37.000Z</time>
      </trkpt>
      <trkpt lat="43.61143" lon="7.04374">
        <ele>177.19999694824</ele>
        <time>2011-09-01T11:36:41.000Z</time>
      </trkpt>
      <trkpt lat="43.61147" lon="7.04375">
        <ele>177.19999694824</ele>
        <time>2011-09-01T11:36:42.000Z</time>
      </trkpt>
      <trkpt lat="43.61153" lon="7.04376">
        <ele>177.19999694824</ele>
        <time>2011-09-01T11:36:43.000Z</time>
      </trkpt>
      <trkpt lat="43.6116" lon="7.04378">
        <ele>177.19999694824</ele>
        <time>2011-09-01T11:36:45.000Z</time>
      </trkpt>
      <trkpt lat="43.61172" lon="7.0438">
        <ele>177</ele>
        <time>2011-09-01T11:36:48.000Z</time>
      </trkpt>
      <trkpt lat="43.6119" lon="7.04381">
        <ele>175.80000305176</ele>
        <time>2011-09-01T11:36:52.000Z</time>
      </trkpt>
      <trkpt lat="43.61197" lon="7.04384">
        <ele>175.39999389648</ele>
        <time>2011-09-01T11:36:53.000Z</time>
      </trkpt>
      <trkpt lat="43.61214" lon="7.04398">
        <ele>174</ele>
        <time>2011-09-01T11:36:56.000Z</time>
      </trkpt>
      <trkpt lat="43.61219" lon="7.04406">
        <ele>173.39999389648</ele>
        <time>2011-09-01T11:36:57.000Z</time>
      </trkpt>
      <trkpt lat="43.61234" lon="7.04434">
        <ele>172</ele>
        <time>2011-09-01T11:37:00.000Z</time>
      </trkpt>
      <trkpt lat="43.61238" lon="7.04445">
        <ele>171.80000305176</ele>
        <time>2011-09-01T11:37:01.000Z</time>
      </trkpt>
      <trkpt lat="43.61242" lon="7.04454">
        <ele>171.39999389648</ele>
        <time>2011-09-01T11:37:02.000Z</time>
      </trkpt>
      <trkpt lat="43.61257" lon="7.04482">
        <ele>169.60000610352</ele>
        <time>2011-09-01T11:37:05.000Z</time>
      </trkpt>
      <trkpt lat="43.61268" lon="7.045">
        <ele>167.80000305176</ele>
        <time>2011-09-01T11:37:07.000Z</time>
      </trkpt>
      <trkpt lat="43.61281" lon="7.04519">
        <ele>166</ele>
        <time>2011-09-01T11:37:09.000Z</time>
      </trkpt>
      <trkpt lat="43.61293" lon="7.04532">
        <ele>164</ele>
        <time>2011-09-01T11:37:11.000Z</time>
      </trkpt>
      <trkpt lat="43.61307" lon="7.04549">
        <ele>162.19999694824</ele>
        <time>2011-09-01T11:37:14.000Z</time>
      </trkpt>
      <trkpt lat="43.6131" lon="7.04553">
        <ele>161.80000305176</ele>
        <time>2011-09-01T11:37:15.000Z</time>
      </trkpt>
      <trkpt lat="43.61316" lon="7.04561">
        <ele>161.19999694824</ele>
        <time>2011-09-01T11:37:18.000Z</time>
      </trkpt>
      <trkpt lat="43.61317" lon="7.04565">
        <ele>161</ele>
        <time>2011-09-01T11:37:19.000Z</time>
      </trkpt>
      <trkpt lat="43.61322" lon="7.04576">
        <ele>160.60000610352</ele>
        <time>2011-09-01T11:37:21.000Z</time>
      </trkpt>
      <trkpt lat="43.61325" lon="7.04586">
        <ele>160.19999694824</ele>
        <time>2011-09-01T11:37:23.000Z</time>
      </trkpt>
      <trkpt lat="43.61328" lon="7.0459">
        <ele>159.60000610352</ele>
        <time>2011-09-01T11:37:24.000Z</time>
      </trkpt>
      <trkpt lat="43.61336" lon="7.04598">
        <ele>158.60000610352</ele>
        <time>2011-09-01T11:37:27.000Z</time>
      </trkpt>
      <trkpt lat="43.61341" lon="7.04601">
        <ele>158.60000610352</ele>
        <time>2011-09-01T11:37:29.000Z</time>
      </trkpt>
      <trkpt lat="43.61349" lon="7.04607">
        <ele>158.39999389648</ele>
        <time>2011-09-01T11:37:32.000Z</time>
      </trkpt>
      <trkpt lat="43.61364" lon="7.04612">
        <ele>158.60000610352</ele>
        <time>2011-09-01T11:37:36.000Z</time>
      </trkpt>
      <trkpt lat="43.61366" lon="7.04612">
        <ele>158.60000610352</ele>
        <time>2011-09-01T11:37:37.000Z</time>
      </trkpt>
      <trkpt lat="43.61381" lon="7.04596">
        <ele>158.80000305176</ele>
        <time>2011-09-01T11:37:42.000Z</time>
      </trkpt>
      <trkpt lat="43.61396" lon="7.04579">
        <ele>158.80000305176</ele>
        <time>2011-09-01T11:37:47.000Z</time>
      </trkpt>
      <trkpt lat="43.61398" lon="7.04564">
        <ele>159</ele>
        <time>2011-09-01T11:37:50.000Z</time>
      </trkpt>
      <trkpt lat="43.614" lon="7.04537">
        <ele>159</ele>
        <time>2011-09-01T11:37:55.000Z</time>
      </trkpt>
      <trkpt lat="43.61399" lon="7.0451">
        <ele>159</ele>
        <time>2011-09-01T11:37:59.000Z</time>
      </trkpt>
      <trkpt lat="43.61401" lon="7.04487">
        <ele>158.19999694824</ele>
        <time>2011-09-01T11:38:02.000Z</time>
      </trkpt>
      <trkpt lat="43.61404" lon="7.04471">
        <ele>157.19999694824</ele>
        <time>2011-09-01T11:38:04.000Z</time>
      </trkpt>
      <trkpt lat="43.61409" lon="7.04454">
        <ele>156</ele>
        <time>2011-09-01T11:38:06.000Z</time>
      </trkpt>
      <trkpt lat="43.61415" lon="7.04438">
        <ele>154.80000305176</ele>
        <time>2011-09-01T11:38:08.000Z</time>
      </trkpt>
      <trkpt lat="43.61425" lon="7.04412">
        <ele>153.19999694824</ele>
        <time>2011-09-01T11:38:11.000Z</time>
      </trkpt>
      <trkpt lat="43.61431" lon="7.04393">
        <ele>151.60000610352</ele>
        <time>2011-09-01T11:38:13.000Z</time>
      </trkpt>
      <trkpt lat="43.6144" lon="7.04375">
        <ele>150</ele>
        <time>2011-09-01T11:38:15.000Z</time>
      </trkpt>
      <trkpt lat="43.6145" lon="7.04359">
        <ele>148.60000610352</ele>
        <time>2011-09-01T11:38:17.000Z</time>
      </trkpt>
      <trkpt lat="43.61466" lon="7.04338">
        <ele>146.39999389648</ele>
        <time>2011-09-01T11:38:20.000Z</time>
      </trkpt>
      <trkpt lat="43.61472" lon="7.04325">
        <ele>145.19999694824</ele>
        <time>2011-09-01T11:38:22.000Z</time>
      </trkpt>
      <trkpt lat="43.61474" lon="7.04319">
        <ele>144.60000610352</ele>
        <time>2011-09-01T11:38:23.000Z</time>
      </trkpt>
      <trkpt lat="43.61486" lon="7.04302">
        <ele>143.19999694824</ele>
        <time>2011-09-01T11:38:26.000Z</time>
      </trkpt>
      <trkpt lat="43.61503" lon="7.04282">
        <ele>140.60000610352</ele>
        <time>2011-09-01T11:38:29.000Z</time>
      </trkpt>
      <trkpt lat="43.61508" lon="7.04272">
        <ele>139.19999694824</ele>
        <time>2011-09-01T11:38:30.000Z</time>
      </trkpt>
      <trkpt lat="43.61523" lon="7.04242">
        <ele>136</ele>
        <time>2011-09-01T11:38:33.000Z</time>
      </trkpt>
      <trkpt lat="43.61537" lon="7.04212">
        <ele>135</ele>
        <time>2011-09-01T11:38:36.000Z</time>
      </trkpt>
      <trkpt lat="43.61542" lon="7.04203">
        <ele>134.80000305176</ele>
        <time>2011-09-01T11:38:37.000Z</time>
      </trkpt>
      <trkpt lat="43.61554" lon="7.0418">
        <ele>134.39999389648</ele>
        <time>2011-09-01T11:38:40.000Z</time>
      </trkpt>
      <trkpt lat="43.6156" lon="7.04165">
        <ele>134.19999694824</ele>
        <time>2011-09-01T11:38:42.000Z</time>
      </trkpt>
      <trkpt lat="43.61575" lon="7.04144">
        <ele>134.80000305176</ele>
        <time>2011-09-01T11:38:46.000Z</time>
      </trkpt>
      <trkpt lat="43.6158" lon="7.04144">
        <ele>134.80000305176</ele>
        <time>2011-09-01T11:38:47.000Z</time>
      </trkpt>
      <trkpt lat="43.61596" lon="7.04143">
        <ele>134.80000305176</ele>
        <time>2011-09-01T11:38:50.000Z</time>
      </trkpt>
      <trkpt lat="43.61608" lon="7.04143">
        <ele>135</ele>
        <time>2011-09-01T11:38:52.000Z</time>
      </trkpt>
      <trkpt lat="43.6162" lon="7.04153">
        <ele>134.80000305176</ele>
        <time>2011-09-01T11:38:55.000Z</time>
      </trkpt>
      <trkpt lat="43.61623" lon="7.04157">
        <ele>134.60000610352</ele>
        <time>2011-09-01T11:38:56.000Z</time>
      </trkpt>
      <trkpt lat="43.61629" lon="7.04167">
        <ele>134.39999389648</ele>
        <time>2011-09-01T11:38:58.000Z</time>
      </trkpt>
      <trkpt lat="43.61633" lon="7.04178">
        <ele>134.39999389648</ele>
        <time>2011-09-01T11:39:00.000Z</time>
      </trkpt>
      <trkpt lat="43.61635" lon="7.04191">
        <ele>134.19999694824</ele>
        <time>2011-09-01T11:39:02.000Z</time>
      </trkpt>
      <trkpt lat="43.61638" lon="7.04212">
        <ele>133.80000305176</ele>
        <time>2011-09-01T11:39:05.000Z</time>
      </trkpt>
      <trkpt lat="43.61641" lon="7.0424">
        <ele>133.39999389648</ele>
        <time>2011-09-01T11:39:09.000Z</time>
      </trkpt>
      <trkpt lat="43.61643" lon="7.04258">
        <ele>133.19999694824</ele>
        <time>2011-09-01T11:39:12.000Z</time>
      </trkpt>
      <trkpt lat="43.61653" lon="7.0428">
        <ele>133</ele>
        <time>2011-09-01T11:39:16.000Z</time>
      </trkpt>
      <trkpt lat="43.61655" lon="7.04287">
        <ele>132.80000305176</ele>
        <time>2011-09-01T11:39:17.000Z</time>
      </trkpt>
      <trkpt lat="43.61667" lon="7.04313">
        <ele>131.39999389648</ele>
        <time>2011-09-01T11:39:21.000Z</time>
      </trkpt>
      <trkpt lat="43.61676" lon="7.04333">
        <ele>131.60000610352</ele>
        <time>2011-09-01T11:39:24.000Z</time>
      </trkpt>
      <trkpt lat="43.61686" lon="7.04356">
        <ele>133.39999389648</ele>
        <time>2011-09-01T11:39:28.000Z</time>
      </trkpt>
      <trkpt lat="43.61691" lon="7.04369">
        <ele>134.19999694824</ele>
        <time>2011-09-01T11:39:30.000Z</time>
      </trkpt>
      <trkpt lat="43.61694" lon="7.04375">
        <ele>134.60000610352</ele>
        <time>2011-09-01T11:39:31.000Z</time>
      </trkpt>
      <trkpt lat="43.61702" lon="7.04398">
        <ele>135.39999389648</ele>
        <time>2011-09-01T11:39:35.000Z</time>
      </trkpt>
      <trkpt lat="43.61703" lon="7.04404">
        <ele>135.60000610352</ele>
        <time>2011-09-01T11:39:36.000Z</time>
      </trkpt>
      <trkpt lat="43.61706" lon="7.04431">
        <ele>136.80000305176</ele>
        <time>2011-09-01T11:39:40.000Z</time>
      </trkpt>
      <trkpt lat="43.61707" lon="7.0444">
        <ele>137.19999694824</ele>
        <time>2011-09-01T11:39:41.000Z</time>
      </trkpt>
      <trkpt lat="43.61714" lon="7.04462">
        <ele>138</ele>
        <time>2011-09-01T11:39:44.000Z</time>
      </trkpt>
      <trkpt lat="43.6172" lon="7.04476">
        <ele>138</ele>
        <time>2011-09-01T11:39:46.000Z</time>
      </trkpt>
      <trkpt lat="43.61727" lon="7.04487">
        <ele>137.39999389648</ele>
        <time>2011-09-01T11:39:48.000Z</time>
      </trkpt>
      <trkpt lat="43.61734" lon="7.04493">
        <ele>136.80000305176</ele>
        <time>2011-09-01T11:39:49.000Z</time>
      </trkpt>
      <trkpt lat="43.61747" lon="7.04507">
        <ele>135.19999694824</ele>
        <time>2011-09-01T11:39:52.000Z</time>
      </trkpt>
      <trkpt lat="43.6175" lon="7.04513">
        <ele>134.80000305176</ele>
        <time>2011-09-01T11:39:53.000Z</time>
      </trkpt>
      <trkpt lat="43.61761" lon="7.04536">
        <ele>134.39999389648</ele>
        <time>2011-09-01T11:39:56.000Z</time>
      </trkpt>
      <trkpt lat="43.61765" lon="7.04543">
        <ele>134.19999694824</ele>
        <time>2011-09-01T11:39:57.000Z</time>
      </trkpt>
      <trkpt lat="43.61776" lon="7.04563">
        <ele>133.80000305176</ele>
        <time>2011-09-01T11:40:00.000Z</time>
      </trkpt>
      <trkpt lat="43.61789" lon="7.04588">
        <ele>133.39999389648</ele>
        <time>2011-09-01T11:40:04.000Z</time>
      </trkpt>
      <trkpt lat="43.61791" lon="7.04595">
        <ele>133.19999694824</ele>
        <time>2011-09-01T11:40:05.000Z</time>
      </trkpt>
      <trkpt lat="43.61794" lon="7.04601">
        <ele>133</ele>
        <time>2011-09-01T11:40:06.000Z</time>
      </trkpt>
      <trkpt lat="43.61803" lon="7.04625">
        <ele>132</ele>
        <time>2011-09-01T11:40:10.000Z</time>
      </trkpt>
      <trkpt lat="43.61813" lon="7.0465">
        <ele>130.80000305176</ele>
        <time>2011-09-01T11:40:14.000Z</time>
      </trkpt>
      <trkpt lat="43.61825" lon="7.04673">
        <ele>129.39999389648</ele>
        <time>2011-09-01T11:40:18.000Z</time>
      </trkpt>
      <trkpt lat="43.61827" lon="7.04679">
        <ele>129.19999694824</ele>
        <time>2011-09-01T11:40:19.000Z</time>
      </trkpt>
      <trkpt lat="43.6184" lon="7.04704">
        <ele>129</ele>
        <time>2011-09-01T11:40:23.000Z</time>
      </trkpt>
      <trkpt lat="43.61848" lon="7.0472">
        <ele>129.19999694824</ele>
        <time>2011-09-01T11:40:26.000Z</time>
      </trkpt>
      <trkpt lat="43.61862" lon="7.04745">
        <ele>129.19999694824</ele>
        <time>2011-09-01T11:40:31.000Z</time>
      </trkpt>
      <trkpt lat="43.61877" lon="7.04766">
        <ele>129.39999389648</ele>
        <time>2011-09-01T11:40:35.000Z</time>
      </trkpt>
      <trkpt lat="43.61882" lon="7.04768">
        <ele>129.39999389648</ele>
        <time>2011-09-01T11:40:36.000Z</time>
      </trkpt>
      <trkpt lat="43.61888" lon="7.04783">
        <ele>129.19999694824</ele>
        <time>2011-09-01T11:40:39.000Z</time>
      </trkpt>
      <trkpt lat="43.61893" lon="7.04804">
        <ele>128.80000305176</ele>
        <time>2011-09-01T11:40:42.000Z</time>
      </trkpt>
      <trkpt lat="43.61897" lon="7.04813">
        <ele>128.60000610352</ele>
        <time>2011-09-01T11:40:43.000Z</time>
      </trkpt>
      <trkpt lat="43.61905" lon="7.04831">
        <ele>128.19999694824</ele>
        <time>2011-09-01T11:40:45.000Z</time>
      </trkpt>
      <trkpt lat="43.6191" lon="7.04837">
        <ele>128</ele>
        <time>2011-09-01T11:40:46.000Z</time>
      </trkpt>
      <trkpt lat="43.61925" lon="7.04858">
        <ele>127.59999847412</ele>
        <time>2011-09-01T11:40:49.000Z</time>
      </trkpt>
      <trkpt lat="43.6194" lon="7.04878">
        <ele>126.80000305176</ele>
        <time>2011-09-01T11:40:52.000Z</time>
      </trkpt>
      <trkpt lat="43.61946" lon="7.04883">
        <ele>126.40000152588</ele>
        <time>2011-09-01T11:40:53.000Z</time>
      </trkpt>
      <trkpt lat="43.61966" lon="7.04888">
        <ele>125.59999847412</ele>
        <time>2011-09-01T11:40:56.000Z</time>
      </trkpt>
      <trkpt lat="43.61979" lon="7.04888">
        <ele>125</ele>
        <time>2011-09-01T11:40:58.000Z</time>
      </trkpt>
      <trkpt lat="43.62" lon="7.0489">
        <ele>124.19999694824</ele>
        <time>2011-09-01T11:41:01.000Z</time>
      </trkpt>
      <trkpt lat="43.62006" lon="7.04888">
        <ele>124.80000305176</ele>
        <time>2011-09-01T11:41:02.000Z</time>
      </trkpt>
      <trkpt lat="43.62016" lon="7.04886">
        <ele>126</ele>
        <time>2011-09-01T11:41:04.000Z</time>
      </trkpt>
      <trkpt lat="43.62029" lon="7.04898">
        <ele>126</ele>
        <time>2011-09-01T11:41:07.000Z</time>
      </trkpt>
      <trkpt lat="43.62034" lon="7.04902">
        <ele>126.19999694824</ele>
        <time>2011-09-01T11:41:08.000Z</time>
      </trkpt>
      <trkpt lat="43.62039" lon="7.04907">
        <ele>126.19999694824</ele>
        <time>2011-09-01T11:41:09.000Z</time>
      </trkpt>
      <trkpt lat="43.6205" lon="7.04921">
        <ele>126</ele>
        <time>2011-09-01T11:41:11.000Z</time>
      </trkpt>
      <trkpt lat="43.62066" lon="7.04944">
        <ele>126.40000152588</ele>
        <time>2011-09-01T11:41:14.000Z</time>
      </trkpt>
      <trkpt lat="43.62078" lon="7.04965">
        <ele>125.80000305176</ele>
        <time>2011-09-01T11:41:17.000Z</time>
      </trkpt>
      <trkpt lat="43.6208" lon="7.04972">
        <ele>125.59999847412</ele>
        <time>2011-09-01T11:41:18.000Z</time>
      </trkpt>
      <trkpt lat="43.6208" lon="7.04981">
        <ele>125</ele>
        <time>2011-09-01T11:41:20.000Z</time>
      </trkpt>
      <trkpt lat="43.62071" lon="7.0499">
        <ele>124.59999847412</ele>
        <time>2011-09-01T11:41:23.000Z</time>
      </trkpt>
      <trkpt lat="43.62062" lon="7.04994">
        <ele>124.59999847412</ele>
        <time>2011-09-01T11:41:25.000Z</time>
      </trkpt>
      <trkpt lat="43.62055" lon="7.05">
        <ele>124.59999847412</ele>
        <time>2011-09-01T11:41:27.000Z</time>
      </trkpt>
      <trkpt lat="43.62053" lon="7.05005">
        <ele>124.80000305176</ele>
        <time>2011-09-01T11:41:28.000Z</time>
      </trkpt>
      <trkpt lat="43.6205" lon="7.05033">
        <ele>125.40000152588</ele>
        <time>2011-09-01T11:41:32.000Z</time>
      </trkpt>
      <trkpt lat="43.62047" lon="7.05056">
        <ele>126</ele>
        <time>2011-09-01T11:41:35.000Z</time>
      </trkpt>
      <trkpt lat="43.62045" lon="7.05073">
        <ele>126.59999847412</ele>
        <time>2011-09-01T11:41:37.000Z</time>
      </trkpt>
      <trkpt lat="43.6204" lon="7.05105">
        <ele>127.59999847412</ele>
        <time>2011-09-01T11:41:41.000Z</time>
      </trkpt>
      <trkpt lat="43.62038" lon="7.05122">
        <ele>128</ele>
        <time>2011-09-01T11:41:43.000Z</time>
      </trkpt>
      <trkpt lat="43.62033" lon="7.05147">
        <ele>128.80000305176</ele>
        <time>2011-09-01T11:41:46.000Z</time>
      </trkpt>
      <trkpt lat="43.62027" lon="7.05172">
        <ele>129.60000610352</ele>
        <time>2011-09-01T11:41:49.000Z</time>
      </trkpt>
      <trkpt lat="43.62024" lon="7.0518">
        <ele>130</ele>
        <time>2011-09-01T11:41:50.000Z</time>
      </trkpt>
      <trkpt lat="43.62018" lon="7.05201">
        <ele>131</ele>
        <time>2011-09-01T11:41:53.000Z</time>
      </trkpt>
      <trkpt lat="43.62017" lon="7.05214">
        <ele>131.19999694824</ele>
        <time>2011-09-01T11:41:55.000Z</time>
      </trkpt>
      <trkpt lat="43.62016" lon="7.05225">
        <ele>131.19999694824</ele>
        <time>2011-09-01T11:41:57.000Z</time>
      </trkpt>
      <trkpt lat="43.62017" lon="7.0524">
        <ele>131</ele>
        <time>2011-09-01T11:41:59.000Z</time>
      </trkpt>
      <trkpt lat="43.62022" lon="7.05272">
        <ele>129.39999389648</ele>
        <time>2011-09-01T11:42:03.000Z</time>
      </trkpt>
      <trkpt lat="43.62023" lon="7.05281">
        <ele>129</ele>
        <time>2011-09-01T11:42:04.000Z</time>
      </trkpt>
      <trkpt lat="43.62027" lon="7.05306">
        <ele>127.40000152588</ele>
        <time>2011-09-01T11:42:07.000Z</time>
      </trkpt>
      <trkpt lat="43.62032" lon="7.05331">
        <ele>126</ele>
        <time>2011-09-01T11:42:10.000Z</time>
      </trkpt>
      <trkpt lat="43.62033" lon="7.05347">
        <ele>125</ele>
        <time>2011-09-01T11:42:12.000Z</time>
      </trkpt>
      <trkpt lat="43.62034" lon="7.05362">
        <ele>124</ele>
        <time>2011-09-01T11:42:14.000Z</time>
      </trkpt>
      <trkpt lat="43.62035" lon="7.05369">
        <ele>123.40000152588</ele>
        <time>2011-09-01T11:42:15.000Z</time>
      </trkpt>
      <trkpt lat="43.6204" lon="7.05401">
        <ele>121</ele>
        <time>2011-09-01T11:42:19.000Z</time>
      </trkpt>
      <trkpt lat="43.62044" lon="7.05417">
        <ele>119.59999847412</ele>
        <time>2011-09-01T11:42:21.000Z</time>
      </trkpt>
      <trkpt lat="43.62049" lon="7.05447">
        <ele>118</ele>
        <time>2011-09-01T11:42:25.000Z</time>
      </trkpt>
      <trkpt lat="43.62048" lon="7.05454">
        <ele>118</ele>
        <time>2011-09-01T11:42:26.000Z</time>
      </trkpt>
      <trkpt lat="43.62045" lon="7.05482">
        <ele>117.59999847412</ele>
        <time>2011-09-01T11:42:30.000Z</time>
      </trkpt>
      <trkpt lat="43.62042" lon="7.05487">
        <ele>117.80000305176</ele>
        <time>2011-09-01T11:42:31.000Z</time>
      </trkpt>
      <trkpt lat="43.62043" lon="7.05496">
        <ele>117.40000152588</ele>
        <time>2011-09-01T11:42:34.000Z</time>
      </trkpt>
      <trkpt lat="43.62045" lon="7.05516">
        <ele>116.80000305176</ele>
        <time>2011-09-01T11:42:38.000Z</time>
      </trkpt>
      <trkpt lat="43.62046" lon="7.05522">
        <ele>116.59999847412</ele>
        <time>2011-09-01T11:42:39.000Z</time>
      </trkpt>
      <trkpt lat="43.6205" lon="7.05549">
        <ele>115.80000305176</ele>
        <time>2011-09-01T11:42:44.000Z</time>
      </trkpt>
      <trkpt lat="43.62055" lon="7.05559">
        <ele>115.19999694824</ele>
        <time>2011-09-01T11:42:46.000Z</time>
      </trkpt>
      <trkpt lat="43.62061" lon="7.05568">
        <ele>114.59999847412</ele>
        <time>2011-09-01T11:42:50.000Z</time>
      </trkpt>
      <trkpt lat="43.62065" lon="7.05573">
        <ele>114.19999694824</ele>
        <time>2011-09-01T11:42:53.000Z</time>
      </trkpt>
      <trkpt lat="43.6207" lon="7.05574">
        <ele>114</ele>
        <time>2011-09-01T11:42:54.000Z</time>
      </trkpt>
      <trkpt lat="43.62087" lon="7.05571">
        <ele>112.80000305176</ele>
        <time>2011-09-01T11:42:57.000Z</time>
      </trkpt>
      <trkpt lat="43.62095" lon="7.0557">
        <ele>112.80000305176</ele>
        <time>2011-09-01T11:42:58.000Z</time>
      </trkpt>
      <trkpt lat="43.62116" lon="7.05562">
        <ele>112.59999847412</ele>
        <time>2011-09-01T11:43:01.000Z</time>
      </trkpt>
      <trkpt lat="43.62123" lon="7.05559">
        <ele>112.59999847412</ele>
        <time>2011-09-01T11:43:02.000Z</time>
      </trkpt>
      <trkpt lat="43.62145" lon="7.05555">
        <ele>112.59999847412</ele>
        <time>2011-09-01T11:43:05.000Z</time>
      </trkpt>
      <trkpt lat="43.62159" lon="7.05559">
        <ele>112.40000152588</ele>
        <time>2011-09-01T11:43:07.000Z</time>
      </trkpt>
      <trkpt lat="43.62173" lon="7.05576">
        <ele>111.59999847412</ele>
        <time>2011-09-01T11:43:10.000Z</time>
      </trkpt>
      <trkpt lat="43.62181" lon="7.05588">
        <ele>111.40000152588</ele>
        <time>2011-09-01T11:43:12.000Z</time>
      </trkpt>
      <trkpt lat="43.62192" lon="7.05608">
        <ele>111.80000305176</ele>
        <time>2011-09-01T11:43:15.000Z</time>
      </trkpt>
      <trkpt lat="43.62195" lon="7.05616">
        <ele>112</ele>
        <time>2011-09-01T11:43:16.000Z</time>
      </trkpt>
      <trkpt lat="43.622" lon="7.05639">
        <ele>112.19999694824</ele>
        <time>2011-09-01T11:43:19.000Z</time>
      </trkpt>
      <trkpt lat="43.62201" lon="7.05646">
        <ele>112.40000152588</ele>
        <time>2011-09-01T11:43:20.000Z</time>
      </trkpt>
      <trkpt lat="43.62202" lon="7.05654">
        <ele>112.40000152588</ele>
        <time>2011-09-01T11:43:21.000Z</time>
      </trkpt>
      <trkpt lat="43.62202" lon="7.05683">
        <ele>112.80000305176</ele>
        <time>2011-09-01T11:43:25.000Z</time>
      </trkpt>
      <trkpt lat="43.622" lon="7.05696">
        <ele>113</ele>
        <time>2011-09-01T11:43:27.000Z</time>
      </trkpt>
      <trkpt lat="43.62195" lon="7.05717">
        <ele>113.19999694824</ele>
        <time>2011-09-01T11:43:30.000Z</time>
      </trkpt>
      <trkpt lat="43.62188" lon="7.05737">
        <ele>113</ele>
        <time>2011-09-01T11:43:33.000Z</time>
      </trkpt>
      <trkpt lat="43.62179" lon="7.05761">
        <ele>112.80000305176</ele>
        <time>2011-09-01T11:43:37.000Z</time>
      </trkpt>
      <trkpt lat="43.62173" lon="7.05786">
        <ele>113.40000152588</ele>
        <time>2011-09-01T11:43:41.000Z</time>
      </trkpt>
      <trkpt lat="43.62172" lon="7.05793">
        <ele>113.80000305176</ele>
        <time>2011-09-01T11:43:42.000Z</time>
      </trkpt>
      <trkpt lat="43.62169" lon="7.05821">
        <ele>114.59999847412</ele>
        <time>2011-09-01T11:43:46.000Z</time>
      </trkpt>
      <trkpt lat="43.62167" lon="7.05839">
        <ele>115.40000152588</ele>
        <time>2011-09-01T11:43:49.000Z</time>
      </trkpt>
      <trkpt lat="43.62167" lon="7.05858">
        <ele>116.59999847412</ele>
        <time>2011-09-01T11:43:53.000Z</time>
      </trkpt>
      <trkpt lat="43.62169" lon="7.05863">
        <ele>117.40000152588</ele>
        <time>2011-09-01T11:43:55.000Z</time>
      </trkpt>
      <trkpt lat="43.62171" lon="7.05866">
        <ele>118</ele>
        <time>2011-09-01T11:43:57.000Z</time>
      </trkpt>
      <trkpt lat="43.62173" lon="7.0587">
        <ele>118.80000305176</ele>
        <time>2011-09-01T11:44:00.000Z</time>
      </trkpt>
      <trkpt lat="43.62171" lon="7.05883">
        <ele>119.40000152588</ele>
        <time>2011-09-01T11:44:04.000Z</time>
      </trkpt>
      <trkpt lat="43.62167" lon="7.05892">
        <ele>119.19999694824</ele>
        <time>2011-09-01T11:44:09.000Z</time>
      </trkpt>
      <trkpt lat="43.62167" lon="7.05894">
        <ele>119.19999694824</ele>
        <time>2011-09-01T11:44:10.000Z</time>
      </trkpt>
      <trkpt lat="43.62167" lon="7.05908">
        <ele>120.40000152588</ele>
        <time>2011-09-01T11:44:15.000Z</time>
      </trkpt>
      <trkpt lat="43.62167" lon="7.05911">
        <ele>120.59999847412</ele>
        <time>2011-09-01T11:44:16.000Z</time>
      </trkpt>
      <trkpt lat="43.62166" lon="7.05916">
        <ele>120.80000305176</ele>
        <time>2011-09-01T11:44:19.000Z</time>
      </trkpt>
      <trkpt lat="43.62162" lon="7.05919">
        <ele>120.40000152588</ele>
        <time>2011-09-01T11:44:22.000Z</time>
      </trkpt>
      <trkpt lat="43.6216" lon="7.05921">
        <ele>120.40000152588</ele>
        <time>2011-09-01T11:44:24.000Z</time>
      </trkpt>
      <trkpt lat="43.62158" lon="7.05926">
        <ele>120.40000152588</ele>
        <time>2011-09-01T11:44:27.000Z</time>
      </trkpt>
      <trkpt lat="43.6216" lon="7.05937">
        <ele>121</ele>
        <time>2011-09-01T11:44:32.000Z</time>
      </trkpt>
      <trkpt lat="43.62159" lon="7.05943">
        <ele>121.19999694824</ele>
        <time>2011-09-01T11:44:34.000Z</time>
      </trkpt>
      <trkpt lat="43.62157" lon="7.05959">
        <ele>121.59999847412</ele>
        <time>2011-09-01T11:44:39.000Z</time>
      </trkpt>
      <trkpt lat="43.62159" lon="7.05968">
        <ele>122.40000152588</ele>
        <time>2011-09-01T11:44:42.000Z</time>
      </trkpt>
      <trkpt lat="43.62161" lon="7.05969">
        <ele>122.59999847412</ele>
        <time>2011-09-01T11:44:43.000Z</time>
      </trkpt>
      <trkpt lat="43.62171" lon="7.05975">
        <ele>124.40000152588</ele>
        <time>2011-09-01T11:44:49.000Z</time>
      </trkpt>
      <trkpt lat="43.62182" lon="7.05977">
        <ele>126.59999847412</ele>
        <time>2011-09-01T11:44:56.000Z</time>
      </trkpt>
      <trkpt lat="43.62194" lon="7.05976">
        <ele>128.80000305176</ele>
        <time>2011-09-01T11:45:03.000Z</time>
      </trkpt>
      <trkpt lat="43.62202" lon="7.05981">
        <ele>130.39999389648</ele>
        <time>2011-09-01T11:45:08.000Z</time>
      </trkpt>
      <trkpt lat="43.62202" lon="7.05984">
        <ele>130.60000610352</ele>
        <time>2011-09-01T11:45:09.000Z</time>
      </trkpt>
      <trkpt lat="43.62202" lon="7.05994">
        <ele>131</ele>
        <time>2011-09-01T11:45:12.000Z</time>
      </trkpt>
      <trkpt lat="43.62202" lon="7.06006">
        <ele>131</ele>
        <time>2011-09-01T11:45:15.000Z</time>
      </trkpt>
      <trkpt lat="43.62202" lon="7.06027">
        <ele>130.39999389648</ele>
        <time>2011-09-01T11:45:22.000Z</time>
      </trkpt>
      <trkpt lat="43.62203" lon="7.0603">
        <ele>130.39999389648</ele>
        <time>2011-09-01T11:45:23.000Z</time>
      </trkpt>
      <trkpt lat="43.62203" lon="7.06035">
        <ele>130.39999389648</ele>
        <time>2011-09-01T11:45:33.000Z</time>
      </trkpt>
      <trkpt lat="43.62203" lon="7.06035">
        <ele>130.39999389648</ele>
        <time>2011-09-01T11:45:34.000Z</time>
      </trkpt>
      <trkpt lat="43.62203" lon="7.06035">
        <ele>130.19999694824</ele>
        <time>2011-09-01T11:45:37.000Z</time>
      </trkpt>
    </trkseg>
  </trk>
</gpx>